<?xml version="1.0" encoding="UTF-8"?>
<gpx version="1.0" creator="Trackator" xmlns:xsi="http://www.w3.org/2001/XMLSchema-instance" xmlns="http://www.topografix.com/GPX/1/0" xmlns:topografix="http://www.topografix.com/GPX/Private/TopoGrafix/0/1" xsi:schemaLocation="http://www.topografix.com/GPX/1/0 http://www.topografix.com/GPX/1/0/gpx.xsd http://www.topografix.com/GPX/Private/TopoGrafix/0/1 http://www.topografix.com/GPX/Private/TopoGrafix/0/1/topografix.xsd">
<metadata>
<link href="http://www.trackator.com">
<text>Trackator</text>
</link>
</metadata>
<time>2016-06-19T:29:15Z</time>
<trk>
<name>Track: </name>
<desc>Cycling</desc>
<trkseg>
<trkpt lat="53.348129854157506" lon="18.44591315064584">
<ele>124</ele>
<time>2016-06-19T:29:15Z</time>
</trkpt>
<trkpt lat="53.348129854157506" lon="18.44591315064584">
<ele>124</ele>
<time>2016-06-19T19:29:17Z</time>
</trkpt>
<trkpt lat="53.348129854157506" lon="18.44591315064584">
<ele>124</ele>
<time>2016-06-19T19:29:19Z</time>
</trkpt>
<trkpt lat="53.3481657954775" lon="18.445908295180235">
<ele>121</ele>
<time>2016-06-19T19:29:21Z</time>
</trkpt>
<trkpt lat="53.34823586125075" lon="18.445871207217003">
<ele>119</ele>
<time>2016-06-19T19:29:23Z</time>
</trkpt>
<trkpt lat="53.34828989660323" lon="18.44582960801246">
<ele>121</ele>
<time>2016-06-19T19:29:25Z</time>
</trkpt>
<trkpt lat="53.34833050744577" lon="18.445773639911522">
<ele>121</ele>
<time>2016-06-19T19:29:27Z</time>
</trkpt>
<trkpt lat="53.34835994687951" lon="18.445696282408456">
<ele>120</ele>
<time>2016-06-19T19:29:29Z</time>
</trkpt>
<trkpt lat="53.348372961338974" lon="18.445631191592263">
<ele>119</ele>
<time>2016-06-19T19:29:31Z</time>
</trkpt>
<trkpt lat="53.34837576435676" lon="18.445565195876203">
<ele>118</ele>
<time>2016-06-19T19:29:33Z</time>
</trkpt>
<trkpt lat="53.348374009469005" lon="18.44553495159108">
<ele>115</ele>
<time>2016-06-19T19:29:35Z</time>
</trkpt>
<trkpt lat="53.348392123588376" lon="18.44555026572121">
<ele>113</ele>
<time>2016-06-19T19:29:37Z</time>
</trkpt>
<trkpt lat="53.348422818626496" lon="18.445601145410002">
<ele>112</ele>
<time>2016-06-19T19:29:39Z</time>
</trkpt>
<trkpt lat="53.34843937244152" lon="18.445616729079436">
<ele>112</ele>
<time>2016-06-19T19:29:41Z</time>
</trkpt>
<trkpt lat="53.348476898255036" lon="18.445649302558166">
<ele>111</ele>
<time>2016-06-19T19:29:43Z</time>
</trkpt>
<trkpt lat="53.34852078965982" lon="18.445706952115952">
<ele>108</ele>
<time>2016-06-19T19:29:45Z</time>
</trkpt>
<trkpt lat="53.34857010767029" lon="18.445739710227585">
<ele>106</ele>
<time>2016-06-19T19:29:47Z</time>
</trkpt>
<trkpt lat="53.348596136404545" lon="18.4457551661972">
<ele>106</ele>
<time>2016-06-19T19:29:49Z</time>
</trkpt>
<trkpt lat="53.348623915550526" lon="18.44575744137403">
<ele>106</ele>
<time>2016-06-19T19:29:51Z</time>
</trkpt>
<trkpt lat="53.34865170157643" lon="18.445768340679844">
<ele>105</ele>
<time>2016-06-19T19:29:53Z</time>
</trkpt>
<trkpt lat="53.34866661905431" lon="18.445772367499593">
<ele>105</ele>
<time>2016-06-19T19:29:55Z</time>
</trkpt>
<trkpt lat="53.34870540919604" lon="18.44576790960202">
<ele>105</ele>
<time>2016-06-19T19:29:57Z</time>
</trkpt>
<trkpt lat="53.348754539455726" lon="18.445770202433255">
<ele>105</ele>
<time>2016-06-19T19:29:59Z</time>
</trkpt>
<trkpt lat="53.34880940895355" lon="18.44578926205949">
<ele>103</ele>
<time>2016-06-19T19:30:01Z</time>
</trkpt>
<trkpt lat="53.34885743224106" lon="18.44580067206882">
<ele>102</ele>
<time>2016-06-19T19:30:03Z</time>
</trkpt>
<trkpt lat="53.34889487460385" lon="18.445781287833142">
<ele>101</ele>
<time>2016-06-19T19:30:05Z</time>
</trkpt>
<trkpt lat="53.348934378881964" lon="18.445733339339494">
<ele>101</ele>
<time>2016-06-19T19:30:07Z</time>
</trkpt>
<trkpt lat="53.348969550163964" lon="18.445681387385374">
<ele>100</ele>
<time>2016-06-19T19:30:09Z</time>
</trkpt>
<trkpt lat="53.34899487766245" lon="18.445644328379025">
<ele>101</ele>
<time>2016-06-19T19:30:11Z</time>
</trkpt>
<trkpt lat="53.34901205417818" lon="18.44566748357991">
<ele>101</ele>
<time>2016-06-19T19:30:13Z</time>
</trkpt>
<trkpt lat="53.34902438681167" lon="18.445703700290256">
<ele>101</ele>
<time>2016-06-19T19:30:15Z</time>
</trkpt>
<trkpt lat="53.3490424675127" lon="18.445741665046544">
<ele>101</ele>
<time>2016-06-19T19:30:17Z</time>
</trkpt>
<trkpt lat="53.34905896622002" lon="18.44575560217781">
<ele>102</ele>
<time>2016-06-19T19:30:19Z</time>
</trkpt>
<trkpt lat="53.349060811279394" lon="18.445754218455875">
<ele>102</ele>
<time>2016-06-19T19:30:21Z</time>
</trkpt>
<trkpt lat="53.349086513044895" lon="18.445737983122793">
<ele>102</ele>
<time>2016-06-19T19:30:23Z</time>
</trkpt>
<trkpt lat="53.349121963662185" lon="18.4457330238635">
<ele>102</ele>
<time>2016-06-19T19:30:25Z</time>
</trkpt>
<trkpt lat="53.34915872698134" lon="18.445730062870943">
<ele>101</ele>
<time>2016-06-19T19:30:27Z</time>
</trkpt>
<trkpt lat="53.34920509509586" lon="18.445735158471145">
<ele>100</ele>
<time>2016-06-19T19:30:29Z</time>
</trkpt>
<trkpt lat="53.349252663687274" lon="18.445760488375715">
<ele>99</ele>
<time>2016-06-19T19:30:31Z</time>
</trkpt>
<trkpt lat="53.34929596295711" lon="18.4457916803595">
<ele>98</ele>
<time>2016-06-19T19:30:33Z</time>
</trkpt>
<trkpt lat="53.34933362734098" lon="18.44582300515194">
<ele>98</ele>
<time>2016-06-19T19:30:35Z</time>
</trkpt>
<trkpt lat="53.34938292691729" lon="18.445820164444676">
<ele>97</ele>
<time>2016-06-19T19:30:37Z</time>
</trkpt>
<trkpt lat="53.34942418333527" lon="18.445804174779575">
<ele>95</ele>
<time>2016-06-19T19:30:39Z</time>
</trkpt>
<trkpt lat="53.349460288235775" lon="18.445830105046447">
<ele>95</ele>
<time>2016-06-19T19:30:41Z</time>
</trkpt>
<trkpt lat="53.34950040023066" lon="18.4458689136575">
<ele>95</ele>
<time>2016-06-19T19:30:43Z</time>
</trkpt>
<trkpt lat="53.34953843169071" lon="18.44590980034935">
<ele>95</ele>
<time>2016-06-19T19:30:45Z</time>
</trkpt>
<trkpt lat="53.34956325430906" lon="18.445965796842064">
<ele>94</ele>
<time>2016-06-19T19:30:47Z</time>
</trkpt>
<trkpt lat="53.349586840287586" lon="18.446012262165425">
<ele>94</ele>
<time>2016-06-19T19:30:49Z</time>
</trkpt>
<trkpt lat="53.34961964311599" lon="18.44606485313658">
<ele>93</ele>
<time>2016-06-19T19:30:51Z</time>
</trkpt>
<trkpt lat="53.34965722608825" lon="18.44611398579539">
<ele>93</ele>
<time>2016-06-19T19:30:53Z</time>
</trkpt>
<trkpt lat="53.349698744637806" lon="18.446196547118245">
<ele>91</ele>
<time>2016-06-19T19:30:55Z</time>
</trkpt>
<trkpt lat="53.34974754034082" lon="18.446279223841227">
<ele>91</ele>
<time>2016-06-19T19:30:57Z</time>
</trkpt>
<trkpt lat="53.34979149481089" lon="18.44634779584066">
<ele>90</ele>
<time>2016-06-19T19:30:59Z</time>
</trkpt>
<trkpt lat="53.349835580284825" lon="18.446435070929684">
<ele>91</ele>
<time>2016-06-19T19:31:01Z</time>
</trkpt>
<trkpt lat="53.34986981368694" lon="18.44651118468427">
<ele>91</ele>
<time>2016-06-19T19:31:03Z</time>
</trkpt>
<trkpt lat="53.34990969851156" lon="18.44656967877566">
<ele>92</ele>
<time>2016-06-19T19:31:05Z</time>
</trkpt>
<trkpt lat="53.34995412348263" lon="18.446634170424648">
<ele>92</ele>
<time>2016-06-19T19:31:07Z</time>
</trkpt>
<trkpt lat="53.34998714032069" lon="18.44669183884152">
<ele>91</ele>
<time>2016-06-19T19:31:09Z</time>
</trkpt>
<trkpt lat="53.3500251355139" lon="18.44676431811137">
<ele>91</ele>
<time>2016-06-19T19:31:11Z</time>
</trkpt>
<trkpt lat="53.35006934972118" lon="18.44685333284501">
<ele>90</ele>
<time>2016-06-19T19:31:13Z</time>
</trkpt>
<trkpt lat="53.35013816183838" lon="18.446991417097596">
<ele>88</ele>
<time>2016-06-19T19:31:15Z</time>
</trkpt>
<trkpt lat="53.35022985644641" lon="18.447152807068857">
<ele>85</ele>
<time>2016-06-19T19:31:17Z</time>
</trkpt>
<trkpt lat="53.35029668099346" lon="18.447274349088474">
<ele>84</ele>
<time>2016-06-19T19:31:19Z</time>
</trkpt>
<trkpt lat="53.35034589592208" lon="18.44736783953418">
<ele>83</ele>
<time>2016-06-19T19:31:21Z</time>
</trkpt>
<trkpt lat="53.35039275477979" lon="18.44745852295383">
<ele>84</ele>
<time>2016-06-19T19:31:23Z</time>
</trkpt>
<trkpt lat="53.35042259124731" lon="18.447535736998528">
<ele>83</ele>
<time>2016-06-19T19:31:25Z</time>
</trkpt>
<trkpt lat="53.35044822663988" lon="18.44760117304248">
<ele>83</ele>
<time>2016-06-19T19:31:27Z</time>
</trkpt>
<trkpt lat="53.35048665971643" lon="18.447668294796582">
<ele>82</ele>
<time>2016-06-19T19:31:29Z</time>
</trkpt>
<trkpt lat="53.35053469968258" lon="18.447755438806343">
<ele>82</ele>
<time>2016-06-19T19:31:31Z</time>
</trkpt>
<trkpt lat="53.35058742533483" lon="18.447864642691375">
<ele>82</ele>
<time>2016-06-19T19:31:33Z</time>
</trkpt>
<trkpt lat="53.35062192799915" lon="18.447919858252043">
<ele>82</ele>
<time>2016-06-19T19:31:35Z</time>
</trkpt>
<trkpt lat="53.350624992444274" lon="18.447864405418503">
<ele>83</ele>
<time>2016-06-19T19:31:37Z</time>
</trkpt>
<trkpt lat="53.350605256719064" lon="18.44779609730058">
<ele>83</ele>
<time>2016-06-19T19:31:39Z</time>
</trkpt>
<trkpt lat="53.350579903160494" lon="18.447732384327054">
<ele>84</ele>
<time>2016-06-19T19:31:41Z</time>
</trkpt>
<trkpt lat="53.350554146066834" lon="18.447665332261874">
<ele>85</ele>
<time>2016-06-19T19:31:43Z</time>
</trkpt>
<trkpt lat="53.350528097627276" lon="18.447597957743472">
<ele>86</ele>
<time>2016-06-19T19:31:45Z</time>
</trkpt>
<trkpt lat="53.35049888919849" lon="18.447518224392617">
<ele>87</ele>
<time>2016-06-19T19:31:47Z</time>
</trkpt>
<trkpt lat="53.35047578288174" lon="18.447454173624553">
<ele>88</ele>
<time>2016-06-19T19:31:49Z</time>
</trkpt>
<trkpt lat="53.350445926682276" lon="18.447393585380542">
<ele>89</ele>
<time>2016-06-19T19:31:51Z</time>
</trkpt>
<trkpt lat="53.35041836352162" lon="18.447327224257027">
<ele>90</ele>
<time>2016-06-19T19:31:53Z</time>
</trkpt>
<trkpt lat="53.35038560154629" lon="18.447269724090443">
<ele>91</ele>
<time>2016-06-19T19:31:55Z</time>
</trkpt>
<trkpt lat="53.35035470571596" lon="18.447224166884773">
<ele>91</ele>
<time>2016-06-19T19:31:57Z</time>
</trkpt>
<trkpt lat="53.35032088009013" lon="18.447196526902072">
<ele>90</ele>
<time>2016-06-19T19:31:59Z</time>
</trkpt>
<trkpt lat="53.350294323932644" lon="18.44715756696117">
<ele>91</ele>
<time>2016-06-19T19:32:01Z</time>
</trkpt>
<trkpt lat="53.35027327336997" lon="18.447105551959574">
<ele>92</ele>
<time>2016-06-19T19:32:03Z</time>
</trkpt>
<trkpt lat="53.35025166140958" lon="18.447049469755743">
<ele>93</ele>
<time>2016-06-19T19:32:05Z</time>
</trkpt>
<trkpt lat="53.35023614994723" lon="18.446991235390016">
<ele>93</ele>
<time>2016-06-19T19:32:07Z</time>
</trkpt>
<trkpt lat="53.35021573444922" lon="18.44692013793015">
<ele>92</ele>
<time>2016-06-19T19:32:09Z</time>
</trkpt>
<trkpt lat="53.35018905906946" lon="18.446849068731005">
<ele>93</ele>
<time>2016-06-19T19:32:11Z</time>
</trkpt>
<trkpt lat="53.35016676967066" lon="18.446781803900663">
<ele>92</ele>
<time>2016-06-19T19:32:13Z</time>
</trkpt>
<trkpt lat="53.350141473278484" lon="18.44672008962784">
<ele>92</ele>
<time>2016-06-19T19:32:15Z</time>
</trkpt>
<trkpt lat="53.350126661652446" lon="18.44663943061483">
<ele>93</ele>
<time>2016-06-19T19:32:17Z</time>
</trkpt>
<trkpt lat="53.350143619520104" lon="18.446565303837005">
<ele>93</ele>
<time>2016-06-19T19:32:19Z</time>
</trkpt>
<trkpt lat="53.35018464430658" lon="18.446522786889354">
<ele>94</ele>
<time>2016-06-19T19:32:21Z</time>
</trkpt>
<trkpt lat="53.35023282043076" lon="18.446489086272635">
<ele>93</ele>
<time>2016-06-19T19:32:23Z</time>
</trkpt>
<trkpt lat="53.35027507523534" lon="18.44646455805905">
<ele>94</ele>
<time>2016-06-19T19:32:25Z</time>
</trkpt>
<trkpt lat="53.35030540529861" lon="18.4464407150765">
<ele>94</ele>
<time>2016-06-19T19:32:27Z</time>
</trkpt>
<trkpt lat="53.3503308359576" lon="18.44641666681061">
<ele>94</ele>
<time>2016-06-19T19:32:29Z</time>
</trkpt>
<trkpt lat="53.35035389598791" lon="18.446387895498134">
<ele>95</ele>
<time>2016-06-19T19:32:31Z</time>
</trkpt>
<trkpt lat="53.35038644709663" lon="18.44635604225523">
<ele>95</ele>
<time>2016-06-19T19:32:33Z</time>
</trkpt>
<trkpt lat="53.35042624638584" lon="18.44631364422441">
<ele>96</ele>
<time>2016-06-19T19:32:35Z</time>
</trkpt>
<trkpt lat="53.350468316403884" lon="18.446277952766096">
<ele>95</ele>
<time>2016-06-19T19:32:37Z</time>
</trkpt>
<trkpt lat="53.350503762587934" lon="18.446233399764715">
<ele>97</ele>
<time>2016-06-19T19:32:39Z</time>
</trkpt>
<trkpt lat="53.35054193162254" lon="18.446187184048767">
<ele>98</ele>
<time>2016-06-19T19:32:41Z</time>
</trkpt>
<trkpt lat="53.35057799488703" lon="18.446137205028034">
<ele>99</ele>
<time>2016-06-19T19:32:43Z</time>
</trkpt>
<trkpt lat="53.3506122424337" lon="18.44608909101529">
<ele>100</ele>
<time>2016-06-19T19:32:45Z</time>
</trkpt>
<trkpt lat="53.35064909949796" lon="18.446042151260468">
<ele>101</ele>
<time>2016-06-19T19:32:47Z</time>
</trkpt>
<trkpt lat="53.35069285218615" lon="18.445993629103814">
<ele>101</ele>
<time>2016-06-19T19:32:49Z</time>
</trkpt>
<trkpt lat="53.350739586794234" lon="18.445955641101257">
<ele>101</ele>
<time>2016-06-19T19:32:51Z</time>
</trkpt>
<trkpt lat="53.35078771076696" lon="18.445926101465865">
<ele>102</ele>
<time>2016-06-19T19:32:53Z</time>
</trkpt>
<trkpt lat="53.35083324336206" lon="18.44590121848007">
<ele>102</ele>
<time>2016-06-19T19:32:55Z</time>
</trkpt>
<trkpt lat="53.35087649421404" lon="18.44587187680183">
<ele>103</ele>
<time>2016-06-19T19:32:57Z</time>
</trkpt>
<trkpt lat="53.350913784462875" lon="18.44583073267597">
<ele>105</ele>
<time>2016-06-19T19:32:59Z</time>
</trkpt>
<trkpt lat="53.35092699008882" lon="18.445785141471738">
<ele>105</ele>
<time>2016-06-19T19:33:01Z</time>
</trkpt>
<trkpt lat="53.35092946572721" lon="18.445734453470457">
<ele>106</ele>
<time>2016-06-19T19:33:03Z</time>
</trkpt>
<trkpt lat="53.35093007205336" lon="18.445678622883428">
<ele>107</ele>
<time>2016-06-19T19:33:05Z</time>
</trkpt>
<trkpt lat="53.350920752062585" lon="18.4456211913392">
<ele>108</ele>
<time>2016-06-19T19:33:07Z</time>
</trkpt>
<trkpt lat="53.35090974673283" lon="18.4455462251021">
<ele>107</ele>
<time>2016-06-19T19:33:09Z</time>
</trkpt>
<trkpt lat="53.35088353709457" lon="18.4454691808656">
<ele>106</ele>
<time>2016-06-19T19:33:11Z</time>
</trkpt>
<trkpt lat="53.35085516439593" lon="18.445408609117763">
<ele>105</ele>
<time>2016-06-19T19:33:13Z</time>
</trkpt>
<trkpt lat="53.35082204785256" lon="18.44536160554228">
<ele>105</ele>
<time>2016-06-19T19:33:15Z</time>
</trkpt>
<trkpt lat="53.35078831721168" lon="18.44531560269078">
<ele>104</ele>
<time>2016-06-19T19:33:17Z</time>
</trkpt>
<trkpt lat="53.350740053453286" lon="18.445276389754085">
<ele>104</ele>
<time>2016-06-19T19:33:19Z</time>
</trkpt>
<trkpt lat="53.35069334516767" lon="18.445254942225947">
<ele>105</ele>
<time>2016-06-19T19:33:21Z</time>
</trkpt>
<trkpt lat="53.350651754219115" lon="18.445234708389105">
<ele>106</ele>
<time>2016-06-19T19:33:23Z</time>
</trkpt>
<trkpt lat="53.35061178376374" lon="18.445224827073897">
<ele>107</ele>
<time>2016-06-19T19:33:25Z</time>
</trkpt>
<trkpt lat="53.35057726057499" lon="18.445213207423414">
<ele>108</ele>
<time>2016-06-19T19:33:27Z</time>
</trkpt>
<trkpt lat="53.35053224441486" lon="18.44520090707726">
<ele>107</ele>
<time>2016-06-19T19:33:29Z</time>
</trkpt>
<trkpt lat="53.35048965414091" lon="18.445196551991703">
<ele>105</ele>
<time>2016-06-19T19:33:31Z</time>
</trkpt>
<trkpt lat="53.35045507819643" lon="18.445185842241752">
<ele>105</ele>
<time>2016-06-19T19:33:33Z</time>
</trkpt>
<trkpt lat="53.350418086876104" lon="18.445156343965774">
<ele>106</ele>
<time>2016-06-19T19:33:35Z</time>
</trkpt>
<trkpt lat="53.35037112460877" lon="18.445101713022087">
<ele>106</ele>
<time>2016-06-19T19:33:37Z</time>
</trkpt>
<trkpt lat="53.35032469954027" lon="18.445066147987404">
<ele>105</ele>
<time>2016-06-19T19:33:39Z</time>
</trkpt>
<trkpt lat="53.35027502581798" lon="18.44502337469724">
<ele>105</ele>
<time>2016-06-19T19:33:41Z</time>
</trkpt>
<trkpt lat="53.35021664291117" lon="18.444977446836372">
<ele>105</ele>
<time>2016-06-19T19:33:43Z</time>
</trkpt>
<trkpt lat="53.35016469427478" lon="18.4449580170375">
<ele>105</ele>
<time>2016-06-19T19:33:45Z</time>
</trkpt>
<trkpt lat="53.3501125698396" lon="18.44494104451136">
<ele>105</ele>
<time>2016-06-19T19:33:47Z</time>
</trkpt>
<trkpt lat="53.35007587483087" lon="18.444921304599063">
<ele>105</ele>
<time>2016-06-19T19:33:49Z</time>
</trkpt>
<trkpt lat="53.350046610428016" lon="18.44489217311539">
<ele>107</ele>
<time>2016-06-19T19:33:51Z</time>
</trkpt>
<trkpt lat="53.35001194017806" lon="18.444872658048794">
<ele>107</ele>
<time>2016-06-19T19:33:53Z</time>
</trkpt>
<trkpt lat="53.34998897282646" lon="18.444856216159952">
<ele>107</ele>
<time>2016-06-19T19:33:55Z</time>
</trkpt>
<trkpt lat="53.34998839457941" lon="18.444862897923773">
<ele>107</ele>
<time>2016-06-19T19:33:57Z</time>
</trkpt>
<trkpt lat="53.34998240304321" lon="18.44487227005864">
<ele>109</ele>
<time>2016-06-19T19:33:59Z</time>
</trkpt>
<trkpt lat="53.349978225980344" lon="18.444871474391995">
<ele>110</ele>
<time>2016-06-19T19:34:01Z</time>
</trkpt>
<trkpt lat="53.349978225980344" lon="18.444871474391995">
<ele>110</ele>
<time>2016-06-19T19:34:03Z</time>
</trkpt>
<trkpt lat="53.349978225980344" lon="18.444871474391995">
<ele>110</ele>
<time>2016-06-19T19:34:05Z</time>
</trkpt>
<trkpt lat="53.349978225980344" lon="18.444871474391995">
<ele>110</ele>
<time>2016-06-19T19:34:07Z</time>
</trkpt>
<trkpt lat="53.349969056815716" lon="18.444816076071145">
<ele>112</ele>
<time>2016-06-19T19:34:09Z</time>
</trkpt>
<trkpt lat="53.34995038818544" lon="18.44477543400292">
<ele>113</ele>
<time>2016-06-19T19:34:11Z</time>
</trkpt>
<trkpt lat="53.349946314005024" lon="18.444757197493267">
<ele>113</ele>
<time>2016-06-19T19:34:13Z</time>
</trkpt>
<trkpt lat="53.349943779187605" lon="18.444714445983035">
<ele>115</ele>
<time>2016-06-19T19:34:15Z</time>
</trkpt>
<trkpt lat="53.34994162665459" lon="18.444680189410356">
<ele>115</ele>
<time>2016-06-19T19:34:17Z</time>
</trkpt>
<trkpt lat="53.34994162665459" lon="18.444680189410356">
<ele>115</ele>
<time>2016-06-19T19:34:19Z</time>
</trkpt>
<trkpt lat="53.34994162665459" lon="18.444680189410356">
<ele>115</ele>
<time>2016-06-19T19:34:21Z</time>
</trkpt>
<trkpt lat="53.34994162665459" lon="18.444680189410356">
<ele>115</ele>
<time>2016-06-19T19:34:23Z</time>
</trkpt>
<trkpt lat="53.349939618479674" lon="18.44464639693866">
<ele>115</ele>
<time>2016-06-19T19:34:25Z</time>
</trkpt>
<trkpt lat="53.349924218115824" lon="18.444589208984603">
<ele>116</ele>
<time>2016-06-19T19:34:27Z</time>
</trkpt>
<trkpt lat="53.34992232192999" lon="18.44453380013767">
<ele>116</ele>
<time>2016-06-19T19:34:29Z</time>
</trkpt>
<trkpt lat="53.349931964283655" lon="18.444468528129118">
<ele>118</ele>
<time>2016-06-19T19:34:31Z</time>
</trkpt>
<trkpt lat="53.3499451417665" lon="18.44441085140634">
<ele>118</ele>
<time>2016-06-19T19:34:33Z</time>
</trkpt>
<trkpt lat="53.34995720571749" lon="18.444358029473683">
<ele>119</ele>
<time>2016-06-19T19:34:35Z</time>
</trkpt>
<trkpt lat="53.34996869837726" lon="18.44429931708007">
<ele>120</ele>
<time>2016-06-19T19:34:37Z</time>
</trkpt>
<trkpt lat="53.349981542488614" lon="18.444239342064748">
<ele>122</ele>
<time>2016-06-19T19:34:39Z</time>
</trkpt>
<trkpt lat="53.34999556181744" lon="18.44418111661081">
<ele>123</ele>
<time>2016-06-19T19:34:41Z</time>
</trkpt>
<trkpt lat="53.35001184355973" lon="18.4441298930727">
<ele>124</ele>
<time>2016-06-19T19:34:43Z</time>
</trkpt>
<trkpt lat="53.35002023035777" lon="18.44405874414214">
<ele>125</ele>
<time>2016-06-19T19:34:45Z</time>
</trkpt>
<trkpt lat="53.35003038056109" lon="18.44397943579186">
<ele>126</ele>
<time>2016-06-19T19:34:47Z</time>
</trkpt>
<trkpt lat="53.35003738008706" lon="18.443897560686786">
<ele>127</ele>
<time>2016-06-19T19:34:49Z</time>
</trkpt>
<trkpt lat="53.350047365076726" lon="18.443819443843616">
<ele>127</ele>
<time>2016-06-19T19:34:51Z</time>
</trkpt>
<trkpt lat="53.350057025262664" lon="18.443732238599072">
<ele>129</ele>
<time>2016-06-19T19:34:53Z</time>
</trkpt>
<trkpt lat="53.35006339246896" lon="18.44363090849323">
<ele>130</ele>
<time>2016-06-19T19:34:55Z</time>
</trkpt>
<trkpt lat="53.350072555054886" lon="18.443535043385015">
<ele>130</ele>
<time>2016-06-19T19:34:57Z</time>
</trkpt>
<trkpt lat="53.3500901013398" lon="18.443458844318435">
<ele>129</ele>
<time>2016-06-19T19:34:59Z</time>
</trkpt>
<trkpt lat="53.35010291191639" lon="18.443376628328142">
<ele>127</ele>
<time>2016-06-19T19:35:01Z</time>
</trkpt>
<trkpt lat="53.350117919426445" lon="18.44329899174045">
<ele>126</ele>
<time>2016-06-19T19:35:03Z</time>
</trkpt>
<trkpt lat="53.350135466636566" lon="18.44322464438352">
<ele>125</ele>
<time>2016-06-19T19:35:05Z</time>
</trkpt>
<trkpt lat="53.35015635206182" lon="18.44313581690743">
<ele>125</ele>
<time>2016-06-19T19:35:07Z</time>
</trkpt>
<trkpt lat="53.35017286946021" lon="18.443048453000834">
<ele>124</ele>
<time>2016-06-19T19:35:09Z</time>
</trkpt>
<trkpt lat="53.35018505128939" lon="18.442956773157945">
<ele>124</ele>
<time>2016-06-19T19:35:11Z</time>
</trkpt>
<trkpt lat="53.350204637682445" lon="18.442864275121867">
<ele>123</ele>
<time>2016-06-19T19:35:13Z</time>
</trkpt>
<trkpt lat="53.35022300082888" lon="18.442780482669587">
<ele>123</ele>
<time>2016-06-19T19:35:15Z</time>
</trkpt>
<trkpt lat="53.35023715525151" lon="18.44270304848623">
<ele>122</ele>
<time>2016-06-19T19:35:17Z</time>
</trkpt>
<trkpt lat="53.35025632387794" lon="18.442636214748582">
<ele>122</ele>
<time>2016-06-19T19:35:19Z</time>
</trkpt>
<trkpt lat="53.35030365215001" lon="18.44257803978225">
<ele>123</ele>
<time>2016-06-19T19:35:21Z</time>
</trkpt>
<trkpt lat="53.35033881801965" lon="18.44251594368991">
<ele>126</ele>
<time>2016-06-19T19:35:23Z</time>
</trkpt>
<trkpt lat="53.350339181958745" lon="18.442426186914613">
<ele>125</ele>
<time>2016-06-19T19:35:25Z</time>
</trkpt>
<trkpt lat="53.35034422095141" lon="18.442298730215978">
<ele>124</ele>
<time>2016-06-19T19:35:27Z</time>
</trkpt>
<trkpt lat="53.350337800027006" lon="18.442168671488044">
<ele>124</ele>
<time>2016-06-19T19:35:29Z</time>
</trkpt>
<trkpt lat="53.350343729793266" lon="18.442041960778912">
<ele>123</ele>
<time>2016-06-19T19:35:31Z</time>
</trkpt>
<trkpt lat="53.35034615399061" lon="18.441921385382013">
<ele>121</ele>
<time>2016-06-19T19:35:33Z</time>
</trkpt>
<trkpt lat="53.350349873125104" lon="18.441783449377567">
<ele>121</ele>
<time>2016-06-19T19:35:35Z</time>
</trkpt>
<trkpt lat="53.35036031760046" lon="18.441631880258154">
<ele>120</ele>
<time>2016-06-19T19:35:37Z</time>
</trkpt>
<trkpt lat="53.35039633340122" lon="18.441481924349244">
<ele>119</ele>
<time>2016-06-19T19:35:39Z</time>
</trkpt>
<trkpt lat="53.350445371236155" lon="18.44133805805456">
<ele>118</ele>
<time>2016-06-19T19:35:41Z</time>
</trkpt>
<trkpt lat="53.35047933594399" lon="18.441198950033666">
<ele>117</ele>
<time>2016-06-19T19:35:43Z</time>
</trkpt>
<trkpt lat="53.350503635259194" lon="18.441064895543953">
<ele>118</ele>
<time>2016-06-19T19:35:45Z</time>
</trkpt>
<trkpt lat="53.35052500814021" lon="18.44093584264299">
<ele>119</ele>
<time>2016-06-19T19:35:47Z</time>
</trkpt>
<trkpt lat="53.35055721862048" lon="18.44081460198942">
<ele>119</ele>
<time>2016-06-19T19:35:49Z</time>
</trkpt>
<trkpt lat="53.350573584572395" lon="18.44070057132926">
<ele>120</ele>
<time>2016-06-19T19:35:51Z</time>
</trkpt>
<trkpt lat="53.35058641906822" lon="18.440597704233475">
<ele>120</ele>
<time>2016-06-19T19:35:53Z</time>
</trkpt>
<trkpt lat="53.350605475319455" lon="18.44049981804117">
<ele>119</ele>
<time>2016-06-19T19:35:55Z</time>
</trkpt>
<trkpt lat="53.350621317360066" lon="18.440404701640908">
<ele>119</ele>
<time>2016-06-19T19:35:57Z</time>
</trkpt>
<trkpt lat="53.350631640721616" lon="18.44031682252079">
<ele>119</ele>
<time>2016-06-19T19:35:59Z</time>
</trkpt>
<trkpt lat="53.350648797168006" lon="18.440223714844784">
<ele>118</ele>
<time>2016-06-19T19:36:01Z</time>
</trkpt>
<trkpt lat="53.35066953831439" lon="18.440133018259207">
<ele>118</ele>
<time>2016-06-19T19:36:03Z</time>
</trkpt>
<trkpt lat="53.35068984718717" lon="18.440025689975695">
<ele>118</ele>
<time>2016-06-19T19:36:05Z</time>
</trkpt>
<trkpt lat="53.350695081155074" lon="18.43992547217184">
<ele>118</ele>
<time>2016-06-19T19:36:07Z</time>
</trkpt>
<trkpt lat="53.35069357156783" lon="18.43983501977241">
<ele>119</ele>
<time>2016-06-19T19:36:09Z</time>
</trkpt>
<trkpt lat="53.35070692010355" lon="18.439752745302883">
<ele>119</ele>
<time>2016-06-19T19:36:11Z</time>
</trkpt>
<trkpt lat="53.350716437451666" lon="18.439653707866796">
<ele>119</ele>
<time>2016-06-19T19:36:13Z</time>
</trkpt>
<trkpt lat="53.350725029689656" lon="18.439524946598976">
<ele>118</ele>
<time>2016-06-19T19:36:15Z</time>
</trkpt>
<trkpt lat="53.35073418605151" lon="18.439402814243085">
<ele>117</ele>
<time>2016-06-19T19:36:17Z</time>
</trkpt>
<trkpt lat="53.35074748906036" lon="18.43928311871571">
<ele>116</ele>
<time>2016-06-19T19:36:19Z</time>
</trkpt>
<trkpt lat="53.3507626370068" lon="18.439176332657837">
<ele>116</ele>
<time>2016-06-19T19:36:21Z</time>
</trkpt>
<trkpt lat="53.3507642438628" lon="18.439088065472532">
<ele>114</ele>
<time>2016-06-19T19:36:23Z</time>
</trkpt>
<trkpt lat="53.35077295957086" lon="18.438980924205286">
<ele>113</ele>
<time>2016-06-19T19:36:25Z</time>
</trkpt>
<trkpt lat="53.350787736217086" lon="18.438883524560993">
<ele>113</ele>
<time>2016-06-19T19:36:27Z</time>
</trkpt>
<trkpt lat="53.35080821849851" lon="18.438803640320113">
<ele>113</ele>
<time>2016-06-19T19:36:29Z</time>
</trkpt>
<trkpt lat="53.35083294224957" lon="18.43872385921628">
<ele>112</ele>
<time>2016-06-19T19:36:31Z</time>
</trkpt>
<trkpt lat="53.3508581102897" lon="18.438639601500494">
<ele>112</ele>
<time>2016-06-19T19:36:33Z</time>
</trkpt>
<trkpt lat="53.35088642202348" lon="18.43855977212727">
<ele>111</ele>
<time>2016-06-19T19:36:35Z</time>
</trkpt>
<trkpt lat="53.350903636566485" lon="18.438470055643183">
<ele>111</ele>
<time>2016-06-19T19:36:37Z</time>
</trkpt>
<trkpt lat="53.3509170691405" lon="18.43836516264738">
<ele>112</ele>
<time>2016-06-19T19:36:39Z</time>
</trkpt>
<trkpt lat="53.350941383520336" lon="18.43827553511087">
<ele>110</ele>
<time>2016-06-19T19:36:41Z</time>
</trkpt>
<trkpt lat="53.35095612690328" lon="18.43816829543497">
<ele>110</ele>
<time>2016-06-19T19:36:43Z</time>
</trkpt>
<trkpt lat="53.35097745960627" lon="18.438058404268887">
<ele>110</ele>
<time>2016-06-19T19:36:45Z</time>
</trkpt>
<trkpt lat="53.350993400894716" lon="18.437953197022384">
<ele>110</ele>
<time>2016-06-19T19:36:47Z</time>
</trkpt>
<trkpt lat="53.35100110996711" lon="18.437849554802327">
<ele>110</ele>
<time>2016-06-19T19:36:49Z</time>
</trkpt>
<trkpt lat="53.351020529351146" lon="18.437768487549032">
<ele>110</ele>
<time>2016-06-19T19:36:51Z</time>
</trkpt>
<trkpt lat="53.35104831619064" lon="18.437695231235246">
<ele>109</ele>
<time>2016-06-19T19:36:53Z</time>
</trkpt>
<trkpt lat="53.35108139142773" lon="18.437645300976364">
<ele>108</ele>
<time>2016-06-19T19:36:55Z</time>
</trkpt>
<trkpt lat="53.35110979560446" lon="18.437593725622687">
<ele>107</ele>
<time>2016-06-19T19:36:57Z</time>
</trkpt>
<trkpt lat="53.351135105345236" lon="18.43755802183431">
<ele>109</ele>
<time>2016-06-19T19:36:59Z</time>
</trkpt>
<trkpt lat="53.35115036556791" lon="18.43744620169795">
<ele>111</ele>
<time>2016-06-19T19:37:01Z</time>
</trkpt>
<trkpt lat="53.35118106114922" lon="18.437365502690916">
<ele>111</ele>
<time>2016-06-19T19:37:03Z</time>
</trkpt>
<trkpt lat="53.351213476912136" lon="18.437335871667088">
<ele>111</ele>
<time>2016-06-19T19:37:05Z</time>
</trkpt>
<trkpt lat="53.35125208779252" lon="18.437366129358185">
<ele>109</ele>
<time>2016-06-19T19:37:07Z</time>
</trkpt>
<trkpt lat="53.35126679320245" lon="18.437426110649096">
<ele>109</ele>
<time>2016-06-19T19:37:09Z</time>
</trkpt>
<trkpt lat="53.35128109535385" lon="18.43750620903469">
<ele>109</ele>
<time>2016-06-19T19:37:11Z</time>
</trkpt>
<trkpt lat="53.35130257289317" lon="18.43756296228228">
<ele>109</ele>
<time>2016-06-19T19:37:13Z</time>
</trkpt>
<trkpt lat="53.35130979035399" lon="18.437623356688867">
<ele>109</ele>
<time>2016-06-19T19:37:15Z</time>
</trkpt>
<trkpt lat="53.35131489656114" lon="18.437662432034653">
<ele>110</ele>
<time>2016-06-19T19:37:17Z</time>
</trkpt>
<trkpt lat="53.35132157622353" lon="18.43769807155978">
<ele>111</ele>
<time>2016-06-19T19:37:19Z</time>
</trkpt>
<trkpt lat="53.351319442213004" lon="18.437743129899093">
<ele>112</ele>
<time>2016-06-19T19:37:21Z</time>
</trkpt>
<trkpt lat="53.35131491131567" lon="18.43780142970894">
<ele>114</ele>
<time>2016-06-19T19:37:23Z</time>
</trkpt>
<trkpt lat="53.35131384189826" lon="18.437851085269227">
<ele>115</ele>
<time>2016-06-19T19:37:25Z</time>
</trkpt>
<trkpt lat="53.35130694000959" lon="18.43789231686948">
<ele>117</ele>
<time>2016-06-19T19:37:27Z</time>
</trkpt>
<trkpt lat="53.351303473722034" lon="18.437908179844776">
<ele>118</ele>
<time>2016-06-19T19:37:29Z</time>
</trkpt>
<trkpt lat="53.35130364102439" lon="18.43790171236405">
<ele>118</ele>
<time>2016-06-19T19:37:31Z</time>
</trkpt>
<trkpt lat="53.35130051125549" lon="18.437889430800933">
<ele>117</ele>
<time>2016-06-19T19:37:33Z</time>
</trkpt>
<trkpt lat="53.351302508033186" lon="18.437836973519005">
<ele>118</ele>
<time>2016-06-19T19:37:35Z</time>
</trkpt>
<trkpt lat="53.35131518384459" lon="18.43778026807455">
<ele>117</ele>
<time>2016-06-19T19:37:37Z</time>
</trkpt>
<trkpt lat="53.35131614695466" lon="18.43772826845885">
<ele>118</ele>
<time>2016-06-19T19:37:39Z</time>
</trkpt>
<trkpt lat="53.351321647056366" lon="18.437653895650378">
<ele>117</ele>
<time>2016-06-19T19:37:41Z</time>
</trkpt>
<trkpt lat="53.351313714863366" lon="18.43757363320876">
<ele>116</ele>
<time>2016-06-19T19:37:43Z</time>
</trkpt>
<trkpt lat="53.3513058253182" lon="18.43749695948594">
<ele>115</ele>
<time>2016-06-19T19:37:45Z</time>
</trkpt>
<trkpt lat="53.35128957290782" lon="18.43741599733618">
<ele>113</ele>
<time>2016-06-19T19:37:47Z</time>
</trkpt>
<trkpt lat="53.35126327866728" lon="18.437320777473897">
<ele>112</ele>
<time>2016-06-19T19:37:49Z</time>
</trkpt>
<trkpt lat="53.3512383225149" lon="18.437229489490548">
<ele>111</ele>
<time>2016-06-19T19:37:51Z</time>
</trkpt>
<trkpt lat="53.351209032410665" lon="18.437149217795028">
<ele>110</ele>
<time>2016-06-19T19:37:53Z</time>
</trkpt>
<trkpt lat="53.351190423389575" lon="18.437077746957325">
<ele>109</ele>
<time>2016-06-19T19:37:55Z</time>
</trkpt>
<trkpt lat="53.3511788451108" lon="18.437010021409098">
<ele>109</ele>
<time>2016-06-19T19:37:57Z</time>
</trkpt>
<trkpt lat="53.35116976235138" lon="18.4369349018256">
<ele>111</ele>
<time>2016-06-19T19:37:59Z</time>
</trkpt>
<trkpt lat="53.35116938958306" lon="18.436860378820626">
<ele>110</ele>
<time>2016-06-19T19:38:01Z</time>
</trkpt>
<trkpt lat="53.351161707281214" lon="18.436781169413266">
<ele>109</ele>
<time>2016-06-19T19:38:03Z</time>
</trkpt>
<trkpt lat="53.3511484572781" lon="18.436692460025363">
<ele>109</ele>
<time>2016-06-19T19:38:05Z</time>
</trkpt>
<trkpt lat="53.351132832569576" lon="18.436613610492934">
<ele>109</ele>
<time>2016-06-19T19:38:07Z</time>
</trkpt>
<trkpt lat="53.35112706729624" lon="18.436544939018034">
<ele>108</ele>
<time>2016-06-19T19:38:09Z</time>
</trkpt>
<trkpt lat="53.35111777597974" lon="18.436468893389232">
<ele>108</ele>
<time>2016-06-19T19:38:11Z</time>
</trkpt>
<trkpt lat="53.351094410458096" lon="18.43640569260694">
<ele>108</ele>
<time>2016-06-19T19:38:13Z</time>
</trkpt>
<trkpt lat="53.351059310725056" lon="18.43633501506607">
<ele>109</ele>
<time>2016-06-19T19:38:15Z</time>
</trkpt>
<trkpt lat="53.35101866224266" lon="18.43628083249407">
<ele>108</ele>
<time>2016-06-19T19:38:17Z</time>
</trkpt>
<trkpt lat="53.35099309750822" lon="18.436232442156122">
<ele>107</ele>
<time>2016-06-19T19:38:19Z</time>
</trkpt>
<trkpt lat="53.350985221727825" lon="18.436144081384395">
<ele>108</ele>
<time>2016-06-19T19:38:21Z</time>
</trkpt>
<trkpt lat="53.35098454847809" lon="18.436062560320167">
<ele>110</ele>
<time>2016-06-19T19:38:23Z</time>
</trkpt>
<trkpt lat="53.35098838742005" lon="18.435979877453583">
<ele>110</ele>
<time>2016-06-19T19:38:25Z</time>
</trkpt>
<trkpt lat="53.350989453067406" lon="18.43590369988435">
<ele>110</ele>
<time>2016-06-19T19:38:27Z</time>
</trkpt>
<trkpt lat="53.35099268093267" lon="18.4358288012787">
<ele>111</ele>
<time>2016-06-19T19:38:29Z</time>
</trkpt>
<trkpt lat="53.35100760851209" lon="18.435759534504882">
<ele>111</ele>
<time>2016-06-19T19:38:31Z</time>
</trkpt>
<trkpt lat="53.35101606581585" lon="18.435682470987267">
<ele>112</ele>
<time>2016-06-19T19:38:33Z</time>
</trkpt>
<trkpt lat="53.351016756880384" lon="18.43560262650844">
<ele>113</ele>
<time>2016-06-19T19:38:35Z</time>
</trkpt>
<trkpt lat="53.3510166229835" lon="18.435517779400257">
<ele>115</ele>
<time>2016-06-19T19:38:37Z</time>
</trkpt>
<trkpt lat="53.35101418347371" lon="18.435425620077904">
<ele>116</ele>
<time>2016-06-19T19:38:39Z</time>
</trkpt>
<trkpt lat="53.35101370332879" lon="18.435327771247053">
<ele>116</ele>
<time>2016-06-19T19:38:41Z</time>
</trkpt>
<trkpt lat="53.35101077773655" lon="18.435239852290557">
<ele>119</ele>
<time>2016-06-19T19:38:43Z</time>
</trkpt>
<trkpt lat="53.35102066655819" lon="18.435149484288903">
<ele>122</ele>
<time>2016-06-19T19:38:45Z</time>
</trkpt>
<trkpt lat="53.35102867157676" lon="18.435046490198282">
<ele>125</ele>
<time>2016-06-19T19:38:47Z</time>
</trkpt>
<trkpt lat="53.35102306165589" lon="18.434961233661763">
<ele>127</ele>
<time>2016-06-19T19:38:49Z</time>
</trkpt>
<trkpt lat="53.350994472568004" lon="18.434875760281766">
<ele>127</ele>
<time>2016-06-19T19:38:51Z</time>
</trkpt>
<trkpt lat="53.350991249520405" lon="18.434809692716833">
<ele>128</ele>
<time>2016-06-19T19:38:53Z</time>
</trkpt>
<trkpt lat="53.35099111066624" lon="18.434749486662493">
<ele>131</ele>
<time>2016-06-19T19:38:55Z</time>
</trkpt>
<trkpt lat="53.35099295365914" lon="18.434650575894114">
<ele>135</ele>
<time>2016-06-19T19:38:57Z</time>
</trkpt>
<trkpt lat="53.35098354544948" lon="18.434576450282673">
<ele>137</ele>
<time>2016-06-19T19:38:59Z</time>
</trkpt>
<trkpt lat="53.35095185833805" lon="18.434493092439926">
<ele>137</ele>
<time>2016-06-19T19:39:01Z</time>
</trkpt>
<trkpt lat="53.35092022141353" lon="18.434388584612194">
<ele>135</ele>
<time>2016-06-19T19:39:03Z</time>
</trkpt>
<trkpt lat="53.35089001918416" lon="18.434272732754682">
<ele>133</ele>
<time>2016-06-19T19:39:05Z</time>
</trkpt>
<trkpt lat="53.35086464951715" lon="18.43417893067749">
<ele>131</ele>
<time>2016-06-19T19:39:07Z</time>
</trkpt>
<trkpt lat="53.35085372951345" lon="18.43409801293176">
<ele>131</ele>
<time>2016-06-19T19:39:09Z</time>
</trkpt>
<trkpt lat="53.35084394718188" lon="18.434021545526544">
<ele>131</ele>
<time>2016-06-19T19:39:11Z</time>
</trkpt>
<trkpt lat="53.35081829373031" lon="18.433941691152164">
<ele>130</ele>
<time>2016-06-19T19:39:13Z</time>
</trkpt>
<trkpt lat="53.35079477244656" lon="18.433871285685303">
<ele>129</ele>
<time>2016-06-19T19:39:15Z</time>
</trkpt>
<trkpt lat="53.35075675530544" lon="18.433806187401164">
<ele>128</ele>
<time>2016-06-19T19:39:17Z</time>
</trkpt>
<trkpt lat="53.35072508795674" lon="18.433755914560898">
<ele>128</ele>
<time>2016-06-19T19:39:19Z</time>
</trkpt>
<trkpt lat="53.35070374603424" lon="18.433692181315916">
<ele>129</ele>
<time>2016-06-19T19:39:21Z</time>
</trkpt>
<trkpt lat="53.35069315793577" lon="18.43361214823032">
<ele>127</ele>
<time>2016-06-19T19:39:23Z</time>
</trkpt>
<trkpt lat="53.350696587847246" lon="18.43359106938181">
<ele>127</ele>
<time>2016-06-19T19:39:25Z</time>
</trkpt>
<trkpt lat="53.350708849660045" lon="18.43354076352871">
<ele>126</ele>
<time>2016-06-19T19:39:27Z</time>
</trkpt>
<trkpt lat="53.35073062591954" lon="18.43350139948174">
<ele>127</ele>
<time>2016-06-19T19:39:29Z</time>
</trkpt>
<trkpt lat="53.35077238280003" lon="18.43345305420861">
<ele>127</ele>
<time>2016-06-19T19:39:31Z</time>
</trkpt>
<trkpt lat="53.35080513733582" lon="18.433416955751948">
<ele>127</ele>
<time>2016-06-19T19:39:33Z</time>
</trkpt>
<trkpt lat="53.350838840683984" lon="18.433401407195195">
<ele>127</ele>
<time>2016-06-19T19:39:35Z</time>
</trkpt>
<trkpt lat="53.350870013865794" lon="18.43340023503567">
<ele>127</ele>
<time>2016-06-19T19:39:37Z</time>
</trkpt>
<trkpt lat="53.35090468627817" lon="18.433390532737768">
<ele>128</ele>
<time>2016-06-19T19:39:39Z</time>
</trkpt>
<trkpt lat="53.35093145884005" lon="18.43337280651276">
<ele>128</ele>
<time>2016-06-19T19:39:41Z</time>
</trkpt>
<trkpt lat="53.350967051592065" lon="18.43334940689016">
<ele>127</ele>
<time>2016-06-19T19:39:43Z</time>
</trkpt>
<trkpt lat="53.35100599725158" lon="18.433324199983414">
<ele>127</ele>
<time>2016-06-19T19:39:45Z</time>
</trkpt>
<trkpt lat="53.35105204291717" lon="18.433273853776647">
<ele>127</ele>
<time>2016-06-19T19:39:47Z</time>
</trkpt>
<trkpt lat="53.35109599209776" lon="18.433240599490134">
<ele>125</ele>
<time>2016-06-19T19:39:49Z</time>
</trkpt>
<trkpt lat="53.35113568222391" lon="18.43322131438386">
<ele>125</ele>
<time>2016-06-19T19:39:51Z</time>
</trkpt>
<trkpt lat="53.35118636860994" lon="18.433206975201752">
<ele>122</ele>
<time>2016-06-19T19:39:53Z</time>
</trkpt>
<trkpt lat="53.35124173669214" lon="18.433179075913234">
<ele>121</ele>
<time>2016-06-19T19:39:55Z</time>
</trkpt>
<trkpt lat="53.35128281681911" lon="18.43316713090399">
<ele>121</ele>
<time>2016-06-19T19:39:57Z</time>
</trkpt>
<trkpt lat="53.35133355418263" lon="18.433174510334638">
<ele>120</ele>
<time>2016-06-19T19:39:59Z</time>
</trkpt>
<trkpt lat="53.351363034031394" lon="18.43319667299007">
<ele>121</ele>
<time>2016-06-19T19:40:01Z</time>
</trkpt>
<trkpt lat="53.35138327816036" lon="18.433244878743448">
<ele>119</ele>
<time>2016-06-19T19:40:03Z</time>
</trkpt>
<trkpt lat="53.3513914143897" lon="18.433296968734872">
<ele>120</ele>
<time>2016-06-19T19:40:05Z</time>
</trkpt>
<trkpt lat="53.35140066962854" lon="18.43337049846322">
<ele>119</ele>
<time>2016-06-19T19:40:07Z</time>
</trkpt>
<trkpt lat="53.35140280121728" lon="18.43342925770911">
<ele>118</ele>
<time>2016-06-19T19:40:09Z</time>
</trkpt>
<trkpt lat="53.351414606452636" lon="18.433498333311128">
<ele>119</ele>
<time>2016-06-19T19:40:11Z</time>
</trkpt>
<trkpt lat="53.35142202783333" lon="18.433573476782225">
<ele>119</ele>
<time>2016-06-19T19:40:13Z</time>
</trkpt>
<trkpt lat="53.35143067855222" lon="18.43364524133696">
<ele>120</ele>
<time>2016-06-19T19:40:15Z</time>
</trkpt>
<trkpt lat="53.35143326125969" lon="18.43370960433937">
<ele>121</ele>
<time>2016-06-19T19:40:17Z</time>
</trkpt>
<trkpt lat="53.35143426002814" lon="18.43376478743532">
<ele>121</ele>
<time>2016-06-19T19:40:19Z</time>
</trkpt>
<trkpt lat="53.351438859468516" lon="18.433828251769228">
<ele>122</ele>
<time>2016-06-19T19:40:21Z</time>
</trkpt>
<trkpt lat="53.35143824778102" lon="18.43392144701502">
<ele>122</ele>
<time>2016-06-19T19:40:23Z</time>
</trkpt>
<trkpt lat="53.351444149675224" lon="18.43399886476674">
<ele>121</ele>
<time>2016-06-19T19:40:25Z</time>
</trkpt>
<trkpt lat="53.35144909432642" lon="18.434076239414935">
<ele>122</ele>
<time>2016-06-19T19:40:27Z</time>
</trkpt>
<trkpt lat="53.35145166137411" lon="18.434146393894114">
<ele>122</ele>
<time>2016-06-19T19:40:29Z</time>
</trkpt>
<trkpt lat="53.35146149410469" lon="18.43420794198042">
<ele>123</ele>
<time>2016-06-19T19:40:31Z</time>
</trkpt>
<trkpt lat="53.35146892419976" lon="18.43426532523408">
<ele>123</ele>
<time>2016-06-19T19:40:33Z</time>
</trkpt>
<trkpt lat="53.35147356574489" lon="18.43432487569618">
<ele>123</ele>
<time>2016-06-19T19:40:35Z</time>
</trkpt>
<trkpt lat="53.35148779626141" lon="18.434371364603685">
<ele>122</ele>
<time>2016-06-19T19:40:37Z</time>
</trkpt>
<trkpt lat="53.35150702990459" lon="18.43442999439832">
<ele>123</ele>
<time>2016-06-19T19:40:39Z</time>
</trkpt>
<trkpt lat="53.35153215154999" lon="18.43449416690232">
<ele>123</ele>
<time>2016-06-19T19:40:41Z</time>
</trkpt>
<trkpt lat="53.35154927943011" lon="18.43457675558027">
<ele>125</ele>
<time>2016-06-19T19:40:43Z</time>
</trkpt>
<trkpt lat="53.35156387185875" lon="18.434644340355028">
<ele>127</ele>
<time>2016-06-19T19:40:45Z</time>
</trkpt>
<trkpt lat="53.35157865440989" lon="18.43472124625728">
<ele>128</ele>
<time>2016-06-19T19:40:47Z</time>
</trkpt>
<trkpt lat="53.351587153653554" lon="18.434818363126645">
<ele>129</ele>
<time>2016-06-19T19:40:49Z</time>
</trkpt>
<trkpt lat="53.3515809309938" lon="18.43491413898339">
<ele>131</ele>
<time>2016-06-19T19:40:51Z</time>
</trkpt>
<trkpt lat="53.351548720900254" lon="18.435024378023453">
<ele>133</ele>
<time>2016-06-19T19:40:53Z</time>
</trkpt>
<trkpt lat="53.35152451880484" lon="18.43514927385732">
<ele>136</ele>
<time>2016-06-19T19:40:55Z</time>
</trkpt>
<trkpt lat="53.35152184252489" lon="18.435260680848717">
<ele>139</ele>
<time>2016-06-19T19:40:57Z</time>
</trkpt>
<trkpt lat="53.351535070630185" lon="18.435366899595675">
<ele>141</ele>
<time>2016-06-19T19:40:59Z</time>
</trkpt>
<trkpt lat="53.35153324879478" lon="18.435466372338283">
<ele>144</ele>
<time>2016-06-19T19:41:01Z</time>
</trkpt>
<trkpt lat="53.35153307200712" lon="18.43556344776382">
<ele>146</ele>
<time>2016-06-19T19:41:03Z</time>
</trkpt>
<trkpt lat="53.35154783275215" lon="18.435641673648092">
<ele>148</ele>
<time>2016-06-19T19:41:05Z</time>
</trkpt>
<trkpt lat="53.3515576684854" lon="18.435700025153047">
<ele>153</ele>
<time>2016-06-19T19:41:07Z</time>
</trkpt>
<trkpt lat="53.35161140057882" lon="18.435746646439426">
<ele>152</ele>
<time>2016-06-19T19:41:09Z</time>
</trkpt>
<trkpt lat="53.351673887528136" lon="18.435753711752685">
<ele>153</ele>
<time>2016-06-19T19:41:11Z</time>
</trkpt>
<trkpt lat="53.35174472894785" lon="18.43571211210956">
<ele>155</ele>
<time>2016-06-19T19:41:13Z</time>
</trkpt>
<trkpt lat="53.35181655544483" lon="18.435669906639152">
<ele>154</ele>
<time>2016-06-19T19:41:15Z</time>
</trkpt>
<trkpt lat="53.35188347367152" lon="18.435628818821943">
<ele>155</ele>
<time>2016-06-19T19:41:17Z</time>
</trkpt>
<trkpt lat="53.3519602978749" lon="18.435591382592495">
<ele>155</ele>
<time>2016-06-19T19:41:19Z</time>
</trkpt>
<trkpt lat="53.35206282751889" lon="18.43558659920691">
<ele>154</ele>
<time>2016-06-19T19:41:21Z</time>
</trkpt>
<trkpt lat="53.35213624559527" lon="18.43556003369147">
<ele>152</ele>
<time>2016-06-19T19:41:23Z</time>
</trkpt>
<trkpt lat="53.35218677015368" lon="18.43551616923294">
<ele>149</ele>
<time>2016-06-19T19:41:25Z</time>
</trkpt>
<trkpt lat="53.352220402622464" lon="18.43550125124086">
<ele>148</ele>
<time>2016-06-19T19:41:27Z</time>
</trkpt>
<trkpt lat="53.352265235476715" lon="18.435451730897807">
<ele>148</ele>
<time>2016-06-19T19:41:29Z</time>
</trkpt>
<trkpt lat="53.35229626294627" lon="18.43541148877326">
<ele>148</ele>
<time>2016-06-19T19:41:31Z</time>
</trkpt>
<trkpt lat="53.35232878286311" lon="18.435388353257824">
<ele>147</ele>
<time>2016-06-19T19:41:33Z</time>
</trkpt>
<trkpt lat="53.35236299722907" lon="18.435377282942543">
<ele>145</ele>
<time>2016-06-19T19:41:35Z</time>
</trkpt>
<trkpt lat="53.35239656061203" lon="18.435361846500943">
<ele>143</ele>
<time>2016-06-19T19:41:37Z</time>
</trkpt>
<trkpt lat="53.35242695178434" lon="18.435355101954">
<ele>144</ele>
<time>2016-06-19T19:41:39Z</time>
</trkpt>
<trkpt lat="53.35245296894875" lon="18.435322956533057">
<ele>145</ele>
<time>2016-06-19T19:41:41Z</time>
</trkpt>
<trkpt lat="53.35246099051637" lon="18.435315689220413">
<ele>145</ele>
<time>2016-06-19T19:41:43Z</time>
</trkpt>
<trkpt lat="53.35246684721361" lon="18.435300303274175">
<ele>145</ele>
<time>2016-06-19T19:41:45Z</time>
</trkpt>
<trkpt lat="53.35247085023385" lon="18.43531767578335">
<ele>142</ele>
<time>2016-06-19T19:41:47Z</time>
</trkpt>
<trkpt lat="53.35247085023385" lon="18.43531767578335">
<ele>142</ele>
<time>2016-06-19T19:41:49Z</time>
</trkpt>
<trkpt lat="53.352482255144956" lon="18.43532105403486">
<ele>142</ele>
<time>2016-06-19T19:41:51Z</time>
</trkpt>
<trkpt lat="53.352493732408064" lon="18.43532591930329">
<ele>142</ele>
<time>2016-06-19T19:41:53Z</time>
</trkpt>
<trkpt lat="53.352493732408064" lon="18.43532591930329">
<ele>142</ele>
<time>2016-06-19T19:41:55Z</time>
</trkpt>
<trkpt lat="53.35248818081023" lon="18.435323380594674">
<ele>142</ele>
<time>2016-06-19T19:41:57Z</time>
</trkpt>
<trkpt lat="53.35248449016504" lon="18.435317407126085">
<ele>140</ele>
<time>2016-06-19T19:41:59Z</time>
</trkpt>
<trkpt lat="53.35248457440856" lon="18.435323185784206">
<ele>140</ele>
<time>2016-06-19T19:42:01Z</time>
</trkpt>
<trkpt lat="53.35249694989052" lon="18.43532463983514">
<ele>140</ele>
<time>2016-06-19T19:42:03Z</time>
</trkpt>
<trkpt lat="53.35252412017015" lon="18.43529954251125">
<ele>141</ele>
<time>2016-06-19T19:42:05Z</time>
</trkpt>
<trkpt lat="53.35254951062299" lon="18.435280685689545">
<ele>142</ele>
<time>2016-06-19T19:42:07Z</time>
</trkpt>
<trkpt lat="53.352558645653815" lon="18.43526851798228">
<ele>142</ele>
<time>2016-06-19T19:42:09Z</time>
</trkpt>
<trkpt lat="53.3525783327387" lon="18.435254415496694">
<ele>141</ele>
<time>2016-06-19T19:42:11Z</time>
</trkpt>
<trkpt lat="53.352603047975926" lon="18.435237958631912">
<ele>141</ele>
<time>2016-06-19T19:42:13Z</time>
</trkpt>
<trkpt lat="53.35264237991096" lon="18.435212518727063">
<ele>140</ele>
<time>2016-06-19T19:42:15Z</time>
</trkpt>
<trkpt lat="53.352664367069714" lon="18.435185736784742">
<ele>139</ele>
<time>2016-06-19T19:42:17Z</time>
</trkpt>
<trkpt lat="53.35268233309394" lon="18.435148978325714">
<ele>138</ele>
<time>2016-06-19T19:42:19Z</time>
</trkpt>
<trkpt lat="53.35270613484891" lon="18.435118986315256">
<ele>136</ele>
<time>2016-06-19T19:42:21Z</time>
</trkpt>
<trkpt lat="53.35273016835881" lon="18.435104668430036">
<ele>135</ele>
<time>2016-06-19T19:42:23Z</time>
</trkpt>
<trkpt lat="53.35273715271662" lon="18.435099819393084">
<ele>135</ele>
<time>2016-06-19T19:42:25Z</time>
</trkpt>
<trkpt lat="53.35273715271662" lon="18.435099819393084">
<ele>135</ele>
<time>2016-06-19T19:42:27Z</time>
</trkpt>
<trkpt lat="53.35273715271662" lon="18.435099819393084">
<ele>135</ele>
<time>2016-06-19T19:42:29Z</time>
</trkpt>
<trkpt lat="53.35273715271662" lon="18.435099819393084">
<ele>135</ele>
<time>2016-06-19T19:42:31Z</time>
</trkpt>
<trkpt lat="53.35276374302741" lon="18.435087329356964">
<ele>134</ele>
<time>2016-06-19T19:42:33Z</time>
</trkpt>
<trkpt lat="53.35281350617833" lon="18.435045208823777">
<ele>133</ele>
<time>2016-06-19T19:42:35Z</time>
</trkpt>
<trkpt lat="53.35285522449928" lon="18.434992170359315">
<ele>132</ele>
<time>2016-06-19T19:42:37Z</time>
</trkpt>
<trkpt lat="53.352910634458034" lon="18.43494245938181">
<ele>132</ele>
<time>2016-06-19T19:42:39Z</time>
</trkpt>
<trkpt lat="53.35297284324995" lon="18.434867455560354">
<ele>131</ele>
<time>2016-06-19T19:42:41Z</time>
</trkpt>
<trkpt lat="53.35305568549723" lon="18.434776648775703">
<ele>130</ele>
<time>2016-06-19T19:42:43Z</time>
</trkpt>
<trkpt lat="53.35313332933463" lon="18.434681370194074">
<ele>129</ele>
<time>2016-06-19T19:42:45Z</time>
</trkpt>
<trkpt lat="53.35319166321157" lon="18.434619064615756">
<ele>128</ele>
<time>2016-06-19T19:42:47Z</time>
</trkpt>
<trkpt lat="53.353237422888085" lon="18.434584382874014">
<ele>127</ele>
<time>2016-06-19T19:42:49Z</time>
</trkpt>
<trkpt lat="53.35329157346637" lon="18.434558708089305">
<ele>126</ele>
<time>2016-06-19T19:42:51Z</time>
</trkpt>
<trkpt lat="53.353332896373395" lon="18.434546367118966">
<ele>125</ele>
<time>2016-06-19T19:42:53Z</time>
</trkpt>
<trkpt lat="53.35336065163846" lon="18.43453149766836">
<ele>125</ele>
<time>2016-06-19T19:42:55Z</time>
</trkpt>
<trkpt lat="53.353386565445234" lon="18.434551280676438">
<ele>125</ele>
<time>2016-06-19T19:42:57Z</time>
</trkpt>
<trkpt lat="53.35340324317552" lon="18.434566531792566">
<ele>124</ele>
<time>2016-06-19T19:42:59Z</time>
</trkpt>
<trkpt lat="53.35342430733642" lon="18.434589163994207">
<ele>122</ele>
<time>2016-06-19T19:43:01Z</time>
</trkpt>
<trkpt lat="53.35342259920126" lon="18.434628762206874">
<ele>121</ele>
<time>2016-06-19T19:43:03Z</time>
</trkpt>
<trkpt lat="53.35340898297689" lon="18.434685837860975">
<ele>120</ele>
<time>2016-06-19T19:43:05Z</time>
</trkpt>
<trkpt lat="53.353406454611964" lon="18.4347380895365">
<ele>120</ele>
<time>2016-06-19T19:43:07Z</time>
</trkpt>
<trkpt lat="53.35340086134761" lon="18.434787210230393">
<ele>121</ele>
<time>2016-06-19T19:43:09Z</time>
</trkpt>
<trkpt lat="53.35339612610011" lon="18.434826604833216">
<ele>122</ele>
<time>2016-06-19T19:43:11Z</time>
</trkpt>
<trkpt lat="53.35339512590832" lon="18.434846800516745">
<ele>122</ele>
<time>2016-06-19T19:43:13Z</time>
</trkpt>
<trkpt lat="53.35339207665255" lon="18.434854326220844">
<ele>122</ele>
<time>2016-06-19T19:43:15Z</time>
</trkpt>
<trkpt lat="53.3533875320592" lon="18.434855534781136">
<ele>122</ele>
<time>2016-06-19T19:43:17Z</time>
</trkpt>
<trkpt lat="53.3533875320592" lon="18.434855534781136">
<ele>122</ele>
<time>2016-06-19T19:43:19Z</time>
</trkpt>
<trkpt lat="53.3533875320592" lon="18.434855534781136">
<ele>122</ele>
<time>2016-06-19T19:43:21Z</time>
</trkpt>
<trkpt lat="53.3533875320592" lon="18.434855534781136">
<ele>122</ele>
<time>2016-06-19T19:43:23Z</time>
</trkpt>
<trkpt lat="53.3533875320592" lon="18.434855534781136">
<ele>122</ele>
<time>2016-06-19T19:43:25Z</time>
</trkpt>
<trkpt lat="53.3533875320592" lon="18.434855534781136">
<ele>122</ele>
<time>2016-06-19T19:43:27Z</time>
</trkpt>
<trkpt lat="53.3533875320592" lon="18.434855534781136">
<ele>122</ele>
<time>2016-06-19T19:43:29Z</time>
</trkpt>
<trkpt lat="53.3533875320592" lon="18.434855534781136">
<ele>122</ele>
<time>2016-06-19T19:43:31Z</time>
</trkpt>
<trkpt lat="53.3533875320592" lon="18.434855534781136">
<ele>122</ele>
<time>2016-06-19T19:43:33Z</time>
</trkpt>
<trkpt lat="53.3533875320592" lon="18.434855534781136">
<ele>122</ele>
<time>2016-06-19T19:43:35Z</time>
</trkpt>
<trkpt lat="53.3533875320592" lon="18.434855534781136">
<ele>122</ele>
<time>2016-06-19T19:43:37Z</time>
</trkpt>
<trkpt lat="53.3533875320592" lon="18.434855534781136">
<ele>122</ele>
<time>2016-06-19T19:43:39Z</time>
</trkpt>
<trkpt lat="53.3533875320592" lon="18.434855534781136">
<ele>122</ele>
<time>2016-06-19T19:43:41Z</time>
</trkpt>
<trkpt lat="53.3533875320592" lon="18.434855534781136">
<ele>122</ele>
<time>2016-06-19T19:43:43Z</time>
</trkpt>
<trkpt lat="53.3533875320592" lon="18.434855534781136">
<ele>122</ele>
<time>2016-06-19T19:43:45Z</time>
</trkpt>
<trkpt lat="53.3533875320592" lon="18.434855534781136">
<ele>122</ele>
<time>2016-06-19T19:43:47Z</time>
</trkpt>
<trkpt lat="53.35337931718046" lon="18.434867513308923">
<ele>123</ele>
<time>2016-06-19T19:43:49Z</time>
</trkpt>
<trkpt lat="53.35337605391766" lon="18.434884664705994">
<ele>123</ele>
<time>2016-06-19T19:43:51Z</time>
</trkpt>
<trkpt lat="53.35337605391766" lon="18.434884664705994">
<ele>123</ele>
<time>2016-06-19T19:43:53Z</time>
</trkpt>
<trkpt lat="53.35337605391766" lon="18.434884664705994">
<ele>123</ele>
<time>2016-06-19T19:43:55Z</time>
</trkpt>
<trkpt lat="53.35337605391766" lon="18.434884664705994">
<ele>123</ele>
<time>2016-06-19T19:43:57Z</time>
</trkpt>
<trkpt lat="53.35337605391766" lon="18.434884664705994">
<ele>123</ele>
<time>2016-06-19T19:43:59Z</time>
</trkpt>
<trkpt lat="53.35337605391766" lon="18.434884664705994">
<ele>123</ele>
<time>2016-06-19T19:44:01Z</time>
</trkpt>
<trkpt lat="53.35337605391766" lon="18.434884664705994">
<ele>123</ele>
<time>2016-06-19T19:44:03Z</time>
</trkpt>
<trkpt lat="53.35337605391766" lon="18.434884664705994">
<ele>123</ele>
<time>2016-06-19T19:44:05Z</time>
</trkpt>
<trkpt lat="53.35337605391766" lon="18.434884664705994">
<ele>123</ele>
<time>2016-06-19T19:44:07Z</time>
</trkpt>
<trkpt lat="53.35337605391766" lon="18.434884664705994">
<ele>123</ele>
<time>2016-06-19T19:44:09Z</time>
</trkpt>
<trkpt lat="53.35337605391766" lon="18.434884664705994">
<ele>123</ele>
<time>2016-06-19T19:44:11Z</time>
</trkpt>
<trkpt lat="53.35337605391766" lon="18.434884664705994">
<ele>123</ele>
<time>2016-06-19T19:44:13Z</time>
</trkpt>
<trkpt lat="53.35337605391766" lon="18.434884664705994">
<ele>123</ele>
<time>2016-06-19T19:44:15Z</time>
</trkpt>
<trkpt lat="53.35337605391766" lon="18.434884664705994">
<ele>123</ele>
<time>2016-06-19T19:44:17Z</time>
</trkpt>
<trkpt lat="53.35337605391766" lon="18.434884664705994">
<ele>123</ele>
<time>2016-06-19T19:44:19Z</time>
</trkpt>
<trkpt lat="53.35337605391766" lon="18.434884664705994">
<ele>123</ele>
<time>2016-06-19T19:44:21Z</time>
</trkpt>
<trkpt lat="53.35337605391766" lon="18.434884664705994">
<ele>123</ele>
<time>2016-06-19T19:44:23Z</time>
</trkpt>
<trkpt lat="53.35337605391766" lon="18.434884664705994">
<ele>123</ele>
<time>2016-06-19T19:44:25Z</time>
</trkpt>
<trkpt lat="53.35337605391766" lon="18.434884664705994">
<ele>123</ele>
<time>2016-06-19T19:44:27Z</time>
</trkpt>
<trkpt lat="53.35337605391766" lon="18.434884664705994">
<ele>123</ele>
<time>2016-06-19T19:44:29Z</time>
</trkpt>
<trkpt lat="53.35337605391766" lon="18.434884664705994">
<ele>123</ele>
<time>2016-06-19T19:44:31Z</time>
</trkpt>
<trkpt lat="53.35337605391766" lon="18.434884664705994">
<ele>123</ele>
<time>2016-06-19T19:44:33Z</time>
</trkpt>
<trkpt lat="53.35337605391766" lon="18.434884664705994">
<ele>123</ele>
<time>2016-06-19T19:44:35Z</time>
</trkpt>
<trkpt lat="53.35337605391766" lon="18.434884664705994">
<ele>123</ele>
<time>2016-06-19T19:44:37Z</time>
</trkpt>
<trkpt lat="53.35337605391766" lon="18.434884664705994">
<ele>123</ele>
<time>2016-06-19T19:44:39Z</time>
</trkpt>
<trkpt lat="53.35337605391766" lon="18.434884664705994">
<ele>123</ele>
<time>2016-06-19T19:44:41Z</time>
</trkpt>
<trkpt lat="53.35337605391766" lon="18.434884664705994">
<ele>123</ele>
<time>2016-06-19T19:44:43Z</time>
</trkpt>
<trkpt lat="53.35337605391766" lon="18.434884664705994">
<ele>123</ele>
<time>2016-06-19T19:44:45Z</time>
</trkpt>
<trkpt lat="53.35337605391766" lon="18.434884664705994">
<ele>123</ele>
<time>2016-06-19T19:44:47Z</time>
</trkpt>
<trkpt lat="53.35337605391766" lon="18.434884664705994">
<ele>123</ele>
<time>2016-06-19T19:44:49Z</time>
</trkpt>
<trkpt lat="53.35337605391766" lon="18.434884664705994">
<ele>123</ele>
<time>2016-06-19T19:44:51Z</time>
</trkpt>
<trkpt lat="53.35337605391766" lon="18.434884664705994">
<ele>123</ele>
<time>2016-06-19T19:44:53Z</time>
</trkpt>
<trkpt lat="53.35337605391766" lon="18.434884664705994">
<ele>123</ele>
<time>2016-06-19T19:44:55Z</time>
</trkpt>
<trkpt lat="53.35337605391766" lon="18.434884664705994">
<ele>123</ele>
<time>2016-06-19T19:44:57Z</time>
</trkpt>
<trkpt lat="53.35337605391766" lon="18.434884664705994">
<ele>123</ele>
<time>2016-06-19T19:44:59Z</time>
</trkpt>
<trkpt lat="53.35337605391766" lon="18.434884664705994">
<ele>123</ele>
<time>2016-06-19T19:45:01Z</time>
</trkpt>
<trkpt lat="53.35337605391766" lon="18.434884664705994">
<ele>123</ele>
<time>2016-06-19T19:45:03Z</time>
</trkpt>
<trkpt lat="53.35337605391766" lon="18.434884664705994">
<ele>123</ele>
<time>2016-06-19T19:45:05Z</time>
</trkpt>
<trkpt lat="53.35337605391766" lon="18.434884664705994">
<ele>123</ele>
<time>2016-06-19T19:45:07Z</time>
</trkpt>
<trkpt lat="53.35337605391766" lon="18.434884664705994">
<ele>123</ele>
<time>2016-06-19T19:45:09Z</time>
</trkpt>
<trkpt lat="53.35337605391766" lon="18.434884664705994">
<ele>123</ele>
<time>2016-06-19T19:45:11Z</time>
</trkpt>
<trkpt lat="53.35337605391766" lon="18.434884664705994">
<ele>123</ele>
<time>2016-06-19T19:45:13Z</time>
</trkpt>
<trkpt lat="53.35337605391766" lon="18.434884664705994">
<ele>123</ele>
<time>2016-06-19T19:45:15Z</time>
</trkpt>
<trkpt lat="53.35337605391766" lon="18.434884664705994">
<ele>123</ele>
<time>2016-06-19T19:45:17Z</time>
</trkpt>
<trkpt lat="53.35337605391766" lon="18.434884664705994">
<ele>123</ele>
<time>2016-06-19T19:45:19Z</time>
</trkpt>
<trkpt lat="53.35337605391766" lon="18.434884664705994">
<ele>123</ele>
<time>2016-06-19T19:45:21Z</time>
</trkpt>
<trkpt lat="53.35337605391766" lon="18.434884664705994">
<ele>123</ele>
<time>2016-06-19T19:45:23Z</time>
</trkpt>
<trkpt lat="53.35338902756773" lon="18.43487691292681">
<ele>122</ele>
<time>2016-06-19T19:45:25Z</time>
</trkpt>
<trkpt lat="53.3534076643996" lon="18.434835753629">
<ele>121</ele>
<time>2016-06-19T19:45:27Z</time>
</trkpt>
<trkpt lat="53.353430252234446" lon="18.434777042570886">
<ele>121</ele>
<time>2016-06-19T19:45:29Z</time>
</trkpt>
<trkpt lat="53.35344782559953" lon="18.434722165885436">
<ele>120</ele>
<time>2016-06-19T19:45:31Z</time>
</trkpt>
<trkpt lat="53.35344798919118" lon="18.4346634466111">
<ele>119</ele>
<time>2016-06-19T19:45:33Z</time>
</trkpt>
<trkpt lat="53.353442785710754" lon="18.434598171693384">
<ele>119</ele>
<time>2016-06-19T19:45:35Z</time>
</trkpt>
<trkpt lat="53.35341539294876" lon="18.43454835233173">
<ele>119</ele>
<time>2016-06-19T19:45:37Z</time>
</trkpt>
<trkpt lat="53.353375120166895" lon="18.434519714827463">
<ele>119</ele>
<time>2016-06-19T19:45:39Z</time>
</trkpt>
<trkpt lat="53.35331830527163" lon="18.434491255253793">
<ele>119</ele>
<time>2016-06-19T19:45:41Z</time>
</trkpt>
<trkpt lat="53.353267667082676" lon="18.434514123742748">
<ele>118</ele>
<time>2016-06-19T19:45:43Z</time>
</trkpt>
<trkpt lat="53.35321275088956" lon="18.434548007875264">
<ele>118</ele>
<time>2016-06-19T19:45:45Z</time>
</trkpt>
<trkpt lat="53.35314893846345" lon="18.43455582677057">
<ele>118</ele>
<time>2016-06-19T19:45:47Z</time>
</trkpt>
<trkpt lat="53.35309759327344" lon="18.43456764871928">
<ele>119</ele>
<time>2016-06-19T19:45:49Z</time>
</trkpt>
<trkpt lat="53.35305091571402" lon="18.43456458809632">
<ele>118</ele>
<time>2016-06-19T19:45:51Z</time>
</trkpt>
<trkpt lat="53.353016410089005" lon="18.434573167298687">
<ele>117</ele>
<time>2016-06-19T19:45:53Z</time>
</trkpt>
<trkpt lat="53.352972099074904" lon="18.43458316505458">
<ele>117</ele>
<time>2016-06-19T19:45:55Z</time>
</trkpt>
<trkpt lat="53.352929184404616" lon="18.4345957047842">
<ele>117</ele>
<time>2016-06-19T19:45:57Z</time>
</trkpt>
<trkpt lat="53.352888416245264" lon="18.43461651211756">
<ele>117</ele>
<time>2016-06-19T19:45:59Z</time>
</trkpt>
<trkpt lat="53.35283690798427" lon="18.434642967721906">
<ele>116</ele>
<time>2016-06-19T19:46:01Z</time>
</trkpt>
<trkpt lat="53.352782199713936" lon="18.4346662087243">
<ele>116</ele>
<time>2016-06-19T19:46:03Z</time>
</trkpt>
<trkpt lat="53.352733869425435" lon="18.434682143482828">
<ele>116</ele>
<time>2016-06-19T19:46:05Z</time>
</trkpt>
<trkpt lat="53.35269353018306" lon="18.434699488096285">
<ele>115</ele>
<time>2016-06-19T19:46:07Z</time>
</trkpt>
<trkpt lat="53.352658591596914" lon="18.434725625161036">
<ele>115</ele>
<time>2016-06-19T19:46:09Z</time>
</trkpt>
<trkpt lat="53.35262859123436" lon="18.43475826603158">
<ele>115</ele>
<time>2016-06-19T19:46:11Z</time>
</trkpt>
<trkpt lat="53.352615902973184" lon="18.434799802955872">
<ele>115</ele>
<time>2016-06-19T19:46:13Z</time>
</trkpt>
<trkpt lat="53.35263301434135" lon="18.434848349242294">
<ele>117</ele>
<time>2016-06-19T19:46:15Z</time>
</trkpt>
<trkpt lat="53.35263672759235" lon="18.434865789985214">
<ele>117</ele>
<time>2016-06-19T19:46:17Z</time>
</trkpt>
<trkpt lat="53.35263599612028" lon="18.434885834270403">
<ele>117</ele>
<time>2016-06-19T19:46:19Z</time>
</trkpt>
<trkpt lat="53.35264073368671" lon="18.43489685261755">
<ele>117</ele>
<time>2016-06-19T19:46:21Z</time>
</trkpt>
<trkpt lat="53.35264073368671" lon="18.43489685261755">
<ele>117</ele>
<time>2016-06-19T19:46:23Z</time>
</trkpt>
<trkpt lat="53.35263004866335" lon="18.43493201171082">
<ele>117</ele>
<time>2016-06-19T19:46:25Z</time>
</trkpt>
<trkpt lat="53.35260579240842" lon="18.434960415506776">
<ele>117</ele>
<time>2016-06-19T19:46:27Z</time>
</trkpt>
<trkpt lat="53.35258833914039" lon="18.434979790093184">
<ele>117</ele>
<time>2016-06-19T19:46:29Z</time>
</trkpt>
<trkpt lat="53.35258507898241" lon="18.43499247731091">
<ele>117</ele>
<time>2016-06-19T19:46:31Z</time>
</trkpt>
<trkpt lat="53.35258507898241" lon="18.43499247731091">
<ele>117</ele>
<time>2016-06-19T19:46:33Z</time>
</trkpt>
<trkpt lat="53.35259269291688" lon="18.434993283722978">
<ele>116</ele>
<time>2016-06-19T19:46:35Z</time>
</trkpt>
<trkpt lat="53.352590738053756" lon="18.43495319377245">
<ele>116</ele>
<time>2016-06-19T19:46:37Z</time>
</trkpt>
<trkpt lat="53.35257336145814" lon="18.43490445438042">
<ele>115</ele>
<time>2016-06-19T19:46:39Z</time>
</trkpt>
<trkpt lat="53.352549635380676" lon="18.434861903809516">
<ele>115</ele>
<time>2016-06-19T19:46:41Z</time>
</trkpt>
<trkpt lat="53.35253185225342" lon="18.43483415888277">
<ele>114</ele>
<time>2016-06-19T19:46:43Z</time>
</trkpt>
<trkpt lat="53.35250940456431" lon="18.43479571254814">
<ele>115</ele>
<time>2016-06-19T19:46:45Z</time>
</trkpt>
<trkpt lat="53.352474176263044" lon="18.434753688399585">
<ele>113</ele>
<time>2016-06-19T19:46:47Z</time>
</trkpt>
<trkpt lat="53.35243426275477" lon="18.43470454063401">
<ele>113</ele>
<time>2016-06-19T19:46:49Z</time>
</trkpt>
<trkpt lat="53.35240106458437" lon="18.43463515434248">
<ele>112</ele>
<time>2016-06-19T19:46:51Z</time>
</trkpt>
<trkpt lat="53.35237286015587" lon="18.43457391738613">
<ele>110</ele>
<time>2016-06-19T19:46:53Z</time>
</trkpt>
<trkpt lat="53.352355870062446" lon="18.434516670453572">
<ele>109</ele>
<time>2016-06-19T19:46:55Z</time>
</trkpt>
<trkpt lat="53.352339851853884" lon="18.4344579867222">
<ele>109</ele>
<time>2016-06-19T19:46:57Z</time>
</trkpt>
<trkpt lat="53.35231930037512" lon="18.434420692802078">
<ele>109</ele>
<time>2016-06-19T19:46:59Z</time>
</trkpt>
<trkpt lat="53.352274762030255" lon="18.434419878040526">
<ele>109</ele>
<time>2016-06-19T19:47:01Z</time>
</trkpt>
<trkpt lat="53.35222611014198" lon="18.434428688369138">
<ele>108</ele>
<time>2016-06-19T19:47:03Z</time>
</trkpt>
<trkpt lat="53.352195268168096" lon="18.434447498620465">
<ele>107</ele>
<time>2016-06-19T19:47:05Z</time>
</trkpt>
<trkpt lat="53.35215413511225" lon="18.434473759388858">
<ele>107</ele>
<time>2016-06-19T19:47:07Z</time>
</trkpt>
<trkpt lat="53.352113642572114" lon="18.434490487230963">
<ele>107</ele>
<time>2016-06-19T19:47:09Z</time>
</trkpt>
<trkpt lat="53.352075297860665" lon="18.434510692259035">
<ele>107</ele>
<time>2016-06-19T19:47:11Z</time>
</trkpt>
<trkpt lat="53.35203832992837" lon="18.434524024418316">
<ele>106</ele>
<time>2016-06-19T19:47:13Z</time>
</trkpt>
<trkpt lat="53.352005894073855" lon="18.434515834288046">
<ele>107</ele>
<time>2016-06-19T19:47:15Z</time>
</trkpt>
<trkpt lat="53.35197005921573" lon="18.434497415523094">
<ele>108</ele>
<time>2016-06-19T19:47:17Z</time>
</trkpt>
<trkpt lat="53.35193282564186" lon="18.434483110283725">
<ele>109</ele>
<time>2016-06-19T19:47:19Z</time>
</trkpt>
<trkpt lat="53.35188793501224" lon="18.43448373974832">
<ele>110</ele>
<time>2016-06-19T19:47:21Z</time>
</trkpt>
<trkpt lat="53.3518283175259" lon="18.434495154265235">
<ele>109</ele>
<time>2016-06-19T19:47:23Z</time>
</trkpt>
<trkpt lat="53.3517734942509" lon="18.434527826241666">
<ele>107</ele>
<time>2016-06-19T19:47:25Z</time>
</trkpt>
<trkpt lat="53.351723310299505" lon="18.43453925564761">
<ele>107</ele>
<time>2016-06-19T19:47:27Z</time>
</trkpt>
<trkpt lat="53.35168105158934" lon="18.43452420101503">
<ele>106</ele>
<time>2016-06-19T19:47:29Z</time>
</trkpt>
<trkpt lat="53.351680373967426" lon="18.43447470570824">
<ele>107</ele>
<time>2016-06-19T19:47:31Z</time>
</trkpt>
<trkpt lat="53.351685025074495" lon="18.434382046679737">
<ele>108</ele>
<time>2016-06-19T19:47:33Z</time>
</trkpt>
<trkpt lat="53.35167531759852" lon="18.434290547899018">
<ele>109</ele>
<time>2016-06-19T19:47:35Z</time>
</trkpt>
<trkpt lat="53.35165139852627" lon="18.4342305045965">
<ele>110</ele>
<time>2016-06-19T19:47:37Z</time>
</trkpt>
<trkpt lat="53.3516331501303" lon="18.434157572371415">
<ele>109</ele>
<time>2016-06-19T19:47:39Z</time>
</trkpt>
<trkpt lat="53.35162082393994" lon="18.434086407340867">
<ele>109</ele>
<time>2016-06-19T19:47:41Z</time>
</trkpt>
<trkpt lat="53.35161592725865" lon="18.43401943633613">
<ele>109</ele>
<time>2016-06-19T19:47:43Z</time>
</trkpt>
<trkpt lat="53.3516117379795" lon="18.433934306366854">
<ele>109</ele>
<time>2016-06-19T19:47:45Z</time>
</trkpt>
<trkpt lat="53.351591924698766" lon="18.433847336369162">
<ele>108</ele>
<time>2016-06-19T19:47:47Z</time>
</trkpt>
<trkpt lat="53.35157024260772" lon="18.43375909681811">
<ele>109</ele>
<time>2016-06-19T19:47:49Z</time>
</trkpt>
<trkpt lat="53.35156911675828" lon="18.433691360752274">
<ele>109</ele>
<time>2016-06-19T19:47:51Z</time>
</trkpt>
<trkpt lat="53.35156933512825" lon="18.433623363098278">
<ele>109</ele>
<time>2016-06-19T19:47:53Z</time>
</trkpt>
<trkpt lat="53.35156585829221" lon="18.433556901860424">
<ele>109</ele>
<time>2016-06-19T19:47:55Z</time>
</trkpt>
<trkpt lat="53.35154376688305" lon="18.433474084257917">
<ele>108</ele>
<time>2016-06-19T19:47:57Z</time>
</trkpt>
<trkpt lat="53.35151667821273" lon="18.433379523035583">
<ele>109</ele>
<time>2016-06-19T19:47:59Z</time>
</trkpt>
<trkpt lat="53.35151891628331" lon="18.43329167150284">
<ele>109</ele>
<time>2016-06-19T19:48:01Z</time>
</trkpt>
<trkpt lat="53.35154490857882" lon="18.433207715268992">
<ele>111</ele>
<time>2016-06-19T19:48:03Z</time>
</trkpt>
<trkpt lat="53.35160008433848" lon="18.433140651367644">
<ele>111</ele>
<time>2016-06-19T19:48:05Z</time>
</trkpt>
<trkpt lat="53.3516609764064" lon="18.43306848643312">
<ele>112</ele>
<time>2016-06-19T19:48:07Z</time>
</trkpt>
<trkpt lat="53.35173889482511" lon="18.433011786467024">
<ele>112</ele>
<time>2016-06-19T19:48:09Z</time>
</trkpt>
<trkpt lat="53.351812885028195" lon="18.432946892526246">
<ele>112</ele>
<time>2016-06-19T19:48:11Z</time>
</trkpt>
<trkpt lat="53.35188753428848" lon="18.432902101410715">
<ele>112</ele>
<time>2016-06-19T19:48:13Z</time>
</trkpt>
<trkpt lat="53.35196454641258" lon="18.432855978634958">
<ele>113</ele>
<time>2016-06-19T19:48:15Z</time>
</trkpt>
<trkpt lat="53.35204348723222" lon="18.432802620855224">
<ele>112</ele>
<time>2016-06-19T19:48:17Z</time>
</trkpt>
<trkpt lat="53.35211031211624" lon="18.432743467883412">
<ele>111</ele>
<time>2016-06-19T19:48:19Z</time>
</trkpt>
<trkpt lat="53.35216302755078" lon="18.432682536153038">
<ele>112</ele>
<time>2016-06-19T19:48:21Z</time>
</trkpt>
<trkpt lat="53.35219388933463" lon="18.43260348578864">
<ele>112</ele>
<time>2016-06-19T19:48:23Z</time>
</trkpt>
<trkpt lat="53.35223100114375" lon="18.432523229004357">
<ele>112</ele>
<time>2016-06-19T19:48:25Z</time>
</trkpt>
<trkpt lat="53.35225867770408" lon="18.432452154796874">
<ele>112</ele>
<time>2016-06-19T19:48:27Z</time>
</trkpt>
<trkpt lat="53.35228916342851" lon="18.432389865229624">
<ele>112</ele>
<time>2016-06-19T19:48:29Z</time>
</trkpt>
<trkpt lat="53.35231861471119" lon="18.432319142012147">
<ele>111</ele>
<time>2016-06-19T19:48:31Z</time>
</trkpt>
<trkpt lat="53.35234714306067" lon="18.43224322106694">
<ele>111</ele>
<time>2016-06-19T19:48:33Z</time>
</trkpt>
<trkpt lat="53.35237659035962" lon="18.43218023329337">
<ele>113</ele>
<time>2016-06-19T19:48:35Z</time>
</trkpt>
<trkpt lat="53.35241515382599" lon="18.43210686249668">
<ele>115</ele>
<time>2016-06-19T19:48:37Z</time>
</trkpt>
<trkpt lat="53.35245575198723" lon="18.43202413296117">
<ele>117</ele>
<time>2016-06-19T19:48:39Z</time>
</trkpt>
<trkpt lat="53.352487052368694" lon="18.431970792194168">
<ele>117</ele>
<time>2016-06-19T19:48:41Z</time>
</trkpt>
<trkpt lat="53.35250177550293" lon="18.431936980721108">
<ele>120</ele>
<time>2016-06-19T19:48:43Z</time>
</trkpt>
<trkpt lat="53.352478970173074" lon="18.43186369808682">
<ele>119</ele>
<time>2016-06-19T19:48:45Z</time>
</trkpt>
<trkpt lat="53.35244263656137" lon="18.431790502549145">
<ele>118</ele>
<time>2016-06-19T19:48:47Z</time>
</trkpt>
<trkpt lat="53.35240678624624" lon="18.431731268082135">
<ele>118</ele>
<time>2016-06-19T19:48:49Z</time>
</trkpt>
<trkpt lat="53.35237534871609" lon="18.431684394977452">
<ele>119</ele>
<time>2016-06-19T19:48:51Z</time>
</trkpt>
<trkpt lat="53.35234368794137" lon="18.43163190788175">
<ele>120</ele>
<time>2016-06-19T19:48:53Z</time>
</trkpt>
<trkpt lat="53.35230506345419" lon="18.431585391740644">
<ele>121</ele>
<time>2016-06-19T19:48:55Z</time>
</trkpt>
<trkpt lat="53.35226244174215" lon="18.43154353250401">
<ele>121</ele>
<time>2016-06-19T19:48:57Z</time>
</trkpt>
<trkpt lat="53.35222469778162" lon="18.431505050492426">
<ele>122</ele>
<time>2016-06-19T19:48:59Z</time>
</trkpt>
<trkpt lat="53.35217511380839" lon="18.43146775606845">
<ele>122</ele>
<time>2016-06-19T19:49:01Z</time>
</trkpt>
<trkpt lat="53.352125823947766" lon="18.431435519083337">
<ele>122</ele>
<time>2016-06-19T19:49:03Z</time>
</trkpt>
<trkpt lat="53.352092897860345" lon="18.431389097103487">
<ele>122</ele>
<time>2016-06-19T19:49:05Z</time>
</trkpt>
<trkpt lat="53.35206346025948" lon="18.43133381976796">
<ele>123</ele>
<time>2016-06-19T19:49:07Z</time>
</trkpt>
<trkpt lat="53.35203002144413" lon="18.431289700563614">
<ele>123</ele>
<time>2016-06-19T19:49:09Z</time>
</trkpt>
<trkpt lat="53.35200352112198" lon="18.431241000874827">
<ele>124</ele>
<time>2016-06-19T19:49:11Z</time>
</trkpt>
<trkpt lat="53.351970574955836" lon="18.43117036341589">
<ele>125</ele>
<time>2016-06-19T19:49:13Z</time>
</trkpt>
<trkpt lat="53.351926070213054" lon="18.431119948668837">
<ele>125</ele>
<time>2016-06-19T19:49:15Z</time>
</trkpt>
<trkpt lat="53.35188720096576" lon="18.431071495229038">
<ele>125</ele>
<time>2016-06-19T19:49:17Z</time>
</trkpt>
<trkpt lat="53.351853484650604" lon="18.43102802674617">
<ele>125</ele>
<time>2016-06-19T19:49:19Z</time>
</trkpt>
<trkpt lat="53.351832381698195" lon="18.430991417991933">
<ele>125</ele>
<time>2016-06-19T19:49:21Z</time>
</trkpt>
<trkpt lat="53.351811986584124" lon="18.43095849653951">
<ele>124</ele>
<time>2016-06-19T19:49:23Z</time>
</trkpt>
<trkpt lat="53.35180638546905" lon="18.430942575574115">
<ele>124</ele>
<time>2016-06-19T19:49:25Z</time>
</trkpt>
<trkpt lat="53.35178328384171" lon="18.430892716335087">
<ele>124</ele>
<time>2016-06-19T19:49:27Z</time>
</trkpt>
<trkpt lat="53.35175288679556" lon="18.43082877024025">
<ele>124</ele>
<time>2016-06-19T19:49:29Z</time>
</trkpt>
<trkpt lat="53.35172401944044" lon="18.43076633111097">
<ele>123</ele>
<time>2016-06-19T19:49:31Z</time>
</trkpt>
<trkpt lat="53.351699086372996" lon="18.430715738302982">
<ele>123</ele>
<time>2016-06-19T19:49:33Z</time>
</trkpt>
<trkpt lat="53.35167632325376" lon="18.43066351868451">
<ele>123</ele>
<time>2016-06-19T19:49:35Z</time>
</trkpt>
<trkpt lat="53.35165147412201" lon="18.43060702887533">
<ele>124</ele>
<time>2016-06-19T19:49:37Z</time>
</trkpt>
<trkpt lat="53.35161940946584" lon="18.430551099271028">
<ele>124</ele>
<time>2016-06-19T19:49:39Z</time>
</trkpt>
<trkpt lat="53.35158563469763" lon="18.430495022799743">
<ele>124</ele>
<time>2016-06-19T19:49:41Z</time>
</trkpt>
<trkpt lat="53.35154823992374" lon="18.43045517812108">
<ele>123</ele>
<time>2016-06-19T19:49:43Z</time>
</trkpt>
<trkpt lat="53.35148434932828" lon="18.430417889828128">
<ele>120</ele>
<time>2016-06-19T19:49:45Z</time>
</trkpt>
<trkpt lat="53.35143792889774" lon="18.43040864685773">
<ele>120</ele>
<time>2016-06-19T19:49:47Z</time>
</trkpt>
<trkpt lat="53.35138134559913" lon="18.430428590776955">
<ele>121</ele>
<time>2016-06-19T19:49:49Z</time>
</trkpt>
<trkpt lat="53.35132276318756" lon="18.430446190150292">
<ele>122</ele>
<time>2016-06-19T19:49:51Z</time>
</trkpt>
<trkpt lat="53.35126716100688" lon="18.430464976178484">
<ele>124</ele>
<time>2016-06-19T19:49:53Z</time>
</trkpt>
<trkpt lat="53.35120981907703" lon="18.430481365065106">
<ele>126</ele>
<time>2016-06-19T19:49:55Z</time>
</trkpt>
<trkpt lat="53.35115595224447" lon="18.430510693700967">
<ele>125</ele>
<time>2016-06-19T19:49:57Z</time>
</trkpt>
<trkpt lat="53.35110255869119" lon="18.43053878119551">
<ele>125</ele>
<time>2016-06-19T19:49:59Z</time>
</trkpt>
<trkpt lat="53.35105204549161" lon="18.430551855723643">
<ele>125</ele>
<time>2016-06-19T19:50:01Z</time>
</trkpt>
<trkpt lat="53.35100463965868" lon="18.43056864211105">
<ele>125</ele>
<time>2016-06-19T19:50:03Z</time>
</trkpt>
<trkpt lat="53.35095478712643" lon="18.430586881759123">
<ele>126</ele>
<time>2016-06-19T19:50:05Z</time>
</trkpt>
<trkpt lat="53.350904991966026" lon="18.430596691012077">
<ele>127</ele>
<time>2016-06-19T19:50:07Z</time>
</trkpt>
<trkpt lat="53.35086445147798" lon="18.430613080222503">
<ele>126</ele>
<time>2016-06-19T19:50:09Z</time>
</trkpt>
<trkpt lat="53.35082007694194" lon="18.430628951605264">
<ele>125</ele>
<time>2016-06-19T19:50:11Z</time>
</trkpt>
<trkpt lat="53.35077566223871" lon="18.43062833783931">
<ele>126</ele>
<time>2016-06-19T19:50:13Z</time>
</trkpt>
<trkpt lat="53.350739602195716" lon="18.430634645762332">
<ele>126</ele>
<time>2016-06-19T19:50:15Z</time>
</trkpt>
<trkpt lat="53.35072529840197" lon="18.430636067189905">
<ele>126</ele>
<time>2016-06-19T19:50:17Z</time>
</trkpt>
<trkpt lat="53.350709789381746" lon="18.430624885980848">
<ele>126</ele>
<time>2016-06-19T19:50:19Z</time>
</trkpt>
<trkpt lat="53.350687241030734" lon="18.430619922331214">
<ele>126</ele>
<time>2016-06-19T19:50:21Z</time>
</trkpt>
<trkpt lat="53.35066744025672" lon="18.430620173369118">
<ele>126</ele>
<time>2016-06-19T19:50:23Z</time>
</trkpt>
<trkpt lat="53.35065413426004" lon="18.430610855593613">
<ele>126</ele>
<time>2016-06-19T19:50:25Z</time>
</trkpt>
<trkpt lat="53.35065307227031" lon="18.430584811472926">
<ele>126</ele>
<time>2016-06-19T19:50:27Z</time>
</trkpt>
<trkpt lat="53.35066979170583" lon="18.43054454663462">
<ele>126</ele>
<time>2016-06-19T19:50:29Z</time>
</trkpt>
<trkpt lat="53.350689481233275" lon="18.430480427225245">
<ele>125</ele>
<time>2016-06-19T19:50:31Z</time>
</trkpt>
<trkpt lat="53.350698187889144" lon="18.430413217007374">
<ele>126</ele>
<time>2016-06-19T19:50:33Z</time>
</trkpt>
<trkpt lat="53.350708587496584" lon="18.430337313876173">
<ele>126</ele>
<time>2016-06-19T19:50:35Z</time>
</trkpt>
<trkpt lat="53.35071169808641" lon="18.430257511021598">
<ele>126</ele>
<time>2016-06-19T19:50:37Z</time>
</trkpt>
<trkpt lat="53.35071971417014" lon="18.43017898634695">
<ele>126</ele>
<time>2016-06-19T19:50:39Z</time>
</trkpt>
<trkpt lat="53.35072957558086" lon="18.430095068620318">
<ele>127</ele>
<time>2016-06-19T19:50:41Z</time>
</trkpt>
<trkpt lat="53.3507403993373" lon="18.430015468562093">
<ele>128</ele>
<time>2016-06-19T19:50:43Z</time>
</trkpt>
<trkpt lat="53.35074885983516" lon="18.429944108267627">
<ele>128</ele>
<time>2016-06-19T19:50:45Z</time>
</trkpt>
<trkpt lat="53.35075716403963" lon="18.429868209977037">
<ele>129</ele>
<time>2016-06-19T19:50:47Z</time>
</trkpt>
<trkpt lat="53.35075778828416" lon="18.42980115437686">
<ele>128</ele>
<time>2016-06-19T19:50:49Z</time>
</trkpt>
<trkpt lat="53.35076410623335" lon="18.429719630598075">
<ele>128</ele>
<time>2016-06-19T19:50:51Z</time>
</trkpt>
<trkpt lat="53.35077639804409" lon="18.429630979035114">
<ele>129</ele>
<time>2016-06-19T19:50:53Z</time>
</trkpt>
<trkpt lat="53.35078424911628" lon="18.42953456873443">
<ele>128</ele>
<time>2016-06-19T19:50:55Z</time>
</trkpt>
<trkpt lat="53.350792619508546" lon="18.42944463009956">
<ele>128</ele>
<time>2016-06-19T19:50:57Z</time>
</trkpt>
<trkpt lat="53.35079638560733" lon="18.42936053872566">
<ele>128</ele>
<time>2016-06-19T19:50:59Z</time>
</trkpt>
<trkpt lat="53.35080061041776" lon="18.429279730264778">
<ele>128</ele>
<time>2016-06-19T19:51:01Z</time>
</trkpt>
<trkpt lat="53.35079466737914" lon="18.429200551322328">
<ele>129</ele>
<time>2016-06-19T19:51:03Z</time>
</trkpt>
<trkpt lat="53.35078889596593" lon="18.42911193968805">
<ele>128</ele>
<time>2016-06-19T19:51:05Z</time>
</trkpt>
<trkpt lat="53.350774800794895" lon="18.429023007823282">
<ele>125</ele>
<time>2016-06-19T19:51:07Z</time>
</trkpt>
<trkpt lat="53.35077147354831" lon="18.42890256305976">
<ele>118</ele>
<time>2016-06-19T19:51:09Z</time>
</trkpt>
<trkpt lat="53.35078361264538" lon="18.4287933596877">
<ele>116</ele>
<time>2016-06-19T19:51:11Z</time>
</trkpt>
<trkpt lat="53.35081038068099" lon="18.428694663653168">
<ele>115</ele>
<time>2016-06-19T19:51:13Z</time>
</trkpt>
<trkpt lat="53.35082984378041" lon="18.428600784397595">
<ele>116</ele>
<time>2016-06-19T19:51:15Z</time>
</trkpt>
<trkpt lat="53.350824647837854" lon="18.428505733242606">
<ele>116</ele>
<time>2016-06-19T19:51:17Z</time>
</trkpt>
<trkpt lat="53.35079693904594" lon="18.42841115547452">
<ele>117</ele>
<time>2016-06-19T19:51:19Z</time>
</trkpt>
<trkpt lat="53.35076819251738" lon="18.42833624254659">
<ele>117</ele>
<time>2016-06-19T19:51:21Z</time>
</trkpt>
<trkpt lat="53.350767482581894" lon="18.428282356840157">
<ele>119</ele>
<time>2016-06-19T19:51:23Z</time>
</trkpt>
<trkpt lat="53.35073662939791" lon="18.428202017801382">
<ele>116</ele>
<time>2016-06-19T19:51:25Z</time>
</trkpt>
<trkpt lat="53.350675543798616" lon="18.42818352969754">
<ele>116</ele>
<time>2016-06-19T19:51:27Z</time>
</trkpt>
<trkpt lat="53.35063976073758" lon="18.428176567442023">
<ele>116</ele>
<time>2016-06-19T19:51:29Z</time>
</trkpt>
<trkpt lat="53.35062458484116" lon="18.428133376790704">
<ele>117</ele>
<time>2016-06-19T19:51:31Z</time>
</trkpt>
<trkpt lat="53.350601008287036" lon="18.42805703612894">
<ele>119</ele>
<time>2016-06-19T19:51:33Z</time>
</trkpt>
<trkpt lat="53.35059055964357" lon="18.427962696527228">
<ele>119</ele>
<time>2016-06-19T19:51:35Z</time>
</trkpt>
<trkpt lat="53.350564947488536" lon="18.427888806945234">
<ele>119</ele>
<time>2016-06-19T19:51:37Z</time>
</trkpt>
<trkpt lat="53.35053649737017" lon="18.42781146781707">
<ele>117</ele>
<time>2016-06-19T19:51:39Z</time>
</trkpt>
<trkpt lat="53.350505866185024" lon="18.427749196996814">
<ele>116</ele>
<time>2016-06-19T19:51:41Z</time>
</trkpt>
<trkpt lat="53.35048352525589" lon="18.427689609073866">
<ele>116</ele>
<time>2016-06-19T19:51:43Z</time>
</trkpt>
<trkpt lat="53.35045631362731" lon="18.42761879770089">
<ele>116</ele>
<time>2016-06-19T19:51:45Z</time>
</trkpt>
<trkpt lat="53.3504353537496" lon="18.427540596992905">
<ele>116</ele>
<time>2016-06-19T19:51:47Z</time>
</trkpt>
<trkpt lat="53.35039744670325" lon="18.427458774716037">
<ele>117</ele>
<time>2016-06-19T19:51:49Z</time>
</trkpt>
<trkpt lat="53.35034956415636" lon="18.42736833643829">
<ele>115</ele>
<time>2016-06-19T19:51:51Z</time>
</trkpt>
<trkpt lat="53.35031080219285" lon="18.42728358835773">
<ele>114</ele>
<time>2016-06-19T19:51:53Z</time>
</trkpt>
<trkpt lat="53.350288614501935" lon="18.42720307181194">
<ele>113</ele>
<time>2016-06-19T19:51:55Z</time>
</trkpt>
<trkpt lat="53.35026993342392" lon="18.42712574453582">
<ele>112</ele>
<time>2016-06-19T19:51:57Z</time>
</trkpt>
<trkpt lat="53.35023640524857" lon="18.427046972580857">
<ele>111</ele>
<time>2016-06-19T19:51:59Z</time>
</trkpt>
<trkpt lat="53.350207252670124" lon="18.426980061824054">
<ele>110</ele>
<time>2016-06-19T19:52:01Z</time>
</trkpt>
<trkpt lat="53.350178892174455" lon="18.42691536779627">
<ele>110</ele>
<time>2016-06-19T19:52:03Z</time>
</trkpt>
<trkpt lat="53.35016861833271" lon="18.426857152322714">
<ele>110</ele>
<time>2016-06-19T19:52:05Z</time>
</trkpt>
<trkpt lat="53.35016042556239" lon="18.42679948385478">
<ele>112</ele>
<time>2016-06-19T19:52:07Z</time>
</trkpt>
<trkpt lat="53.35015326473941" lon="18.426739630435968">
<ele>113</ele>
<time>2016-06-19T19:52:09Z</time>
</trkpt>
<trkpt lat="53.35013830659228" lon="18.426673342523927">
<ele>113</ele>
<time>2016-06-19T19:52:11Z</time>
</trkpt>
<trkpt lat="53.350116192739094" lon="18.42663546191018">
<ele>116</ele>
<time>2016-06-19T19:52:13Z</time>
</trkpt>
<trkpt lat="53.35008677378513" lon="18.426578380520226">
<ele>117</ele>
<time>2016-06-19T19:52:15Z</time>
</trkpt>
<trkpt lat="53.350061905968325" lon="18.426515279129035">
<ele>117</ele>
<time>2016-06-19T19:52:17Z</time>
</trkpt>
<trkpt lat="53.350043638780186" lon="18.426469728681457">
<ele>117</ele>
<time>2016-06-19T19:52:19Z</time>
</trkpt>
<trkpt lat="53.35001643127618" lon="18.426417523082637">
<ele>117</ele>
<time>2016-06-19T19:52:21Z</time>
</trkpt>
<trkpt lat="53.34998616196569" lon="18.42634471628398">
<ele>116</ele>
<time>2016-06-19T19:52:23Z</time>
</trkpt>
<trkpt lat="53.34993936272657" lon="18.426266737041644">
<ele>115</ele>
<time>2016-06-19T19:52:25Z</time>
</trkpt>
<trkpt lat="53.34989712208859" lon="18.426185885196944">
<ele>113</ele>
<time>2016-06-19T19:52:27Z</time>
</trkpt>
<trkpt lat="53.34986932995107" lon="18.426105960581918">
<ele>113</ele>
<time>2016-06-19T19:52:29Z</time>
</trkpt>
<trkpt lat="53.349855036314075" lon="18.426024366494772">
<ele>112</ele>
<time>2016-06-19T19:52:31Z</time>
</trkpt>
<trkpt lat="53.34984082550945" lon="18.425935497221918">
<ele>110</ele>
<time>2016-06-19T19:52:33Z</time>
</trkpt>
<trkpt lat="53.34980711298806" lon="18.42585313195076">
<ele>110</ele>
<time>2016-06-19T19:52:35Z</time>
</trkpt>
<trkpt lat="53.34977503129145" lon="18.425768087762094">
<ele>110</ele>
<time>2016-06-19T19:52:37Z</time>
</trkpt>
<trkpt lat="53.34976865898508" lon="18.42568985661987">
<ele>109</ele>
<time>2016-06-19T19:52:39Z</time>
</trkpt>
<trkpt lat="53.34974135748378" lon="18.425640360594635">
<ele>109</ele>
<time>2016-06-19T19:52:41Z</time>
</trkpt>
<trkpt lat="53.349705165003456" lon="18.42560654710817">
<ele>110</ele>
<time>2016-06-19T19:52:43Z</time>
</trkpt>
<trkpt lat="53.34968163998185" lon="18.4255615619184">
<ele>110</ele>
<time>2016-06-19T19:52:45Z</time>
</trkpt>
<trkpt lat="53.3496776060456" lon="18.42550464391714">
<ele>110</ele>
<time>2016-06-19T19:52:47Z</time>
</trkpt>
<trkpt lat="53.34966244705295" lon="18.425433913809766">
<ele>111</ele>
<time>2016-06-19T19:52:49Z</time>
</trkpt>
<trkpt lat="53.34963920216676" lon="18.42534066630377">
<ele>112</ele>
<time>2016-06-19T19:52:51Z</time>
</trkpt>
<trkpt lat="53.34961440893814" lon="18.425264776186967">
<ele>113</ele>
<time>2016-06-19T19:52:53Z</time>
</trkpt>
<trkpt lat="53.34958916950061" lon="18.425205706963723">
<ele>112</ele>
<time>2016-06-19T19:52:55Z</time>
</trkpt>
<trkpt lat="53.349566900822545" lon="18.425158028944217">
<ele>113</ele>
<time>2016-06-19T19:52:57Z</time>
</trkpt>
<trkpt lat="53.34954872920254" lon="18.42511908522708">
<ele>114</ele>
<time>2016-06-19T19:52:59Z</time>
</trkpt>
<trkpt lat="53.34953735674129" lon="18.425079653039436">
<ele>114</ele>
<time>2016-06-19T19:53:01Z</time>
</trkpt>
<trkpt lat="53.34952326221772" lon="18.425043008657926">
<ele>114</ele>
<time>2016-06-19T19:53:03Z</time>
</trkpt>
<trkpt lat="53.34950396587313" lon="18.42500971096264">
<ele>114</ele>
<time>2016-06-19T19:53:05Z</time>
</trkpt>
<trkpt lat="53.349488728635066" lon="18.424966109922263">
<ele>114</ele>
<time>2016-06-19T19:53:07Z</time>
</trkpt>
<trkpt lat="53.349470565688904" lon="18.42493010411726">
<ele>114</ele>
<time>2016-06-19T19:53:09Z</time>
</trkpt>
<trkpt lat="53.349455972460916" lon="18.424895260499937">
<ele>115</ele>
<time>2016-06-19T19:53:11Z</time>
</trkpt>
<trkpt lat="53.349437313682934" lon="18.42487376068008">
<ele>115</ele>
<time>2016-06-19T19:53:13Z</time>
</trkpt>
<trkpt lat="53.34942726883879" lon="18.424852714464983">
<ele>115</ele>
<time>2016-06-19T19:53:15Z</time>
</trkpt>
<trkpt lat="53.34941087885918" lon="18.424809866935302">
<ele>116</ele>
<time>2016-06-19T19:53:17Z</time>
</trkpt>
<trkpt lat="53.34939627795434" lon="18.424765437674427">
<ele>116</ele>
<time>2016-06-19T19:53:19Z</time>
</trkpt>
<trkpt lat="53.3493754107318" lon="18.42471602186942">
<ele>116</ele>
<time>2016-06-19T19:53:21Z</time>
</trkpt>
<trkpt lat="53.34936009580854" lon="18.42465163038882">
<ele>117</ele>
<time>2016-06-19T19:53:23Z</time>
</trkpt>
<trkpt lat="53.34934101111103" lon="18.424584282216067">
<ele>116</ele>
<time>2016-06-19T19:53:25Z</time>
</trkpt>
<trkpt lat="53.349321491456266" lon="18.424521525520177">
<ele>115</ele>
<time>2016-06-19T19:53:27Z</time>
</trkpt>
<trkpt lat="53.34932303900739" lon="18.42447171657046">
<ele>115</ele>
<time>2016-06-19T19:53:29Z</time>
</trkpt>
<trkpt lat="53.349338974446226" lon="18.424380651698">
<ele>115</ele>
<time>2016-06-19T19:53:31Z</time>
</trkpt>
<trkpt lat="53.34934280638473" lon="18.42431810690356">
<ele>114</ele>
<time>2016-06-19T19:53:33Z</time>
</trkpt>
<trkpt lat="53.349353295756096" lon="18.42424090990356">
<ele>113</ele>
<time>2016-06-19T19:53:35Z</time>
</trkpt>
<trkpt lat="53.34934689514592" lon="18.424176592010177">
<ele>110</ele>
<time>2016-06-19T19:53:37Z</time>
</trkpt>
<trkpt lat="53.349338458776" lon="18.424128871053085">
<ele>110</ele>
<time>2016-06-19T19:53:39Z</time>
</trkpt>
<trkpt lat="53.34933498049188" lon="18.42404898386321">
<ele>110</ele>
<time>2016-06-19T19:53:41Z</time>
</trkpt>
<trkpt lat="53.349339211763514" lon="18.423963376957044">
<ele>114</ele>
<time>2016-06-19T19:53:43Z</time>
</trkpt>
<trkpt lat="53.34937712154481" lon="18.42387081305575">
<ele>114</ele>
<time>2016-06-19T19:53:45Z</time>
</trkpt>
<trkpt lat="53.34941971087263" lon="18.423793877381925">
<ele>115</ele>
<time>2016-06-19T19:53:47Z</time>
</trkpt>
<trkpt lat="53.34942968398724" lon="18.42371822810654">
<ele>117</ele>
<time>2016-06-19T19:53:49Z</time>
</trkpt>
<trkpt lat="53.34941752039477" lon="18.4236430714379">
<ele>116</ele>
<time>2016-06-19T19:53:51Z</time>
</trkpt>
<trkpt lat="53.34940253715878" lon="18.423557196232345">
<ele>115</ele>
<time>2016-06-19T19:53:53Z</time>
</trkpt>
<trkpt lat="53.34939918321476" lon="18.423487154670035">
<ele>115</ele>
<time>2016-06-19T19:53:55Z</time>
</trkpt>
<trkpt lat="53.349417067810506" lon="18.423419187471477">
<ele>114</ele>
<time>2016-06-19T19:53:57Z</time>
</trkpt>
<trkpt lat="53.34944269789823" lon="18.423379361412533">
<ele>115</ele>
<time>2016-06-19T19:53:59Z</time>
</trkpt>
<trkpt lat="53.349459932883754" lon="18.42334125396422">
<ele>116</ele>
<time>2016-06-19T19:54:01Z</time>
</trkpt>
<trkpt lat="53.34945960293385" lon="18.423308347876834">
<ele>119</ele>
<time>2016-06-19T19:54:03Z</time>
</trkpt>
<trkpt lat="53.34944479603713" lon="18.423264873184742">
<ele>121</ele>
<time>2016-06-19T19:54:05Z</time>
</trkpt>
<trkpt lat="53.34944818272953" lon="18.42320602803932">
<ele>122</ele>
<time>2016-06-19T19:54:07Z</time>
</trkpt>
<trkpt lat="53.349435595137365" lon="18.423136537889437">
<ele>123</ele>
<time>2016-06-19T19:54:09Z</time>
</trkpt>
<trkpt lat="53.34944075689852" lon="18.423070593352406">
<ele>125</ele>
<time>2016-06-19T19:54:11Z</time>
</trkpt>
<trkpt lat="53.34944746284961" lon="18.42300135420978">
<ele>126</ele>
<time>2016-06-19T19:54:13Z</time>
</trkpt>
<trkpt lat="53.34945387514524" lon="18.42292801796268">
<ele>127</ele>
<time>2016-06-19T19:54:15Z</time>
</trkpt>
<trkpt lat="53.34945393874514" lon="18.42286951241838">
<ele>128</ele>
<time>2016-06-19T19:54:17Z</time>
</trkpt>
<trkpt lat="53.34943462109878" lon="18.422823830718457">
<ele>128</ele>
<time>2016-06-19T19:54:19Z</time>
</trkpt>
<trkpt lat="53.34938794708556" lon="18.422769099285638">
<ele>126</ele>
<time>2016-06-19T19:54:21Z</time>
</trkpt>
<trkpt lat="53.34934847817378" lon="18.42272805321197">
<ele>125</ele>
<time>2016-06-19T19:54:23Z</time>
</trkpt>
<trkpt lat="53.34932448226725" lon="18.42270567033147">
<ele>125</ele>
<time>2016-06-19T19:54:25Z</time>
</trkpt>
<trkpt lat="53.34929881716194" lon="18.422690561404156">
<ele>124</ele>
<time>2016-06-19T19:54:27Z</time>
</trkpt>
<trkpt lat="53.34927295449376" lon="18.422689946700164">
<ele>125</ele>
<time>2016-06-19T19:54:29Z</time>
</trkpt>
<trkpt lat="53.34923502714692" lon="18.42269767499696">
<ele>124</ele>
<time>2016-06-19T19:54:31Z</time>
</trkpt>
<trkpt lat="53.34918797322699" lon="18.422705289904965">
<ele>123</ele>
<time>2016-06-19T19:54:33Z</time>
</trkpt>
<trkpt lat="53.3491467047467" lon="18.422711177377312">
<ele>121</ele>
<time>2016-06-19T19:54:35Z</time>
</trkpt>
<trkpt lat="53.34913011796085" lon="18.42271830098285">
<ele>121</ele>
<time>2016-06-19T19:54:37Z</time>
</trkpt>
<trkpt lat="53.34909866963675" lon="18.422731760675603">
<ele>121</ele>
<time>2016-06-19T19:54:39Z</time>
</trkpt>
<trkpt lat="53.34907304494981" lon="18.422740750137912">
<ele>120</ele>
<time>2016-06-19T19:54:41Z</time>
</trkpt>
<trkpt lat="53.34904160334478" lon="18.422743527145993">
<ele>119</ele>
<time>2016-06-19T19:54:43Z</time>
</trkpt>
<trkpt lat="53.3490155519748" lon="18.422730202265214">
<ele>119</ele>
<time>2016-06-19T19:54:45Z</time>
</trkpt>
<trkpt lat="53.348995092615525" lon="18.422683625704895">
<ele>121</ele>
<time>2016-06-19T19:54:47Z</time>
</trkpt>
<trkpt lat="53.34896976603472" lon="18.4226536401749">
<ele>121</ele>
<time>2016-06-19T19:54:49Z</time>
</trkpt>
<trkpt lat="53.34895401515871" lon="18.422627451739572">
<ele>121</ele>
<time>2016-06-19T19:54:51Z</time>
</trkpt>
<trkpt lat="53.34893203842824" lon="18.42261899696842">
<ele>121</ele>
<time>2016-06-19T19:54:53Z</time>
</trkpt>
<trkpt lat="53.348914743149095" lon="18.4225936816432">
<ele>121</ele>
<time>2016-06-19T19:54:55Z</time>
</trkpt>
<trkpt lat="53.34889384050208" lon="18.4225715428369">
<ele>121</ele>
<time>2016-06-19T19:54:57Z</time>
</trkpt>
<trkpt lat="53.34887922034441" lon="18.42256657498941">
<ele>121</ele>
<time>2016-06-19T19:54:59Z</time>
</trkpt>
<trkpt lat="53.34886021893057" lon="18.422568663469693">
<ele>120</ele>
<time>2016-06-19T19:55:01Z</time>
</trkpt>
<trkpt lat="53.34881384106953" lon="18.42256785041336">
<ele>118</ele>
<time>2016-06-19T19:55:03Z</time>
</trkpt>
<trkpt lat="53.348778810833345" lon="18.42256139023245">
<ele>117</ele>
<time>2016-06-19T19:55:05Z</time>
</trkpt>
<trkpt lat="53.34875944902364" lon="18.42252976460314">
<ele>117</ele>
<time>2016-06-19T19:55:07Z</time>
</trkpt>
<trkpt lat="53.348743810059325" lon="18.422503819018928">
<ele>116</ele>
<time>2016-06-19T19:55:09Z</time>
</trkpt>
<trkpt lat="53.34872832378297" lon="18.422459588850018">
<ele>116</ele>
<time>2016-06-19T19:55:11Z</time>
</trkpt>
<trkpt lat="53.34870508656941" lon="18.42241320748493">
<ele>115</ele>
<time>2016-06-19T19:55:13Z</time>
</trkpt>
<trkpt lat="53.34869046790475" lon="18.422367448837257">
<ele>115</ele>
<time>2016-06-19T19:55:15Z</time>
</trkpt>
<trkpt lat="53.34866770788012" lon="18.422364699309867">
<ele>115</ele>
<time>2016-06-19T19:55:17Z</time>
</trkpt>
<trkpt lat="53.34864737335114" lon="18.422378094016167">
<ele>115</ele>
<time>2016-06-19T19:55:19Z</time>
</trkpt>
<trkpt lat="53.34862911590747" lon="18.422371473512808">
<ele>115</ele>
<time>2016-06-19T19:55:21Z</time>
</trkpt>
<trkpt lat="53.34860270261871" lon="18.422334663151606">
<ele>115</ele>
<time>2016-06-19T19:55:23Z</time>
</trkpt>
<trkpt lat="53.34857501194436" lon="18.422254720298536">
<ele>113</ele>
<time>2016-06-19T19:55:25Z</time>
</trkpt>
<trkpt lat="53.34855806335704" lon="18.422170551992775">
<ele>110</ele>
<time>2016-06-19T19:55:27Z</time>
</trkpt>
<trkpt lat="53.348551360634595" lon="18.422086540568262">
<ele>110</ele>
<time>2016-06-19T19:55:29Z</time>
</trkpt>
<trkpt lat="53.34852991783305" lon="18.422013065631546">
<ele>110</ele>
<time>2016-06-19T19:55:31Z</time>
</trkpt>
<trkpt lat="53.34850263323252" lon="18.421954593167005">
<ele>110</ele>
<time>2016-06-19T19:55:33Z</time>
</trkpt>
<trkpt lat="53.34846748434255" lon="18.421908553859797">
<ele>112</ele>
<time>2016-06-19T19:55:35Z</time>
</trkpt>
<trkpt lat="53.34843241421596" lon="18.421829582325703">
<ele>111</ele>
<time>2016-06-19T19:55:37Z</time>
</trkpt>
<trkpt lat="53.3483939418927" lon="18.42174165029296">
<ele>108</ele>
<time>2016-06-19T19:55:39Z</time>
</trkpt>
<trkpt lat="53.34835989658057" lon="18.421682831780316">
<ele>108</ele>
<time>2016-06-19T19:55:41Z</time>
</trkpt>
<trkpt lat="53.348318099099046" lon="18.421606560802676">
<ele>108</ele>
<time>2016-06-19T19:55:43Z</time>
</trkpt>
<trkpt lat="53.34828995832891" lon="18.421538735410305">
<ele>108</ele>
<time>2016-06-19T19:55:45Z</time>
</trkpt>
<trkpt lat="53.34827326588044" lon="18.421467407765455">
<ele>108</ele>
<time>2016-06-19T19:55:47Z</time>
</trkpt>
<trkpt lat="53.34825993570591" lon="18.421397617222837">
<ele>108</ele>
<time>2016-06-19T19:55:49Z</time>
</trkpt>
<trkpt lat="53.34823929311655" lon="18.4213338288105">
<ele>109</ele>
<time>2016-06-19T19:55:51Z</time>
</trkpt>
<trkpt lat="53.34822068072558" lon="18.421269599081494">
<ele>108</ele>
<time>2016-06-19T19:55:53Z</time>
</trkpt>
<trkpt lat="53.348211013851945" lon="18.421217584631865">
<ele>107</ele>
<time>2016-06-19T19:55:55Z</time>
</trkpt>
<trkpt lat="53.348201760001714" lon="18.42120483685206">
<ele>107</ele>
<time>2016-06-19T19:55:57Z</time>
</trkpt>
<trkpt lat="53.34818743048089" lon="18.4211873056699">
<ele>107</ele>
<time>2016-06-19T19:55:59Z</time>
</trkpt>
<trkpt lat="53.34815804284488" lon="18.421172527656772">
<ele>107</ele>
<time>2016-06-19T19:56:01Z</time>
</trkpt>
<trkpt lat="53.34812783304222" lon="18.42115530837965">
<ele>107</ele>
<time>2016-06-19T19:56:03Z</time>
</trkpt>
<trkpt lat="53.34808176542933" lon="18.421146385747488">
<ele>108</ele>
<time>2016-06-19T19:56:05Z</time>
</trkpt>
<trkpt lat="53.348029270168034" lon="18.421177066182235">
<ele>109</ele>
<time>2016-06-19T19:56:07Z</time>
</trkpt>
<trkpt lat="53.34798300656801" lon="18.421224326758598">
<ele>110</ele>
<time>2016-06-19T19:56:09Z</time>
</trkpt>
<trkpt lat="53.347950920073245" lon="18.42125978827802">
<ele>110</ele>
<time>2016-06-19T19:56:11Z</time>
</trkpt>
<trkpt lat="53.34791777870315" lon="18.421292263353337">
<ele>112</ele>
<time>2016-06-19T19:56:13Z</time>
</trkpt>
<trkpt lat="53.34787168839481" lon="18.421340525047807">
<ele>114</ele>
<time>2016-06-19T19:56:15Z</time>
</trkpt>
<trkpt lat="53.347824868757264" lon="18.421389225062924">
<ele>115</ele>
<time>2016-06-19T19:56:17Z</time>
</trkpt>
<trkpt lat="53.347789168140885" lon="18.42143897680017">
<ele>116</ele>
<time>2016-06-19T19:56:19Z</time>
</trkpt>
<trkpt lat="53.34774824743253" lon="18.42148406676641">
<ele>116</ele>
<time>2016-06-19T19:56:21Z</time>
</trkpt>
<trkpt lat="53.3477011317184" lon="18.421537614262853">
<ele>117</ele>
<time>2016-06-19T19:56:23Z</time>
</trkpt>
<trkpt lat="53.34765690424378" lon="18.421576530483215">
<ele>118</ele>
<time>2016-06-19T19:56:25Z</time>
</trkpt>
<trkpt lat="53.3476132201301" lon="18.42162021802652">
<ele>119</ele>
<time>2016-06-19T19:56:27Z</time>
</trkpt>
<trkpt lat="53.34756416038475" lon="18.42166642016579">
<ele>120</ele>
<time>2016-06-19T19:56:29Z</time>
</trkpt>
<trkpt lat="53.34751209528632" lon="18.42171654429497">
<ele>121</ele>
<time>2016-06-19T19:56:31Z</time>
</trkpt>
<trkpt lat="53.347453677486314" lon="18.42176951041789">
<ele>121</ele>
<time>2016-06-19T19:56:33Z</time>
</trkpt>
<trkpt lat="53.347414400589074" lon="18.42181804787514">
<ele>122</ele>
<time>2016-06-19T19:56:35Z</time>
</trkpt>
<trkpt lat="53.34738973766578" lon="18.421847598400344">
<ele>122</ele>
<time>2016-06-19T19:56:37Z</time>
</trkpt>
<trkpt lat="53.34737267531914" lon="18.421834847517882">
<ele>122</ele>
<time>2016-06-19T19:56:39Z</time>
</trkpt>
<trkpt lat="53.347332779243544" lon="18.421784513848948">
<ele>120</ele>
<time>2016-06-19T19:56:41Z</time>
</trkpt>
<trkpt lat="53.347297563082535" lon="18.421709147891725">
<ele>118</ele>
<time>2016-06-19T19:56:43Z</time>
</trkpt>
<trkpt lat="53.34725804052343" lon="18.421619796165878">
<ele>115</ele>
<time>2016-06-19T19:56:45Z</time>
</trkpt>
<trkpt lat="53.34722678107903" lon="18.421548279227693">
<ele>115</ele>
<time>2016-06-19T19:56:47Z</time>
</trkpt>
<trkpt lat="53.34719463756182" lon="18.421483710247408">
<ele>114</ele>
<time>2016-06-19T19:56:49Z</time>
</trkpt>
<trkpt lat="53.347162810403134" lon="18.4214237744076">
<ele>113</ele>
<time>2016-06-19T19:56:51Z</time>
</trkpt>
<trkpt lat="53.34713409802952" lon="18.42139505712494">
<ele>115</ele>
<time>2016-06-19T19:56:53Z</time>
</trkpt>
<trkpt lat="53.34711975098909" lon="18.421324186599513">
<ele>114</ele>
<time>2016-06-19T19:56:55Z</time>
</trkpt>
<trkpt lat="53.347114552277965" lon="18.421252538383875">
<ele>112</ele>
<time>2016-06-19T19:56:57Z</time>
</trkpt>
<trkpt lat="53.347102654210474" lon="18.421252931352235">
<ele>113</ele>
<time>2016-06-19T19:56:59Z</time>
</trkpt>
<trkpt lat="53.34706946947568" lon="18.421302217177978">
<ele>115</ele>
<time>2016-06-19T19:57:01Z</time>
</trkpt>
<trkpt lat="53.34704312604368" lon="18.421361344048695">
<ele>116</ele>
<time>2016-06-19T19:57:03Z</time>
</trkpt>
<trkpt lat="53.34703007290912" lon="18.421431797759524">
<ele>116</ele>
<time>2016-06-19T19:57:05Z</time>
</trkpt>
<trkpt lat="53.34702188515263" lon="18.421527463942304">
<ele>117</ele>
<time>2016-06-19T19:57:07Z</time>
</trkpt>
<trkpt lat="53.34699929335166" lon="18.421618989347053">
<ele>118</ele>
<time>2016-06-19T19:57:09Z</time>
</trkpt>
<trkpt lat="53.346977260625835" lon="18.421711708518746">
<ele>118</ele>
<time>2016-06-19T19:57:11Z</time>
</trkpt>
<trkpt lat="53.3469604888518" lon="18.42180341342212">
<ele>119</ele>
<time>2016-06-19T19:57:13Z</time>
</trkpt>
<trkpt lat="53.346940587712126" lon="18.421902356635545">
<ele>119</ele>
<time>2016-06-19T19:57:15Z</time>
</trkpt>
<trkpt lat="53.34692005090393" lon="18.421996411607783">
<ele>119</ele>
<time>2016-06-19T19:57:17Z</time>
</trkpt>
<trkpt lat="53.3469100493098" lon="18.42208313539767">
<ele>119</ele>
<time>2016-06-19T19:57:19Z</time>
</trkpt>
<trkpt lat="53.34689134396955" lon="18.422179774844103">
<ele>119</ele>
<time>2016-06-19T19:57:21Z</time>
</trkpt>
<trkpt lat="53.346879558797916" lon="18.422282705173632">
<ele>121</ele>
<time>2016-06-19T19:57:23Z</time>
</trkpt>
<trkpt lat="53.34686360336154" lon="18.422386990260403">
<ele>121</ele>
<time>2016-06-19T19:57:25Z</time>
</trkpt>
<trkpt lat="53.346846696333834" lon="18.42249132255049">
<ele>121</ele>
<time>2016-06-19T19:57:27Z</time>
</trkpt>
<trkpt lat="53.34683814366704" lon="18.42259162064868">
<ele>123</ele>
<time>2016-06-19T19:57:29Z</time>
</trkpt>
<trkpt lat="53.346824699935055" lon="18.422683737951402">
<ele>125</ele>
<time>2016-06-19T19:57:31Z</time>
</trkpt>
<trkpt lat="53.34680767766719" lon="18.422786383215">
<ele>124</ele>
<time>2016-06-19T19:57:33Z</time>
</trkpt>
<trkpt lat="53.34677419094351" lon="18.422905625701816">
<ele>123</ele>
<time>2016-06-19T19:57:35Z</time>
</trkpt>
<trkpt lat="53.346749740340044" lon="18.4229767085615">
<ele>123</ele>
<time>2016-06-19T19:57:37Z</time>
</trkpt>
<trkpt lat="53.34675203025613" lon="18.423015126880728">
<ele>125</ele>
<time>2016-06-19T19:57:39Z</time>
</trkpt>
<trkpt lat="53.34675203025613" lon="18.423015126880728">
<ele>125</ele>
<time>2016-06-19T19:57:41Z</time>
</trkpt>
<trkpt lat="53.34675203025613" lon="18.423015126880728">
<ele>125</ele>
<time>2016-06-19T19:57:43Z</time>
</trkpt>
<trkpt lat="53.34675203025613" lon="18.423015126880728">
<ele>125</ele>
<time>2016-06-19T19:57:45Z</time>
</trkpt>
<trkpt lat="53.34675183080498" lon="18.42303205278179">
<ele>125</ele>
<time>2016-06-19T19:57:47Z</time>
</trkpt>
<trkpt lat="53.34673948558624" lon="18.423083925036895">
<ele>124</ele>
<time>2016-06-19T19:57:49Z</time>
</trkpt>
<trkpt lat="53.346728238316835" lon="18.423143032752197">
<ele>124</ele>
<time>2016-06-19T19:57:51Z</time>
</trkpt>
<trkpt lat="53.34672217745178" lon="18.423175290525172">
<ele>124</ele>
<time>2016-06-19T19:57:53Z</time>
</trkpt>
<trkpt lat="53.34671485727111" lon="18.423176071579636">
<ele>124</ele>
<time>2016-06-19T19:57:55Z</time>
</trkpt>
<trkpt lat="53.34671461833756" lon="18.423177487221476">
<ele>124</ele>
<time>2016-06-19T19:57:57Z</time>
</trkpt>
<trkpt lat="53.34671095805467" lon="18.42318023880294">
<ele>123</ele>
<time>2016-06-19T19:57:59Z</time>
</trkpt>
<trkpt lat="53.34670116192485" lon="18.423209246674414">
<ele>124</ele>
<time>2016-06-19T19:58:01Z</time>
</trkpt>
<trkpt lat="53.34670250508219" lon="18.423219637951277">
<ele>123</ele>
<time>2016-06-19T19:58:03Z</time>
</trkpt>
<trkpt lat="53.346695387068344" lon="18.42326171137796">
<ele>123</ele>
<time>2016-06-19T19:58:05Z</time>
</trkpt>
<trkpt lat="53.34668472187348" lon="18.423301002271398">
<ele>122</ele>
<time>2016-06-19T19:58:07Z</time>
</trkpt>
<trkpt lat="53.346683791226084" lon="18.4233117083862">
<ele>122</ele>
<time>2016-06-19T19:58:09Z</time>
</trkpt>
<trkpt lat="53.346682362567016" lon="18.423321938827662">
<ele>123</ele>
<time>2016-06-19T19:58:11Z</time>
</trkpt>
<trkpt lat="53.346683368821324" lon="18.423323133335206">
<ele>121</ele>
<time>2016-06-19T19:58:13Z</time>
</trkpt>
<trkpt lat="53.346683368821324" lon="18.423323133335206">
<ele>121</ele>
<time>2016-06-19T19:58:15Z</time>
</trkpt>
<trkpt lat="53.34667811920766" lon="18.423341548625384">
<ele>121</ele>
<time>2016-06-19T19:58:17Z</time>
</trkpt>
<trkpt lat="53.346683699618985" lon="18.423355600809188">
<ele>122</ele>
<time>2016-06-19T19:58:19Z</time>
</trkpt>
<trkpt lat="53.34669243724328" lon="18.42341274755766">
<ele>122</ele>
<time>2016-06-19T19:58:21Z</time>
</trkpt>
<trkpt lat="53.34667883636233" lon="18.423526623237354">
<ele>122</ele>
<time>2016-06-19T19:58:23Z</time>
</trkpt>
<trkpt lat="53.34666381601264" lon="18.423659384210115">
<ele>121</ele>
<time>2016-06-19T19:58:25Z</time>
</trkpt>
<trkpt lat="53.34665534794572" lon="18.42371825620228">
<ele>121</ele>
<time>2016-06-19T19:58:27Z</time>
</trkpt>
<trkpt lat="53.34665561613015" lon="18.42371870937408">
<ele>121</ele>
<time>2016-06-19T19:58:29Z</time>
</trkpt>
<trkpt lat="53.34665594253558" lon="18.42374918472708">
<ele>121</ele>
<time>2016-06-19T19:58:31Z</time>
</trkpt>
<trkpt lat="53.34665692550755" lon="18.42380609307755">
<ele>121</ele>
<time>2016-06-19T19:58:33Z</time>
</trkpt>
<trkpt lat="53.346682363057674" lon="18.423840541853046">
<ele>124</ele>
<time>2016-06-19T19:58:35Z</time>
</trkpt>
<trkpt lat="53.34667994457152" lon="18.42385580535037">
<ele>124</ele>
<time>2016-06-19T19:58:37Z</time>
</trkpt>
<trkpt lat="53.34666767161535" lon="18.42392690848404">
<ele>124</ele>
<time>2016-06-19T19:58:39Z</time>
</trkpt>
<trkpt lat="53.34667474419867" lon="18.423952434560476">
<ele>122</ele>
<time>2016-06-19T19:58:41Z</time>
</trkpt>
<trkpt lat="53.34670232508364" lon="18.423958842717695">
<ele>121</ele>
<time>2016-06-19T19:58:43Z</time>
</trkpt>
<trkpt lat="53.346719651338454" lon="18.423945755757345">
<ele>119</ele>
<time>2016-06-19T19:58:45Z</time>
</trkpt>
<trkpt lat="53.34672105001017" lon="18.423944382842055">
<ele>118</ele>
<time>2016-06-19T19:58:47Z</time>
</trkpt>
<trkpt lat="53.34672105001017" lon="18.423944382842055">
<ele>118</ele>
<time>2016-06-19T19:58:49Z</time>
</trkpt>
<trkpt lat="53.3467128864153" lon="18.42395133159262">
<ele>119</ele>
<time>2016-06-19T19:58:51Z</time>
</trkpt>
<trkpt lat="53.34669636047957" lon="18.42400078278936">
<ele>119</ele>
<time>2016-06-19T19:58:53Z</time>
</trkpt>
<trkpt lat="53.34665928274726" lon="18.42401611810188">
<ele>119</ele>
<time>2016-06-19T19:58:55Z</time>
</trkpt>
<trkpt lat="53.34660326491739" lon="18.424031370063368">
<ele>119</ele>
<time>2016-06-19T19:58:57Z</time>
</trkpt>
<trkpt lat="53.346560071876226" lon="18.424076877619466">
<ele>119</ele>
<time>2016-06-19T19:58:59Z</time>
</trkpt>
<trkpt lat="53.3465429427625" lon="18.424145452660316">
<ele>119</ele>
<time>2016-06-19T19:59:01Z</time>
</trkpt>
<trkpt lat="53.34653488423151" lon="18.42421623966143">
<ele>118</ele>
<time>2016-06-19T19:59:03Z</time>
</trkpt>
<trkpt lat="53.346514759616404" lon="18.42427250652974">
<ele>118</ele>
<time>2016-06-19T19:59:05Z</time>
</trkpt>
<trkpt lat="53.34650374031695" lon="18.424298932699827">
<ele>117</ele>
<time>2016-06-19T19:59:07Z</time>
</trkpt>
<trkpt lat="53.34651710439999" lon="18.424327682916807">
<ele>117</ele>
<time>2016-06-19T19:59:09Z</time>
</trkpt>
<trkpt lat="53.34650854400417" lon="18.42438695496592">
<ele>117</ele>
<time>2016-06-19T19:59:11Z</time>
</trkpt>
<trkpt lat="53.34651030158733" lon="18.424449634064576">
<ele>117</ele>
<time>2016-06-19T19:59:13Z</time>
</trkpt>
<trkpt lat="53.346515556764516" lon="18.42452041087039">
<ele>117</ele>
<time>2016-06-19T19:59:15Z</time>
</trkpt>
<trkpt lat="53.346537973051646" lon="18.424588713303823">
<ele>117</ele>
<time>2016-06-19T19:59:17Z</time>
</trkpt>
<trkpt lat="53.346562021207426" lon="18.424642408489895">
<ele>117</ele>
<time>2016-06-19T19:59:19Z</time>
</trkpt>
<trkpt lat="53.34658114824754" lon="18.424700721048104">
<ele>117</ele>
<time>2016-06-19T19:59:21Z</time>
</trkpt>
<trkpt lat="53.346603434184146" lon="18.424772177515287">
<ele>117</ele>
<time>2016-06-19T19:59:23Z</time>
</trkpt>
<trkpt lat="53.34663916847703" lon="18.424834511464194">
<ele>113</ele>
<time>2016-06-19T19:59:25Z</time>
</trkpt>
<trkpt lat="53.346631678680886" lon="18.4248642277035">
<ele>116</ele>
<time>2016-06-19T19:59:27Z</time>
</trkpt>
<trkpt lat="53.346584581478" lon="18.424875248925524">
<ele>117</ele>
<time>2016-06-19T19:59:29Z</time>
</trkpt>
<trkpt lat="53.34654383096357" lon="18.42488162575483">
<ele>118</ele>
<time>2016-06-19T19:59:31Z</time>
</trkpt>
<trkpt lat="53.34652754096869" lon="18.4249181376343">
<ele>118</ele>
<time>2016-06-19T19:59:33Z</time>
</trkpt>
<trkpt lat="53.34651613423408" lon="18.424963929017256">
<ele>118</ele>
<time>2016-06-19T19:59:35Z</time>
</trkpt>
<trkpt lat="53.34649863120841" lon="18.424978056575934">
<ele>117</ele>
<time>2016-06-19T19:59:37Z</time>
</trkpt>
<trkpt lat="53.34648376079837" lon="18.424963439474425">
<ele>118</ele>
<time>2016-06-19T19:59:39Z</time>
</trkpt>
<trkpt lat="53.34647297222951" lon="18.424991683566915">
<ele>123</ele>
<time>2016-06-19T19:59:41Z</time>
</trkpt>
<trkpt lat="53.34646137048786" lon="18.424998529759236">
<ele>126</ele>
<time>2016-06-19T19:59:43Z</time>
</trkpt>
<trkpt lat="53.346445146386046" lon="18.425029293854877">
<ele>129</ele>
<time>2016-06-19T19:59:45Z</time>
</trkpt>
<trkpt lat="53.3464280211214" lon="18.425041268904764">
<ele>132</ele>
<time>2016-06-19T19:59:47Z</time>
</trkpt>
<trkpt lat="53.34639213851919" lon="18.425030562731713">
<ele>135</ele>
<time>2016-06-19T19:59:49Z</time>
</trkpt>
<trkpt lat="53.346389097857106" lon="18.425028513153798">
<ele>135</ele>
<time>2016-06-19T19:59:51Z</time>
</trkpt>
<trkpt lat="53.346389097857106" lon="18.425028513153798">
<ele>135</ele>
<time>2016-06-19T19:59:53Z</time>
</trkpt>
<trkpt lat="53.346389097857106" lon="18.425028513153798">
<ele>135</ele>
<time>2016-06-19T19:59:55Z</time>
</trkpt>
<trkpt lat="53.346389097857106" lon="18.425028513153798">
<ele>135</ele>
<time>2016-06-19T19:59:57Z</time>
</trkpt>
<trkpt lat="53.346389097857106" lon="18.425028513153798">
<ele>135</ele>
<time>2016-06-19T19:59:59Z</time>
</trkpt>
<trkpt lat="53.346389097857106" lon="18.425028513153798">
<ele>135</ele>
<time>2016-06-19T20:00:01Z</time>
</trkpt>
<trkpt lat="53.346389097857106" lon="18.425028513153798">
<ele>135</ele>
<time>2016-06-19T20:00:03Z</time>
</trkpt>
<trkpt lat="53.346389097857106" lon="18.425028513153798">
<ele>135</ele>
<time>2016-06-19T20:00:05Z</time>
</trkpt>
<trkpt lat="53.346389097857106" lon="18.425028513153798">
<ele>135</ele>
<time>2016-06-19T20:00:07Z</time>
</trkpt>
<trkpt lat="53.346389097857106" lon="18.425028513153798">
<ele>135</ele>
<time>2016-06-19T20:00:09Z</time>
</trkpt>
<trkpt lat="53.346389097857106" lon="18.425028513153798">
<ele>135</ele>
<time>2016-06-19T20:00:11Z</time>
</trkpt>
<trkpt lat="53.346389097857106" lon="18.425028513153798">
<ele>135</ele>
<time>2016-06-19T20:00:13Z</time>
</trkpt>
<trkpt lat="53.346389097857106" lon="18.425028513153798">
<ele>135</ele>
<time>2016-06-19T20:00:15Z</time>
</trkpt>
<trkpt lat="53.346389097857106" lon="18.425028513153798">
<ele>135</ele>
<time>2016-06-19T20:00:17Z</time>
</trkpt>
<trkpt lat="53.346389097857106" lon="18.425028513153798">
<ele>135</ele>
<time>2016-06-19T20:00:19Z</time>
</trkpt>
<trkpt lat="53.346389097857106" lon="18.425028513153798">
<ele>135</ele>
<time>2016-06-19T20:00:21Z</time>
</trkpt>
<trkpt lat="53.346389097857106" lon="18.425028513153798">
<ele>135</ele>
<time>2016-06-19T20:00:23Z</time>
</trkpt>
<trkpt lat="53.346389097857106" lon="18.425028513153798">
<ele>135</ele>
<time>2016-06-19T20:00:25Z</time>
</trkpt>
<trkpt lat="53.346389097857106" lon="18.425028513153798">
<ele>135</ele>
<time>2016-06-19T20:00:27Z</time>
</trkpt>
<trkpt lat="53.346389097857106" lon="18.425028513153798">
<ele>135</ele>
<time>2016-06-19T20:00:29Z</time>
</trkpt>
<trkpt lat="53.346389097857106" lon="18.425028513153798">
<ele>135</ele>
<time>2016-06-19T20:00:31Z</time>
</trkpt>
<trkpt lat="53.346389097857106" lon="18.425028513153798">
<ele>135</ele>
<time>2016-06-19T20:00:33Z</time>
</trkpt>
<trkpt lat="53.346389097857106" lon="18.425028513153798">
<ele>135</ele>
<time>2016-06-19T20:00:35Z</time>
</trkpt>
<trkpt lat="53.346389097857106" lon="18.425028513153798">
<ele>135</ele>
<time>2016-06-19T20:00:37Z</time>
</trkpt>
<trkpt lat="53.346389097857106" lon="18.425028513153798">
<ele>135</ele>
<time>2016-06-19T20:00:39Z</time>
</trkpt>
<trkpt lat="53.346389097857106" lon="18.425028513153798">
<ele>135</ele>
<time>2016-06-19T20:00:41Z</time>
</trkpt>
<trkpt lat="53.346389097857106" lon="18.425028513153798">
<ele>135</ele>
<time>2016-06-19T20:00:43Z</time>
</trkpt>
<trkpt lat="53.346389097857106" lon="18.425028513153798">
<ele>135</ele>
<time>2016-06-19T20:00:45Z</time>
</trkpt>
<trkpt lat="53.346389097857106" lon="18.425028513153798">
<ele>135</ele>
<time>2016-06-19T20:00:47Z</time>
</trkpt>
<trkpt lat="53.346389097857106" lon="18.425028513153798">
<ele>135</ele>
<time>2016-06-19T20:00:49Z</time>
</trkpt>
<trkpt lat="53.346389097857106" lon="18.425028513153798">
<ele>135</ele>
<time>2016-06-19T20:00:51Z</time>
</trkpt>
<trkpt lat="53.346389097857106" lon="18.425028513153798">
<ele>135</ele>
<time>2016-06-19T20:00:53Z</time>
</trkpt>
<trkpt lat="53.346389097857106" lon="18.425028513153798">
<ele>135</ele>
<time>2016-06-19T20:00:55Z</time>
</trkpt>
<trkpt lat="53.346389097857106" lon="18.425028513153798">
<ele>135</ele>
<time>2016-06-19T20:00:57Z</time>
</trkpt>
<trkpt lat="53.346389097857106" lon="18.425028513153798">
<ele>135</ele>
<time>2016-06-19T20:00:59Z</time>
</trkpt>
<trkpt lat="53.346389097857106" lon="18.425028513153798">
<ele>135</ele>
<time>2016-06-19T20:01:01Z</time>
</trkpt>
<trkpt lat="53.346389097857106" lon="18.425028513153798">
<ele>135</ele>
<time>2016-06-19T20:01:03Z</time>
</trkpt>
<trkpt lat="53.346389097857106" lon="18.425028513153798">
<ele>135</ele>
<time>2016-06-19T20:01:05Z</time>
</trkpt>
<trkpt lat="53.346389097857106" lon="18.425028513153798">
<ele>135</ele>
<time>2016-06-19T20:01:07Z</time>
</trkpt>
<trkpt lat="53.346389097857106" lon="18.425028513153798">
<ele>135</ele>
<time>2016-06-19T20:01:09Z</time>
</trkpt>
<trkpt lat="53.346389097857106" lon="18.425028513153798">
<ele>135</ele>
<time>2016-06-19T20:01:11Z</time>
</trkpt>
<trkpt lat="53.346389097857106" lon="18.425028513153798">
<ele>135</ele>
<time>2016-06-19T20:01:13Z</time>
</trkpt>
<trkpt lat="53.346389097857106" lon="18.425028513153798">
<ele>135</ele>
<time>2016-06-19T20:01:15Z</time>
</trkpt>
<trkpt lat="53.346389097857106" lon="18.425028513153798">
<ele>135</ele>
<time>2016-06-19T20:01:17Z</time>
</trkpt>
<trkpt lat="53.346389097857106" lon="18.425028513153798">
<ele>135</ele>
<time>2016-06-19T20:01:19Z</time>
</trkpt>
<trkpt lat="53.346389097857106" lon="18.425028513153798">
<ele>135</ele>
<time>2016-06-19T20:01:21Z</time>
</trkpt>
<trkpt lat="53.346389097857106" lon="18.425028513153798">
<ele>135</ele>
<time>2016-06-19T20:01:23Z</time>
</trkpt>
<trkpt lat="53.346389097857106" lon="18.425028513153798">
<ele>135</ele>
<time>2016-06-19T20:01:25Z</time>
</trkpt>
<trkpt lat="53.346389097857106" lon="18.425028513153798">
<ele>135</ele>
<time>2016-06-19T20:01:27Z</time>
</trkpt>
<trkpt lat="53.346389097857106" lon="18.425028513153798">
<ele>135</ele>
<time>2016-06-19T20:01:29Z</time>
</trkpt>
<trkpt lat="53.346389097857106" lon="18.425028513153798">
<ele>135</ele>
<time>2016-06-19T20:01:31Z</time>
</trkpt>
<trkpt lat="53.346389097857106" lon="18.425028513153798">
<ele>135</ele>
<time>2016-06-19T20:01:33Z</time>
</trkpt>
<trkpt lat="53.346389097857106" lon="18.425028513153798">
<ele>135</ele>
<time>2016-06-19T20:01:35Z</time>
</trkpt>
<trkpt lat="53.346389097857106" lon="18.425028513153798">
<ele>135</ele>
<time>2016-06-19T20:01:37Z</time>
</trkpt>
<trkpt lat="53.346389097857106" lon="18.425028513153798">
<ele>135</ele>
<time>2016-06-19T20:01:39Z</time>
</trkpt>
<trkpt lat="53.346389097857106" lon="18.425028513153798">
<ele>135</ele>
<time>2016-06-19T20:01:41Z</time>
</trkpt>
<trkpt lat="53.346389097857106" lon="18.425028513153798">
<ele>135</ele>
<time>2016-06-19T20:01:43Z</time>
</trkpt>
<trkpt lat="53.346389097857106" lon="18.425028513153798">
<ele>135</ele>
<time>2016-06-19T20:01:45Z</time>
</trkpt>
<trkpt lat="53.346389097857106" lon="18.425028513153798">
<ele>135</ele>
<time>2016-06-19T20:01:47Z</time>
</trkpt>
<trkpt lat="53.346389097857106" lon="18.425028513153798">
<ele>135</ele>
<time>2016-06-19T20:01:49Z</time>
</trkpt>
<trkpt lat="53.346389097857106" lon="18.425028513153798">
<ele>135</ele>
<time>2016-06-19T20:01:51Z</time>
</trkpt>
<trkpt lat="53.346389097857106" lon="18.425028513153798">
<ele>135</ele>
<time>2016-06-19T20:01:53Z</time>
</trkpt>
<trkpt lat="53.346389097857106" lon="18.425028513153798">
<ele>135</ele>
<time>2016-06-19T20:01:55Z</time>
</trkpt>
<trkpt lat="53.346389097857106" lon="18.425028513153798">
<ele>135</ele>
<time>2016-06-19T20:01:57Z</time>
</trkpt>
<trkpt lat="53.346389097857106" lon="18.425028513153798">
<ele>135</ele>
<time>2016-06-19T20:01:59Z</time>
</trkpt>
<trkpt lat="53.346389097857106" lon="18.425028513153798">
<ele>135</ele>
<time>2016-06-19T20:02:01Z</time>
</trkpt>
<trkpt lat="53.346389097857106" lon="18.425028513153798">
<ele>135</ele>
<time>2016-06-19T20:02:03Z</time>
</trkpt>
<trkpt lat="53.346389097857106" lon="18.425028513153798">
<ele>135</ele>
<time>2016-06-19T20:02:05Z</time>
</trkpt>
<trkpt lat="53.346389097857106" lon="18.425028513153798">
<ele>135</ele>
<time>2016-06-19T20:02:07Z</time>
</trkpt>
<trkpt lat="53.346389097857106" lon="18.425028513153798">
<ele>135</ele>
<time>2016-06-19T20:02:09Z</time>
</trkpt>
<trkpt lat="53.346389097857106" lon="18.425028513153798">
<ele>135</ele>
<time>2016-06-19T20:02:11Z</time>
</trkpt>
<trkpt lat="53.346389097857106" lon="18.425028513153798">
<ele>135</ele>
<time>2016-06-19T20:02:13Z</time>
</trkpt>
<trkpt lat="53.346389097857106" lon="18.425028513153798">
<ele>135</ele>
<time>2016-06-19T20:02:15Z</time>
</trkpt>
<trkpt lat="53.346389097857106" lon="18.425028513153798">
<ele>135</ele>
<time>2016-06-19T20:02:17Z</time>
</trkpt>
<trkpt lat="53.346389097857106" lon="18.425028513153798">
<ele>135</ele>
<time>2016-06-19T20:02:19Z</time>
</trkpt>
<trkpt lat="53.346389097857106" lon="18.425028513153798">
<ele>135</ele>
<time>2016-06-19T20:02:21Z</time>
</trkpt>
<trkpt lat="53.346389097857106" lon="18.425028513153798">
<ele>135</ele>
<time>2016-06-19T20:02:23Z</time>
</trkpt>
<trkpt lat="53.346389097857106" lon="18.425028513153798">
<ele>135</ele>
<time>2016-06-19T20:02:25Z</time>
</trkpt>
<trkpt lat="53.346389097857106" lon="18.425028513153798">
<ele>135</ele>
<time>2016-06-19T20:02:27Z</time>
</trkpt>
<trkpt lat="53.346389097857106" lon="18.425028513153798">
<ele>135</ele>
<time>2016-06-19T20:02:29Z</time>
</trkpt>
<trkpt lat="53.346389097857106" lon="18.425028513153798">
<ele>135</ele>
<time>2016-06-19T20:02:31Z</time>
</trkpt>
<trkpt lat="53.346389097857106" lon="18.425028513153798">
<ele>135</ele>
<time>2016-06-19T20:02:33Z</time>
</trkpt>
<trkpt lat="53.346389097857106" lon="18.425028513153798">
<ele>135</ele>
<time>2016-06-19T20:02:35Z</time>
</trkpt>
<trkpt lat="53.346389097857106" lon="18.425028513153798">
<ele>135</ele>
<time>2016-06-19T20:02:37Z</time>
</trkpt>
<trkpt lat="53.346389097857106" lon="18.425028513153798">
<ele>135</ele>
<time>2016-06-19T20:02:39Z</time>
</trkpt>
<trkpt lat="53.346389097857106" lon="18.425028513153798">
<ele>135</ele>
<time>2016-06-19T20:02:41Z</time>
</trkpt>
<trkpt lat="53.346389097857106" lon="18.425028513153798">
<ele>135</ele>
<time>2016-06-19T20:02:43Z</time>
</trkpt>
<trkpt lat="53.346389097857106" lon="18.425028513153798">
<ele>135</ele>
<time>2016-06-19T20:02:45Z</time>
</trkpt>
<trkpt lat="53.346389097857106" lon="18.425028513153798">
<ele>135</ele>
<time>2016-06-19T20:02:47Z</time>
</trkpt>
<trkpt lat="53.34640688774316" lon="18.42503070273977">
<ele>133</ele>
<time>2016-06-19T20:02:49Z</time>
</trkpt>
<trkpt lat="53.346453197112936" lon="18.425014050569043">
<ele>131</ele>
<time>2016-06-19T20:02:51Z</time>
</trkpt>
<trkpt lat="53.346484904687586" lon="18.424991789097696">
<ele>129</ele>
<time>2016-06-19T20:02:53Z</time>
</trkpt>
<trkpt lat="53.346511383208764" lon="18.42497507062094">
<ele>127</ele>
<time>2016-06-19T20:02:55Z</time>
</trkpt>
<trkpt lat="53.34654240601927" lon="18.4249468237678">
<ele>126</ele>
<time>2016-06-19T20:02:57Z</time>
</trkpt>
<trkpt lat="53.34658543082792" lon="18.424954659427122">
<ele>125</ele>
<time>2016-06-19T20:02:59Z</time>
</trkpt>
<trkpt lat="53.34662124362741" lon="18.424977091378565">
<ele>123</ele>
<time>2016-06-19T20:03:01Z</time>
</trkpt>
<trkpt lat="53.34664365875061" lon="18.42496453630501">
<ele>122</ele>
<time>2016-06-19T20:03:03Z</time>
</trkpt>
<trkpt lat="53.34665152580543" lon="18.42493914039498">
<ele>120</ele>
<time>2016-06-19T20:03:05Z</time>
</trkpt>
<trkpt lat="53.34666604292525" lon="18.424918510771665">
<ele>119</ele>
<time>2016-06-19T20:03:07Z</time>
</trkpt>
<trkpt lat="53.34667035269001" lon="18.42489863647166">
<ele>118</ele>
<time>2016-06-19T20:03:09Z</time>
</trkpt>
<trkpt lat="53.34667962590381" lon="18.424898424431586">
<ele>117</ele>
<time>2016-06-19T20:03:11Z</time>
</trkpt>
<trkpt lat="53.34668082223531" lon="18.42486980989251">
<ele>115</ele>
<time>2016-06-19T20:03:13Z</time>
</trkpt>
<trkpt lat="53.34669971982066" lon="18.424861036324103">
<ele>114</ele>
<time>2016-06-19T20:03:15Z</time>
</trkpt>
<trkpt lat="53.34671385578881" lon="18.424864435901465">
<ele>114</ele>
<time>2016-06-19T20:03:17Z</time>
</trkpt>
<trkpt lat="53.34672990292043" lon="18.42488650307315">
<ele>114</ele>
<time>2016-06-19T20:03:19Z</time>
</trkpt>
<trkpt lat="53.34673767516426" lon="18.42490630133564">
<ele>114</ele>
<time>2016-06-19T20:03:21Z</time>
</trkpt>
<trkpt lat="53.3467437392066" lon="18.424937591623635">
<ele>114</ele>
<time>2016-06-19T20:03:23Z</time>
</trkpt>
<trkpt lat="53.346757964986715" lon="18.424988750965827">
<ele>113</ele>
<time>2016-06-19T20:03:25Z</time>
</trkpt>
<trkpt lat="53.346772407964345" lon="18.425059871496284">
<ele>114</ele>
<time>2016-06-19T20:03:27Z</time>
</trkpt>
<trkpt lat="53.34678157086559" lon="18.42514644104942">
<ele>114</ele>
<time>2016-06-19T20:03:29Z</time>
</trkpt>
<trkpt lat="53.34680299595005" lon="18.425226719820994">
<ele>115</ele>
<time>2016-06-19T20:03:31Z</time>
</trkpt>
<trkpt lat="53.346821144883435" lon="18.42530223688276">
<ele>114</ele>
<time>2016-06-19T20:03:33Z</time>
</trkpt>
<trkpt lat="53.34685229600871" lon="18.425380451594748">
<ele>113</ele>
<time>2016-06-19T20:03:35Z</time>
</trkpt>
<trkpt lat="53.34689493564811" lon="18.425459346578837">
<ele>112</ele>
<time>2016-06-19T20:03:37Z</time>
</trkpt>
<trkpt lat="53.34693664514216" lon="18.425558316876096">
<ele>112</ele>
<time>2016-06-19T20:03:39Z</time>
</trkpt>
<trkpt lat="53.34696856152927" lon="18.425652200148704">
<ele>113</ele>
<time>2016-06-19T20:03:41Z</time>
</trkpt>
<trkpt lat="53.34700255332011" lon="18.4257314920377">
<ele>112</ele>
<time>2016-06-19T20:03:43Z</time>
</trkpt>
<trkpt lat="53.347038685572194" lon="18.42578036056025">
<ele>110</ele>
<time>2016-06-19T20:03:45Z</time>
</trkpt>
<trkpt lat="53.34707433157015" lon="18.425812410795412">
<ele>108</ele>
<time>2016-06-19T20:03:47Z</time>
</trkpt>
<trkpt lat="53.34710547200786" lon="18.425865909914556">
<ele>109</ele>
<time>2016-06-19T20:03:49Z</time>
</trkpt>
<trkpt lat="53.34713358441597" lon="18.425933106880084">
<ele>108</ele>
<time>2016-06-19T20:03:51Z</time>
</trkpt>
<trkpt lat="53.34716199233839" lon="18.42599855824233">
<ele>108</ele>
<time>2016-06-19T20:03:53Z</time>
</trkpt>
<trkpt lat="53.347190865796335" lon="18.42605927036011">
<ele>107</ele>
<time>2016-06-19T20:03:55Z</time>
</trkpt>
<trkpt lat="53.34722245656328" lon="18.426104283161397">
<ele>107</ele>
<time>2016-06-19T20:03:57Z</time>
</trkpt>
<trkpt lat="53.34726364775182" lon="18.426132839070196">
<ele>107</ele>
<time>2016-06-19T20:03:59Z</time>
</trkpt>
<trkpt lat="53.347303122457525" lon="18.426128088317665">
<ele>107</ele>
<time>2016-06-19T20:04:01Z</time>
</trkpt>
<trkpt lat="53.347345448365324" lon="18.426100186002667">
<ele>107</ele>
<time>2016-06-19T20:04:03Z</time>
</trkpt>
<trkpt lat="53.34739302787422" lon="18.426068110735777">
<ele>106</ele>
<time>2016-06-19T20:04:05Z</time>
</trkpt>
<trkpt lat="53.34744033716417" lon="18.426028331388483">
<ele>107</ele>
<time>2016-06-19T20:04:07Z</time>
</trkpt>
<trkpt lat="53.347474987528045" lon="18.42598580458167">
<ele>107</ele>
<time>2016-06-19T20:04:09Z</time>
</trkpt>
<trkpt lat="53.34751372606603" lon="18.425946284056366">
<ele>107</ele>
<time>2016-06-19T20:04:11Z</time>
</trkpt>
<trkpt lat="53.34753803051896" lon="18.425909216903268">
<ele>106</ele>
<time>2016-06-19T20:04:13Z</time>
</trkpt>
<trkpt lat="53.34755503852543" lon="18.42587996351172">
<ele>106</ele>
<time>2016-06-19T20:04:15Z</time>
</trkpt>
<trkpt lat="53.34757114760143" lon="18.425841609284465">
<ele>106</ele>
<time>2016-06-19T20:04:17Z</time>
</trkpt>
<trkpt lat="53.347575900005914" lon="18.42584268061686">
<ele>104</ele>
<time>2016-06-19T20:04:19Z</time>
</trkpt>
<trkpt lat="53.347593046654644" lon="18.425900575638646">
<ele>103</ele>
<time>2016-06-19T20:04:21Z</time>
</trkpt>
<trkpt lat="53.34761982950386" lon="18.42594814955316">
<ele>102</ele>
<time>2016-06-19T20:04:23Z</time>
</trkpt>
<trkpt lat="53.3476420681722" lon="18.425998419250956">
<ele>103</ele>
<time>2016-06-19T20:04:25Z</time>
</trkpt>
<trkpt lat="53.34766073984385" lon="18.426037970753264">
<ele>102</ele>
<time>2016-06-19T20:04:27Z</time>
</trkpt>
<trkpt lat="53.347678618607134" lon="18.42610331732265">
<ele>101</ele>
<time>2016-06-19T20:04:29Z</time>
</trkpt>
<trkpt lat="53.347703625765085" lon="18.426153580254976">
<ele>98</ele>
<time>2016-06-19T20:04:31Z</time>
</trkpt>
<trkpt lat="53.34775204330747" lon="18.426204716601283">
<ele>97</ele>
<time>2016-06-19T20:04:33Z</time>
</trkpt>
<trkpt lat="53.347795405300985" lon="18.426263249673145">
<ele>97</ele>
<time>2016-06-19T20:04:35Z</time>
</trkpt>
<trkpt lat="53.347828387037865" lon="18.42635261427668">
<ele>98</ele>
<time>2016-06-19T20:04:37Z</time>
</trkpt>
<trkpt lat="53.347862188089806" lon="18.4264309335977">
<ele>95</ele>
<time>2016-06-19T20:04:39Z</time>
</trkpt>
<trkpt lat="53.347909935808154" lon="18.42649308221745">
<ele>92</ele>
<time>2016-06-19T20:04:41Z</time>
</trkpt>
<trkpt lat="53.34794199975676" lon="18.42655908528362">
<ele>91</ele>
<time>2016-06-19T20:04:43Z</time>
</trkpt>
<trkpt lat="53.347955742651806" lon="18.42663235782916">
<ele>92</ele>
<time>2016-06-19T20:04:45Z</time>
</trkpt>
<trkpt lat="53.34797319919314" lon="18.42670752106131">
<ele>91</ele>
<time>2016-06-19T20:04:47Z</time>
</trkpt>
<trkpt lat="53.347992124981864" lon="18.426786647789708">
<ele>91</ele>
<time>2016-06-19T20:04:49Z</time>
</trkpt>
<trkpt lat="53.34800364802885" lon="18.42686354248033">
<ele>91</ele>
<time>2016-06-19T20:04:51Z</time>
</trkpt>
<trkpt lat="53.34801410337547" lon="18.426933115142788">
<ele>91</ele>
<time>2016-06-19T20:04:53Z</time>
</trkpt>
<trkpt lat="53.34803193746592" lon="18.426994401543396">
<ele>91</ele>
<time>2016-06-19T20:04:55Z</time>
</trkpt>
<trkpt lat="53.34807224343113" lon="18.42710968637005">
<ele>96</ele>
<time>2016-06-19T20:04:57Z</time>
</trkpt>
<trkpt lat="53.348096781129286" lon="18.427211564447433">
<ele>96</ele>
<time>2016-06-19T20:04:59Z</time>
</trkpt>
<trkpt lat="53.34811610306411" lon="18.427291079700417">
<ele>97</ele>
<time>2016-06-19T20:05:01Z</time>
</trkpt>
<trkpt lat="53.34813023903531" lon="18.427377577292102">
<ele>97</ele>
<time>2016-06-19T20:05:03Z</time>
</trkpt>
<trkpt lat="53.34814635494754" lon="18.427470770019053">
<ele>99</ele>
<time>2016-06-19T20:05:05Z</time>
</trkpt>
<trkpt lat="53.34816113024456" lon="18.42756417349202">
<ele>99</ele>
<time>2016-06-19T20:05:07Z</time>
</trkpt>
<trkpt lat="53.348186469838154" lon="18.42765850688246">
<ele>101</ele>
<time>2016-06-19T20:05:09Z</time>
</trkpt>
<trkpt lat="53.34819420966552" lon="18.42774433428161">
<ele>101</ele>
<time>2016-06-19T20:05:11Z</time>
</trkpt>
<trkpt lat="53.34819312403706" lon="18.42785477382842">
<ele>102</ele>
<time>2016-06-19T20:05:13Z</time>
</trkpt>
<trkpt lat="53.348185102787745" lon="18.42795925644988">
<ele>102</ele>
<time>2016-06-19T20:05:15Z</time>
</trkpt>
<trkpt lat="53.34818371666099" lon="18.42803182559672">
<ele>103</ele>
<time>2016-06-19T20:05:17Z</time>
</trkpt>
<trkpt lat="53.34818843876893" lon="18.428107865996118">
<ele>102</ele>
<time>2016-06-19T20:05:19Z</time>
</trkpt>
<trkpt lat="53.34819084522804" lon="18.428205740248536">
<ele>103</ele>
<time>2016-06-19T20:05:21Z</time>
</trkpt>
<trkpt lat="53.34818469545155" lon="18.428311841734345">
<ele>104</ele>
<time>2016-06-19T20:05:23Z</time>
</trkpt>
<trkpt lat="53.348179926616744" lon="18.428430280257647">
<ele>104</ele>
<time>2016-06-19T20:05:25Z</time>
</trkpt>
<trkpt lat="53.348181034992045" lon="18.428526459224653">
<ele>105</ele>
<time>2016-06-19T20:05:27Z</time>
</trkpt>
<trkpt lat="53.34818527945095" lon="18.428622533423543">
<ele>105</ele>
<time>2016-06-19T20:05:29Z</time>
</trkpt>
<trkpt lat="53.34819352317904" lon="18.428704763409076">
<ele>106</ele>
<time>2016-06-19T20:05:31Z</time>
</trkpt>
<trkpt lat="53.34818723246654" lon="18.428818426042355">
<ele>106</ele>
<time>2016-06-19T20:05:33Z</time>
</trkpt>
<trkpt lat="53.34818376936195" lon="18.428906670483357">
<ele>107</ele>
<time>2016-06-19T20:05:35Z</time>
</trkpt>
<trkpt lat="53.348182599493065" lon="18.429006951278318">
<ele>107</ele>
<time>2016-06-19T20:05:37Z</time>
</trkpt>
<trkpt lat="53.34817606232409" lon="18.429115851130238">
<ele>107</ele>
<time>2016-06-19T20:05:39Z</time>
</trkpt>
<trkpt lat="53.34816385430156" lon="18.42923787161029">
<ele>107</ele>
<time>2016-06-19T20:05:41Z</time>
</trkpt>
<trkpt lat="53.34816429095637" lon="18.429372568007892">
<ele>107</ele>
<time>2016-06-19T20:05:43Z</time>
</trkpt>
<trkpt lat="53.34816890731639" lon="18.429516495085135">
<ele>106</ele>
<time>2016-06-19T20:05:45Z</time>
</trkpt>
<trkpt lat="53.34817480126026" lon="18.429652525148576">
<ele>109</ele>
<time>2016-06-19T20:05:47Z</time>
</trkpt>
<trkpt lat="53.34817853141451" lon="18.42976279493316">
<ele>109</ele>
<time>2016-06-19T20:05:49Z</time>
</trkpt>
<trkpt lat="53.348184327872964" lon="18.429839375267452">
<ele>110</ele>
<time>2016-06-19T20:05:51Z</time>
</trkpt>
<trkpt lat="53.348190332324684" lon="18.4299170230439">
<ele>111</ele>
<time>2016-06-19T20:05:53Z</time>
</trkpt>
<trkpt lat="53.34819014101142" lon="18.430006249927544">
<ele>111</ele>
<time>2016-06-19T20:05:55Z</time>
</trkpt>
<trkpt lat="53.34819055982821" lon="18.43010241472913">
<ele>113</ele>
<time>2016-06-19T20:05:57Z</time>
</trkpt>
<trkpt lat="53.348194695445294" lon="18.430188568005615">
<ele>113</ele>
<time>2016-06-19T20:05:59Z</time>
</trkpt>
<trkpt lat="53.34821975266542" lon="18.430287674678002">
<ele>113</ele>
<time>2016-06-19T20:06:01Z</time>
</trkpt>
<trkpt lat="53.34825335036207" lon="18.4304123131115">
<ele>113</ele>
<time>2016-06-19T20:06:03Z</time>
</trkpt>
<trkpt lat="53.34826911544574" lon="18.430540503397157">
<ele>112</ele>
<time>2016-06-19T20:06:05Z</time>
</trkpt>
<trkpt lat="53.34826836900867" lon="18.43062902301633">
<ele>112</ele>
<time>2016-06-19T20:06:07Z</time>
</trkpt>
<trkpt lat="53.348262833545405" lon="18.430704906938896">
<ele>112</ele>
<time>2016-06-19T20:06:09Z</time>
</trkpt>
<trkpt lat="53.34825401869151" lon="18.43078457505886">
<ele>112</ele>
<time>2016-06-19T20:06:11Z</time>
</trkpt>
<trkpt lat="53.34825548463406" lon="18.4308844277971">
<ele>111</ele>
<time>2016-06-19T20:06:13Z</time>
</trkpt>
<trkpt lat="53.34827271125519" lon="18.430986909889988">
<ele>111</ele>
<time>2016-06-19T20:06:15Z</time>
</trkpt>
<trkpt lat="53.348276944390946" lon="18.431077116745566">
<ele>110</ele>
<time>2016-06-19T20:06:17Z</time>
</trkpt>
<trkpt lat="53.348277020951826" lon="18.431206008521407">
<ele>107</ele>
<time>2016-06-19T20:06:19Z</time>
</trkpt>
<trkpt lat="53.34829040981467" lon="18.431313943955157">
<ele>107</ele>
<time>2016-06-19T20:06:21Z</time>
</trkpt>
<trkpt lat="53.34830024517915" lon="18.431407537411374">
<ele>108</ele>
<time>2016-06-19T20:06:23Z</time>
</trkpt>
<trkpt lat="53.348274104417385" lon="18.431486159343766">
<ele>108</ele>
<time>2016-06-19T20:06:25Z</time>
</trkpt>
<trkpt lat="53.348248227035356" lon="18.431563588913146">
<ele>109</ele>
<time>2016-06-19T20:06:27Z</time>
</trkpt>
<trkpt lat="53.34827964995405" lon="18.431675950899038">
<ele>110</ele>
<time>2016-06-19T20:06:29Z</time>
</trkpt>
<trkpt lat="53.348310725771285" lon="18.431810860531478">
<ele>108</ele>
<time>2016-06-19T20:06:31Z</time>
</trkpt>
<trkpt lat="53.34832546508905" lon="18.431924000696057">
<ele>107</ele>
<time>2016-06-19T20:06:33Z</time>
</trkpt>
<trkpt lat="53.34834166513216" lon="18.432023655751035">
<ele>108</ele>
<time>2016-06-19T20:06:35Z</time>
</trkpt>
<trkpt lat="53.34836215120195" lon="18.432127041784916">
<ele>108</ele>
<time>2016-06-19T20:06:37Z</time>
</trkpt>
<trkpt lat="53.34839698691823" lon="18.43224380221637">
<ele>107</ele>
<time>2016-06-19T20:06:39Z</time>
</trkpt>
<trkpt lat="53.34839657530518" lon="18.432346653103526">
<ele>107</ele>
<time>2016-06-19T20:06:41Z</time>
</trkpt>
<trkpt lat="53.348390230494246" lon="18.432433667949134">
<ele>107</ele>
<time>2016-06-19T20:06:43Z</time>
</trkpt>
<trkpt lat="53.34839373023366" lon="18.432507715179028">
<ele>107</ele>
<time>2016-06-19T20:06:45Z</time>
</trkpt>
<trkpt lat="53.34839374402107" lon="18.43259950326039">
<ele>108</ele>
<time>2016-06-19T20:06:47Z</time>
</trkpt>
<trkpt lat="53.348396689794676" lon="18.43270404053069">
<ele>108</ele>
<time>2016-06-19T20:06:49Z</time>
</trkpt>
<trkpt lat="53.34841788297776" lon="18.43278881143679">
<ele>107</ele>
<time>2016-06-19T20:06:51Z</time>
</trkpt>
<trkpt lat="53.348428118705165" lon="18.43286749288309">
<ele>107</ele>
<time>2016-06-19T20:06:53Z</time>
</trkpt>
<trkpt lat="53.348432029526904" lon="18.432962883885377">
<ele>106</ele>
<time>2016-06-19T20:06:55Z</time>
</trkpt>
<trkpt lat="53.34844251598682" lon="18.43307116516321">
<ele>107</ele>
<time>2016-06-19T20:06:57Z</time>
</trkpt>
<trkpt lat="53.34847911919173" lon="18.43318611173985">
<ele>108</ele>
<time>2016-06-19T20:06:59Z</time>
</trkpt>
<trkpt lat="53.34850597112337" lon="18.433325458108175">
<ele>109</ele>
<time>2016-06-19T20:07:01Z</time>
</trkpt>
<trkpt lat="53.34849932161743" lon="18.433448252333886">
<ele>110</ele>
<time>2016-06-19T20:07:03Z</time>
</trkpt>
<trkpt lat="53.348479900453334" lon="18.433553796214404">
<ele>110</ele>
<time>2016-06-19T20:07:05Z</time>
</trkpt>
<trkpt lat="53.34849981495484" lon="18.433675588565553">
<ele>109</ele>
<time>2016-06-19T20:07:07Z</time>
</trkpt>
<trkpt lat="53.34853762480542" lon="18.433799352227933">
<ele>109</ele>
<time>2016-06-19T20:07:09Z</time>
</trkpt>
<trkpt lat="53.34857171256188" lon="18.43391541631223">
<ele>110</ele>
<time>2016-06-19T20:07:11Z</time>
</trkpt>
<trkpt lat="53.34858160718047" lon="18.434022056454562">
<ele>109</ele>
<time>2016-06-19T20:07:13Z</time>
</trkpt>
<trkpt lat="53.348598481041975" lon="18.43411333260066">
<ele>106</ele>
<time>2016-06-19T20:07:15Z</time>
</trkpt>
<trkpt lat="53.348606701436836" lon="18.43420671368318">
<ele>105</ele>
<time>2016-06-19T20:07:17Z</time>
</trkpt>
<trkpt lat="53.34862228320844" lon="18.43428135751526">
<ele>105</ele>
<time>2016-06-19T20:07:19Z</time>
</trkpt>
<trkpt lat="53.348638896636736" lon="18.434361258166017">
<ele>106</ele>
<time>2016-06-19T20:07:21Z</time>
</trkpt>
<trkpt lat="53.34864551692836" lon="18.43445603948371">
<ele>108</ele>
<time>2016-06-19T20:07:23Z</time>
</trkpt>
<trkpt lat="53.34862985081622" lon="18.434540370354927">
<ele>109</ele>
<time>2016-06-19T20:07:25Z</time>
</trkpt>
<trkpt lat="53.34862179593071" lon="18.434610812452192">
<ele>109</ele>
<time>2016-06-19T20:07:27Z</time>
</trkpt>
<trkpt lat="53.34861349366369" lon="18.43469884596193">
<ele>110</ele>
<time>2016-06-19T20:07:29Z</time>
</trkpt>
<trkpt lat="53.34860667891079" lon="18.434774484406358">
<ele>110</ele>
<time>2016-06-19T20:07:31Z</time>
</trkpt>
<trkpt lat="53.348598878765294" lon="18.434864501400142">
<ele>111</ele>
<time>2016-06-19T20:07:33Z</time>
</trkpt>
<trkpt lat="53.34862085765204" lon="18.43495030014367">
<ele>110</ele>
<time>2016-06-19T20:07:35Z</time>
</trkpt>
<trkpt lat="53.34861672751602" lon="18.435022757385592">
<ele>110</ele>
<time>2016-06-19T20:07:37Z</time>
</trkpt>
<trkpt lat="53.34861820685085" lon="18.435136056259104">
<ele>109</ele>
<time>2016-06-19T20:07:39Z</time>
</trkpt>
<trkpt lat="53.348656922838764" lon="18.43525361317302">
<ele>107</ele>
<time>2016-06-19T20:07:41Z</time>
</trkpt>
<trkpt lat="53.348701286751805" lon="18.435376859167206">
<ele>105</ele>
<time>2016-06-19T20:07:43Z</time>
</trkpt>
<trkpt lat="53.34874927192185" lon="18.435519730137248">
<ele>101</ele>
<time>2016-06-19T20:07:45Z</time>
</trkpt>
<trkpt lat="53.34879915780822" lon="18.43565386276735">
<ele>102</ele>
<time>2016-06-19T20:07:47Z</time>
</trkpt>
<trkpt lat="53.34882352961203" lon="18.435754300164906">
<ele>103</ele>
<time>2016-06-19T20:07:49Z</time>
</trkpt>
<trkpt lat="53.34883273965059" lon="18.435835393439568">
<ele>103</ele>
<time>2016-06-19T20:07:51Z</time>
</trkpt>
<trkpt lat="53.3488342329671" lon="18.435921198200695">
<ele>103</ele>
<time>2016-06-19T20:07:53Z</time>
</trkpt>
<trkpt lat="53.348823457756374" lon="18.43600089378515">
<ele>101</ele>
<time>2016-06-19T20:07:55Z</time>
</trkpt>
<trkpt lat="53.34879639143674" lon="18.436027122751554">
<ele>100</ele>
<time>2016-06-19T20:07:57Z</time>
</trkpt>
<trkpt lat="53.34878487551826" lon="18.43605935303803">
<ele>98</ele>
<time>2016-06-19T20:07:59Z</time>
</trkpt>
<trkpt lat="53.34876173732257" lon="18.436107467292704">
<ele>98</ele>
<time>2016-06-19T20:08:01Z</time>
</trkpt>
<trkpt lat="53.34872644239822" lon="18.436178430596065">
<ele>100</ele>
<time>2016-06-19T20:08:03Z</time>
</trkpt>
<trkpt lat="53.34868272740626" lon="18.43620595440284">
<ele>100</ele>
<time>2016-06-19T20:08:05Z</time>
</trkpt>
<trkpt lat="53.348640154622515" lon="18.436222080735924">
<ele>101</ele>
<time>2016-06-19T20:08:07Z</time>
</trkpt>
<trkpt lat="53.348599627998546" lon="18.436234739529706">
<ele>103</ele>
<time>2016-06-19T20:08:09Z</time>
</trkpt>
<trkpt lat="53.34856222498647" lon="18.43621987558819">
<ele>103</ele>
<time>2016-06-19T20:08:11Z</time>
</trkpt>
<trkpt lat="53.34851556762638" lon="18.436193112416237">
<ele>103</ele>
<time>2016-06-19T20:08:13Z</time>
</trkpt>
<trkpt lat="53.348466932989794" lon="18.43617169594369">
<ele>103</ele>
<time>2016-06-19T20:08:15Z</time>
</trkpt>
<trkpt lat="53.34842495997692" lon="18.436130782614395">
<ele>104</ele>
<time>2016-06-19T20:08:17Z</time>
</trkpt>
<trkpt lat="53.34839078278604" lon="18.43609308823994">
<ele>105</ele>
<time>2016-06-19T20:08:19Z</time>
</trkpt>
<trkpt lat="53.34834934546394" lon="18.43607234979515">
<ele>105</ele>
<time>2016-06-19T20:08:21Z</time>
</trkpt>
<trkpt lat="53.348313419673644" lon="18.4360593341668">
<ele>106</ele>
<time>2016-06-19T20:08:23Z</time>
</trkpt>
<trkpt lat="53.34829173602562" lon="18.436037819174256">
<ele>106</ele>
<time>2016-06-19T20:08:25Z</time>
</trkpt>
<trkpt lat="53.34826514351992" lon="18.43602538996166">
<ele>107</ele>
<time>2016-06-19T20:08:27Z</time>
</trkpt>
<trkpt lat="53.348217708380965" lon="18.43601196145719">
<ele>107</ele>
<time>2016-06-19T20:08:29Z</time>
</trkpt>
<trkpt lat="53.3481569719506" lon="18.435975588093182">
<ele>109</ele>
<time>2016-06-19T20:08:31Z</time>
</trkpt>
<trkpt lat="53.3480973634527" lon="18.435935176404087">
<ele>110</ele>
<time>2016-06-19T20:08:33Z</time>
</trkpt>
<trkpt lat="53.34804966833768" lon="18.43590748634873">
<ele>110</ele>
<time>2016-06-19T20:08:35Z</time>
</trkpt>
<trkpt lat="53.34802161721236" lon="18.435888002995554">
<ele>111</ele>
<time>2016-06-19T20:08:37Z</time>
</trkpt>
<trkpt lat="53.348002104155036" lon="18.435873433303176">
<ele>111</ele>
<time>2016-06-19T20:08:39Z</time>
</trkpt>
<trkpt lat="53.34798035320088" lon="18.43585898930308">
<ele>112</ele>
<time>2016-06-19T20:08:41Z</time>
</trkpt>
<trkpt lat="53.34798035320088" lon="18.43585898930308">
<ele>112</ele>
<time>2016-06-19T20:08:43Z</time>
</trkpt>
<trkpt lat="53.34798035320088" lon="18.43585898930308">
<ele>112</ele>
<time>2016-06-19T20:08:45Z</time>
</trkpt>
<trkpt lat="53.34798035320088" lon="18.43585898930308">
<ele>112</ele>
<time>2016-06-19T20:08:47Z</time>
</trkpt>
<trkpt lat="53.34798035320088" lon="18.43585898930308">
<ele>112</ele>
<time>2016-06-19T20:08:49Z</time>
</trkpt>
<trkpt lat="53.34798035320088" lon="18.43585898930308">
<ele>112</ele>
<time>2016-06-19T20:08:51Z</time>
</trkpt>
<trkpt lat="53.34798035320088" lon="18.43585898930308">
<ele>112</ele>
<time>2016-06-19T20:08:53Z</time>
</trkpt>
<trkpt lat="53.34798035320088" lon="18.43585898930308">
<ele>112</ele>
<time>2016-06-19T20:08:55Z</time>
</trkpt>
<trkpt lat="53.34798035320088" lon="18.43585898930308">
<ele>112</ele>
<time>2016-06-19T20:08:57Z</time>
</trkpt>
<trkpt lat="53.34798035320088" lon="18.43585898930308">
<ele>112</ele>
<time>2016-06-19T20:08:59Z</time>
</trkpt>
<trkpt lat="53.34798035320088" lon="18.43585898930308">
<ele>112</ele>
<time>2016-06-19T20:09:01Z</time>
</trkpt>
<trkpt lat="53.34797494668617" lon="18.43589044626306">
<ele>112</ele>
<time>2016-06-19T20:09:03Z</time>
</trkpt>
<trkpt lat="53.34796597481841" lon="18.435929038667147">
<ele>111</ele>
<time>2016-06-19T20:09:05Z</time>
</trkpt>
<trkpt lat="53.34795094348394" lon="18.435974808530833">
<ele>112</ele>
<time>2016-06-19T20:09:07Z</time>
</trkpt>
<trkpt lat="53.347944681753894" lon="18.436019136420654">
<ele>112</ele>
<time>2016-06-19T20:09:09Z</time>
</trkpt>
<trkpt lat="53.34793688840442" lon="18.43604520785211">
<ele>112</ele>
<time>2016-06-19T20:09:11Z</time>
</trkpt>
<trkpt lat="53.34791914178715" lon="18.43607009079534">
<ele>110</ele>
<time>2016-06-19T20:09:13Z</time>
</trkpt>
<trkpt lat="53.34791914178715" lon="18.43607009079534">
<ele>110</ele>
<time>2016-06-19T20:09:15Z</time>
</trkpt>
<trkpt lat="53.34791914178715" lon="18.43607009079534">
<ele>110</ele>
<time>2016-06-19T20:09:17Z</time>
</trkpt>
<trkpt lat="53.347904264919" lon="18.43611009730112">
<ele>110</ele>
<time>2016-06-19T20:09:19Z</time>
</trkpt>
<trkpt lat="53.347886680569786" lon="18.436127216270997">
<ele>111</ele>
<time>2016-06-19T20:09:21Z</time>
</trkpt>
<trkpt lat="53.34787864297358" lon="18.436166507571688">
<ele>111</ele>
<time>2016-06-19T20:09:23Z</time>
</trkpt>
<trkpt lat="53.34786554984089" lon="18.436197061799966">
<ele>110</ele>
<time>2016-06-19T20:09:25Z</time>
</trkpt>
<trkpt lat="53.347864864860846" lon="18.436227719463144">
<ele>109</ele>
<time>2016-06-19T20:09:27Z</time>
</trkpt>
<trkpt lat="53.347866885035074" lon="18.436241922496997">
<ele>109</ele>
<time>2016-06-19T20:09:29Z</time>
</trkpt>
<trkpt lat="53.347866885035074" lon="18.436241922496997">
<ele>109</ele>
<time>2016-06-19T20:09:31Z</time>
</trkpt>
<trkpt lat="53.347866885035074" lon="18.436241922496997">
<ele>109</ele>
<time>2016-06-19T20:09:33Z</time>
</trkpt>
<trkpt lat="53.347866885035074" lon="18.436241922496997">
<ele>109</ele>
<time>2016-06-19T20:09:35Z</time>
</trkpt>
<trkpt lat="53.347866885035074" lon="18.436241922496997">
<ele>109</ele>
<time>2016-06-19T20:09:37Z</time>
</trkpt>
<trkpt lat="53.347866885035074" lon="18.436241922496997">
<ele>109</ele>
<time>2016-06-19T20:09:39Z</time>
</trkpt>
<trkpt lat="53.347866885035074" lon="18.436241922496997">
<ele>109</ele>
<time>2016-06-19T20:09:41Z</time>
</trkpt>
<trkpt lat="53.347866885035074" lon="18.436241922496997">
<ele>109</ele>
<time>2016-06-19T20:09:43Z</time>
</trkpt>
<trkpt lat="53.347866885035074" lon="18.436241922496997">
<ele>109</ele>
<time>2016-06-19T20:09:45Z</time>
</trkpt>
<trkpt lat="53.347866885035074" lon="18.436241922496997">
<ele>109</ele>
<time>2016-06-19T20:09:47Z</time>
</trkpt>
<trkpt lat="53.347866885035074" lon="18.436241922496997">
<ele>109</ele>
<time>2016-06-19T20:09:49Z</time>
</trkpt>
<trkpt lat="53.347866885035074" lon="18.436241922496997">
<ele>109</ele>
<time>2016-06-19T20:09:51Z</time>
</trkpt>
<trkpt lat="53.347866885035074" lon="18.436241922496997">
<ele>109</ele>
<time>2016-06-19T20:09:53Z</time>
</trkpt>
<trkpt lat="53.347866885035074" lon="18.436241922496997">
<ele>109</ele>
<time>2016-06-19T20:09:55Z</time>
</trkpt>
<trkpt lat="53.347866885035074" lon="18.436241922496997">
<ele>109</ele>
<time>2016-06-19T20:09:57Z</time>
</trkpt>
<trkpt lat="53.347866885035074" lon="18.436241922496997">
<ele>109</ele>
<time>2016-06-19T20:09:59Z</time>
</trkpt>
<trkpt lat="53.347866885035074" lon="18.436241922496997">
<ele>109</ele>
<time>2016-06-19T20:10:01Z</time>
</trkpt>
<trkpt lat="53.347866885035074" lon="18.436241922496997">
<ele>109</ele>
<time>2016-06-19T20:10:03Z</time>
</trkpt>
<trkpt lat="53.347866885035074" lon="18.436241922496997">
<ele>109</ele>
<time>2016-06-19T20:10:05Z</time>
</trkpt>
<trkpt lat="53.347866885035074" lon="18.436241922496997">
<ele>109</ele>
<time>2016-06-19T20:10:07Z</time>
</trkpt>
<trkpt lat="53.347866885035074" lon="18.436241922496997">
<ele>109</ele>
<time>2016-06-19T20:10:09Z</time>
</trkpt>
<trkpt lat="53.347866885035074" lon="18.436241922496997">
<ele>109</ele>
<time>2016-06-19T20:10:11Z</time>
</trkpt>
<trkpt lat="53.347866885035074" lon="18.436241922496997">
<ele>109</ele>
<time>2016-06-19T20:10:13Z</time>
</trkpt>
<trkpt lat="53.347866885035074" lon="18.436241922496997">
<ele>109</ele>
<time>2016-06-19T20:10:15Z</time>
</trkpt>
<trkpt lat="53.347866885035074" lon="18.436241922496997">
<ele>109</ele>
<time>2016-06-19T20:10:17Z</time>
</trkpt>
<trkpt lat="53.347866885035074" lon="18.436241922496997">
<ele>109</ele>
<time>2016-06-19T20:10:19Z</time>
</trkpt>
<trkpt lat="53.347866885035074" lon="18.436241922496997">
<ele>109</ele>
<time>2016-06-19T20:10:21Z</time>
</trkpt>
<trkpt lat="53.347866885035074" lon="18.436241922496997">
<ele>109</ele>
<time>2016-06-19T20:10:23Z</time>
</trkpt>
<trkpt lat="53.347866885035074" lon="18.436241922496997">
<ele>109</ele>
<time>2016-06-19T20:10:25Z</time>
</trkpt>
<trkpt lat="53.347866885035074" lon="18.436241922496997">
<ele>109</ele>
<time>2016-06-19T20:10:27Z</time>
</trkpt>
<trkpt lat="53.347866885035074" lon="18.436241922496997">
<ele>109</ele>
<time>2016-06-19T20:10:29Z</time>
</trkpt>
<trkpt lat="53.347866885035074" lon="18.436241922496997">
<ele>109</ele>
<time>2016-06-19T20:10:31Z</time>
</trkpt>
<trkpt lat="53.347866885035074" lon="18.436241922496997">
<ele>109</ele>
<time>2016-06-19T20:10:33Z</time>
</trkpt>
<trkpt lat="53.347866885035074" lon="18.436241922496997">
<ele>109</ele>
<time>2016-06-19T20:10:35Z</time>
</trkpt>
<trkpt lat="53.347866885035074" lon="18.436241922496997">
<ele>109</ele>
<time>2016-06-19T20:10:37Z</time>
</trkpt>
<trkpt lat="53.347866885035074" lon="18.436241922496997">
<ele>109</ele>
<time>2016-06-19T20:10:39Z</time>
</trkpt>
<trkpt lat="53.347866885035074" lon="18.436241922496997">
<ele>109</ele>
<time>2016-06-19T20:10:41Z</time>
</trkpt>
<trkpt lat="53.347866885035074" lon="18.436241922496997">
<ele>109</ele>
<time>2016-06-19T20:10:43Z</time>
</trkpt>
<trkpt lat="53.347866885035074" lon="18.436241922496997">
<ele>109</ele>
<time>2016-06-19T20:10:45Z</time>
</trkpt>
<trkpt lat="53.347866885035074" lon="18.436241922496997">
<ele>109</ele>
<time>2016-06-19T20:10:47Z</time>
</trkpt>
<trkpt lat="53.347866885035074" lon="18.436241922496997">
<ele>109</ele>
<time>2016-06-19T20:10:49Z</time>
</trkpt>
<trkpt lat="53.347866885035074" lon="18.436241922496997">
<ele>109</ele>
<time>2016-06-19T20:10:51Z</time>
</trkpt>
<trkpt lat="53.347866885035074" lon="18.436241922496997">
<ele>109</ele>
<time>2016-06-19T20:10:53Z</time>
</trkpt>
<trkpt lat="53.347866885035074" lon="18.436241922496997">
<ele>109</ele>
<time>2016-06-19T20:10:55Z</time>
</trkpt>
<trkpt lat="53.347866885035074" lon="18.436241922496997">
<ele>109</ele>
<time>2016-06-19T20:10:57Z</time>
</trkpt>
<trkpt lat="53.347866885035074" lon="18.436241922496997">
<ele>109</ele>
<time>2016-06-19T20:10:59Z</time>
</trkpt>
<trkpt lat="53.347866885035074" lon="18.436241922496997">
<ele>109</ele>
<time>2016-06-19T20:11:01Z</time>
</trkpt>
<trkpt lat="53.347866885035074" lon="18.436241922496997">
<ele>109</ele>
<time>2016-06-19T20:11:03Z</time>
</trkpt>
<trkpt lat="53.347866885035074" lon="18.436241922496997">
<ele>109</ele>
<time>2016-06-19T20:11:05Z</time>
</trkpt>
<trkpt lat="53.347866885035074" lon="18.436241922496997">
<ele>109</ele>
<time>2016-06-19T20:11:07Z</time>
</trkpt>
<trkpt lat="53.347866885035074" lon="18.436241922496997">
<ele>109</ele>
<time>2016-06-19T20:11:09Z</time>
</trkpt>
<trkpt lat="53.347866885035074" lon="18.436241922496997">
<ele>109</ele>
<time>2016-06-19T20:11:11Z</time>
</trkpt>
<trkpt lat="53.347866885035074" lon="18.436241922496997">
<ele>109</ele>
<time>2016-06-19T20:11:13Z</time>
</trkpt>
<trkpt lat="53.347866885035074" lon="18.436241922496997">
<ele>109</ele>
<time>2016-06-19T20:11:15Z</time>
</trkpt>
<trkpt lat="53.347866885035074" lon="18.436241922496997">
<ele>109</ele>
<time>2016-06-19T20:11:17Z</time>
</trkpt>
<trkpt lat="53.347866885035074" lon="18.436241922496997">
<ele>109</ele>
<time>2016-06-19T20:11:19Z</time>
</trkpt>
<trkpt lat="53.347866885035074" lon="18.436241922496997">
<ele>109</ele>
<time>2016-06-19T20:11:21Z</time>
</trkpt>
<trkpt lat="53.347866885035074" lon="18.436241922496997">
<ele>109</ele>
<time>2016-06-19T20:11:23Z</time>
</trkpt>
<trkpt lat="53.347866885035074" lon="18.436241922496997">
<ele>109</ele>
<time>2016-06-19T20:11:25Z</time>
</trkpt>
<trkpt lat="53.347866885035074" lon="18.436241922496997">
<ele>109</ele>
<time>2016-06-19T20:11:27Z</time>
</trkpt>
<trkpt lat="53.347866885035074" lon="18.436241922496997">
<ele>109</ele>
<time>2016-06-19T20:11:29Z</time>
</trkpt>
<trkpt lat="53.347866885035074" lon="18.436241922496997">
<ele>109</ele>
<time>2016-06-19T20:11:31Z</time>
</trkpt>
<trkpt lat="53.347866885035074" lon="18.436241922496997">
<ele>109</ele>
<time>2016-06-19T20:11:33Z</time>
</trkpt>
<trkpt lat="53.347866885035074" lon="18.436241922496997">
<ele>109</ele>
<time>2016-06-19T20:11:35Z</time>
</trkpt>
<trkpt lat="53.347866885035074" lon="18.436241922496997">
<ele>109</ele>
<time>2016-06-19T20:11:37Z</time>
</trkpt>
<trkpt lat="53.347866885035074" lon="18.436241922496997">
<ele>109</ele>
<time>2016-06-19T20:11:39Z</time>
</trkpt>
<trkpt lat="53.347866885035074" lon="18.436241922496997">
<ele>109</ele>
<time>2016-06-19T20:11:41Z</time>
</trkpt>
<trkpt lat="53.347866885035074" lon="18.436241922496997">
<ele>109</ele>
<time>2016-06-19T20:11:43Z</time>
</trkpt>
<trkpt lat="53.347866885035074" lon="18.436241922496997">
<ele>109</ele>
<time>2016-06-19T20:11:45Z</time>
</trkpt>
<trkpt lat="53.347866885035074" lon="18.436241922496997">
<ele>109</ele>
<time>2016-06-19T20:11:47Z</time>
</trkpt>
<trkpt lat="53.347866885035074" lon="18.436241922496997">
<ele>109</ele>
<time>2016-06-19T20:11:49Z</time>
</trkpt>
<trkpt lat="53.347866885035074" lon="18.436241922496997">
<ele>109</ele>
<time>2016-06-19T20:11:51Z</time>
</trkpt>
<trkpt lat="53.347866885035074" lon="18.436241922496997">
<ele>109</ele>
<time>2016-06-19T20:11:53Z</time>
</trkpt>
<trkpt lat="53.347866885035074" lon="18.436241922496997">
<ele>109</ele>
<time>2016-06-19T20:11:55Z</time>
</trkpt>
<trkpt lat="53.347866885035074" lon="18.436241922496997">
<ele>109</ele>
<time>2016-06-19T20:11:57Z</time>
</trkpt>
<trkpt lat="53.347866885035074" lon="18.436241922496997">
<ele>109</ele>
<time>2016-06-19T20:11:59Z</time>
</trkpt>
<trkpt lat="53.347866885035074" lon="18.436241922496997">
<ele>109</ele>
<time>2016-06-19T20:12:01Z</time>
</trkpt>
<trkpt lat="53.347866885035074" lon="18.436241922496997">
<ele>109</ele>
<time>2016-06-19T20:12:03Z</time>
</trkpt>
<trkpt lat="53.347866885035074" lon="18.436241922496997">
<ele>109</ele>
<time>2016-06-19T20:12:05Z</time>
</trkpt>
<trkpt lat="53.347866885035074" lon="18.436241922496997">
<ele>109</ele>
<time>2016-06-19T20:12:07Z</time>
</trkpt>
<trkpt lat="53.347866885035074" lon="18.436241922496997">
<ele>109</ele>
<time>2016-06-19T20:12:09Z</time>
</trkpt>
<trkpt lat="53.34786875463476" lon="18.436234645154247">
<ele>109</ele>
<time>2016-06-19T20:12:11Z</time>
</trkpt>
<trkpt lat="53.347871762151904" lon="18.436208709127293">
<ele>109</ele>
<time>2016-06-19T20:12:13Z</time>
</trkpt>
<trkpt lat="53.347884199575695" lon="18.436167423115798">
<ele>108</ele>
<time>2016-06-19T20:12:15Z</time>
</trkpt>
<trkpt lat="53.34789310622067" lon="18.436136421809657">
<ele>108</ele>
<time>2016-06-19T20:12:17Z</time>
</trkpt>
<trkpt lat="53.34788357691921" lon="18.436129346812372">
<ele>108</ele>
<time>2016-06-19T20:12:19Z</time>
</trkpt>
<trkpt lat="53.347891871356204" lon="18.43608953089165">
<ele>108</ele>
<time>2016-06-19T20:12:21Z</time>
</trkpt>
<trkpt lat="53.34789321258863" lon="18.436065540493267">
<ele>108</ele>
<time>2016-06-19T20:12:23Z</time>
</trkpt>
<trkpt lat="53.34790419089404" lon="18.436040346583606">
<ele>108</ele>
<time>2016-06-19T20:12:25Z</time>
</trkpt>
<trkpt lat="53.34791438405161" lon="18.435993523350874">
<ele>108</ele>
<time>2016-06-19T20:12:27Z</time>
</trkpt>
<trkpt lat="53.34791737992903" lon="18.43596570751705">
<ele>107</ele>
<time>2016-06-19T20:12:29Z</time>
</trkpt>
<trkpt lat="53.3479249798285" lon="18.435923101613238">
<ele>107</ele>
<time>2016-06-19T20:12:31Z</time>
</trkpt>
<trkpt lat="53.34793027083795" lon="18.435900569970418">
<ele>106</ele>
<time>2016-06-19T20:12:33Z</time>
</trkpt>
<trkpt lat="53.347926537460175" lon="18.435896914567543">
<ele>106</ele>
<time>2016-06-19T20:12:35Z</time>
</trkpt>
<trkpt lat="53.347926537460175" lon="18.435896914567543">
<ele>106</ele>
<time>2016-06-19T20:12:37Z</time>
</trkpt>
<trkpt lat="53.347926537460175" lon="18.435896914567543">
<ele>106</ele>
<time>2016-06-19T20:12:39Z</time>
</trkpt>
<trkpt lat="53.347926537460175" lon="18.435896914567543">
<ele>106</ele>
<time>2016-06-19T20:12:41Z</time>
</trkpt>
<trkpt lat="53.347932140066504" lon="18.435894679487888">
<ele>105</ele>
<time>2016-06-19T20:12:43Z</time>
</trkpt>
<trkpt lat="53.347932197194396" lon="18.435898934776972">
<ele>105</ele>
<time>2016-06-19T20:12:45Z</time>
</trkpt>
<trkpt lat="53.347932197194396" lon="18.435898934776972">
<ele>105</ele>
<time>2016-06-19T20:12:47Z</time>
</trkpt>
<trkpt lat="53.347932197194396" lon="18.435898934776972">
<ele>105</ele>
<time>2016-06-19T20:12:49Z</time>
</trkpt>
<trkpt lat="53.347932197194396" lon="18.435898934776972">
<ele>105</ele>
<time>2016-06-19T20:12:51Z</time>
</trkpt>
<trkpt lat="53.347932197194396" lon="18.435898934776972">
<ele>105</ele>
<time>2016-06-19T20:12:53Z</time>
</trkpt>
<trkpt lat="53.347932197194396" lon="18.435898934776972">
<ele>105</ele>
<time>2016-06-19T20:12:55Z</time>
</trkpt>
<trkpt lat="53.347932197194396" lon="18.435898934776972">
<ele>105</ele>
<time>2016-06-19T20:12:57Z</time>
</trkpt>
<trkpt lat="53.34794244550711" lon="18.43590211489733">
<ele>105</ele>
<time>2016-06-19T20:12:59Z</time>
</trkpt>
<trkpt lat="53.34795786551127" lon="18.435919192246356">
<ele>105</ele>
<time>2016-06-19T20:13:01Z</time>
</trkpt>
<trkpt lat="53.34796373811413" lon="18.43592602568163">
<ele>105</ele>
<time>2016-06-19T20:13:03Z</time>
</trkpt>
<trkpt lat="53.347975298732" lon="18.43591151024068">
<ele>105</ele>
<time>2016-06-19T20:13:05Z</time>
</trkpt>
<trkpt lat="53.34798652278115" lon="18.43590099352218">
<ele>106</ele>
<time>2016-06-19T20:13:07Z</time>
</trkpt>
<trkpt lat="53.34800155278084" lon="18.43590509568363">
<ele>106</ele>
<time>2016-06-19T20:13:09Z</time>
</trkpt>
<trkpt lat="53.348024506787525" lon="18.435909642299595">
<ele>106</ele>
<time>2016-06-19T20:13:11Z</time>
</trkpt>
<trkpt lat="53.348062516590836" lon="18.435920257229824">
<ele>106</ele>
<time>2016-06-19T20:13:13Z</time>
</trkpt>
<trkpt lat="53.34809096542621" lon="18.43593533652004">
<ele>106</ele>
<time>2016-06-19T20:13:15Z</time>
</trkpt>
<trkpt lat="53.348100551187684" lon="18.435941189216788">
<ele>107</ele>
<time>2016-06-19T20:13:17Z</time>
</trkpt>
<trkpt lat="53.34811961788166" lon="18.43593972449354">
<ele>107</ele>
<time>2016-06-19T20:13:19Z</time>
</trkpt>
<trkpt lat="53.34814703038369" lon="18.43596312479741">
<ele>108</ele>
<time>2016-06-19T20:13:21Z</time>
</trkpt>
<trkpt lat="53.34816552917436" lon="18.435967844958036">
<ele>109</ele>
<time>2016-06-19T20:13:23Z</time>
</trkpt>
<trkpt lat="53.34818296839315" lon="18.435961437867334">
<ele>109</ele>
<time>2016-06-19T20:13:25Z</time>
</trkpt>
<trkpt lat="53.348201938204284" lon="18.435972891808113">
<ele>109</ele>
<time>2016-06-19T20:13:27Z</time>
</trkpt>
<trkpt lat="53.34822763638295" lon="18.435994172005618">
<ele>111</ele>
<time>2016-06-19T20:13:29Z</time>
</trkpt>
<trkpt lat="53.34824992151614" lon="18.43601493777315">
<ele>110</ele>
<time>2016-06-19T20:13:31Z</time>
</trkpt>
<trkpt lat="53.348301866200124" lon="18.43608591193487">
<ele>105</ele>
<time>2016-06-19T20:13:33Z</time>
</trkpt>
<trkpt lat="53.34835308861388" lon="18.43613805595202">
<ele>103</ele>
<time>2016-06-19T20:13:35Z</time>
</trkpt>
<trkpt lat="53.34839808905017" lon="18.436177219976727">
<ele>106</ele>
<time>2016-06-19T20:13:37Z</time>
</trkpt>
<trkpt lat="53.348464907862365" lon="18.43624371493975">
<ele>107</ele>
<time>2016-06-19T20:13:39Z</time>
</trkpt>
<trkpt lat="53.348535790304474" lon="18.43628570076046">
<ele>108</ele>
<time>2016-06-19T20:13:41Z</time>
</trkpt>
<trkpt lat="53.34858722854613" lon="18.436332711613005">
<ele>108</ele>
<time>2016-06-19T20:13:43Z</time>
</trkpt>
<trkpt lat="53.34858845226862" lon="18.43633806016292">
<ele>113</ele>
<time>2016-06-19T20:13:45Z</time>
</trkpt>
<trkpt lat="53.348591667182454" lon="18.43630650188442">
<ele>118</ele>
<time>2016-06-19T20:13:47Z</time>
</trkpt>
<trkpt lat="53.34861873210644" lon="18.436282831355783">
<ele>122</ele>
<time>2016-06-19T20:13:49Z</time>
</trkpt>
<trkpt lat="53.348661493764325" lon="18.43626875804196">
<ele>123</ele>
<time>2016-06-19T20:13:51Z</time>
</trkpt>
<trkpt lat="53.3487195435284" lon="18.43625130732585">
<ele>124</ele>
<time>2016-06-19T20:13:53Z</time>
</trkpt>
<trkpt lat="53.348785845907535" lon="18.436257245073016">
<ele>124</ele>
<time>2016-06-19T20:13:55Z</time>
</trkpt>
<trkpt lat="53.34884877059995" lon="18.436294345181754">
<ele>125</ele>
<time>2016-06-19T20:13:57Z</time>
</trkpt>
<trkpt lat="53.34891553788473" lon="18.436329904114334">
<ele>125</ele>
<time>2016-06-19T20:13:59Z</time>
</trkpt>
<trkpt lat="53.34896799426074" lon="18.436373810658953">
<ele>126</ele>
<time>2016-06-19T20:14:01Z</time>
</trkpt>
<trkpt lat="53.34902970792248" lon="18.436412634904194">
<ele>126</ele>
<time>2016-06-19T20:14:03Z</time>
</trkpt>
<trkpt lat="53.34907624392323" lon="18.43642434652414">
<ele>126</ele>
<time>2016-06-19T20:14:05Z</time>
</trkpt>
<trkpt lat="53.34910403450101" lon="18.436460348194228">
<ele>127</ele>
<time>2016-06-19T20:14:07Z</time>
</trkpt>
<trkpt lat="53.34914364311645" lon="18.43648966231854">
<ele>128</ele>
<time>2016-06-19T20:14:09Z</time>
</trkpt>
<trkpt lat="53.34917452176421" lon="18.43651953967784">
<ele>128</ele>
<time>2016-06-19T20:14:11Z</time>
</trkpt>
<trkpt lat="53.34921891016678" lon="18.43656091715015">
<ele>127</ele>
<time>2016-06-19T20:14:13Z</time>
</trkpt>
<trkpt lat="53.3492631371676" lon="18.436591371961967">
<ele>126</ele>
<time>2016-06-19T20:14:15Z</time>
</trkpt>
<trkpt lat="53.3493107194795" lon="18.43665920059846">
<ele>123</ele>
<time>2016-06-19T20:14:17Z</time>
</trkpt>
<trkpt lat="53.34933543986934" lon="18.43674331064073">
<ele>122</ele>
<time>2016-06-19T20:14:19Z</time>
</trkpt>
<trkpt lat="53.349347567124866" lon="18.43684500470692">
<ele>121</ele>
<time>2016-06-19T20:14:21Z</time>
</trkpt>
<trkpt lat="53.349342026781656" lon="18.43694125036117">
<ele>121</ele>
<time>2016-06-19T20:14:23Z</time>
</trkpt>
<trkpt lat="53.34933812057419" lon="18.437026205997626">
<ele>121</ele>
<time>2016-06-19T20:14:25Z</time>
</trkpt>
<trkpt lat="53.349331244378554" lon="18.437100587729397">
<ele>121</ele>
<time>2016-06-19T20:14:27Z</time>
</trkpt>
<trkpt lat="53.34934619528285" lon="18.43719268120186">
<ele>120</ele>
<time>2016-06-19T20:14:29Z</time>
</trkpt>
<trkpt lat="53.349341008555186" lon="18.437269416400156">
<ele>120</ele>
<time>2016-06-19T20:14:31Z</time>
</trkpt>
<trkpt lat="53.34933141453695" lon="18.43736393164469">
<ele>121</ele>
<time>2016-06-19T20:14:33Z</time>
</trkpt>
<trkpt lat="53.34931262545305" lon="18.437450853506533">
<ele>122</ele>
<time>2016-06-19T20:14:35Z</time>
</trkpt>
<trkpt lat="53.34929164776233" lon="18.437548994212964">
<ele>122</ele>
<time>2016-06-19T20:14:37Z</time>
</trkpt>
<trkpt lat="53.349275960076625" lon="18.437635011619772">
<ele>123</ele>
<time>2016-06-19T20:14:39Z</time>
</trkpt>
<trkpt lat="53.3492680023398" lon="18.43773667791017">
<ele>122</ele>
<time>2016-06-19T20:14:41Z</time>
</trkpt>
<trkpt lat="53.349258696157165" lon="18.437830859297474">
<ele>122</ele>
<time>2016-06-19T20:14:43Z</time>
</trkpt>
<trkpt lat="53.349244964824" lon="18.43787818970687">
<ele>121</ele>
<time>2016-06-19T20:14:45Z</time>
</trkpt>
<trkpt lat="53.349237593892596" lon="18.437943154177294">
<ele>122</ele>
<time>2016-06-19T20:14:47Z</time>
</trkpt>
<trkpt lat="53.34921360956016" lon="18.43799339510623">
<ele>122</ele>
<time>2016-06-19T20:14:49Z</time>
</trkpt>
<trkpt lat="53.34918507180589" lon="18.43806154547689">
<ele>122</ele>
<time>2016-06-19T20:14:51Z</time>
</trkpt>
<trkpt lat="53.34915790425143" lon="18.438145234685177">
<ele>122</ele>
<time>2016-06-19T20:14:53Z</time>
</trkpt>
<trkpt lat="53.34913719468852" lon="18.438221100803183">
<ele>121</ele>
<time>2016-06-19T20:14:55Z</time>
</trkpt>
<trkpt lat="53.349117536714836" lon="18.43829591163559">
<ele>120</ele>
<time>2016-06-19T20:14:57Z</time>
</trkpt>
<trkpt lat="53.34909397698035" lon="18.43837475795691">
<ele>119</ele>
<time>2016-06-19T20:14:59Z</time>
</trkpt>
<trkpt lat="53.34906651635" lon="18.43845698652863">
<ele>119</ele>
<time>2016-06-19T20:15:01Z</time>
</trkpt>
<trkpt lat="53.349038476832256" lon="18.43853057383788">
<ele>118</ele>
<time>2016-06-19T20:15:03Z</time>
</trkpt>
<trkpt lat="53.34901599694467" lon="18.43858692409395">
<ele>118</ele>
<time>2016-06-19T20:15:05Z</time>
</trkpt>
<trkpt lat="53.3490003201465" lon="18.438626592720645">
<ele>117</ele>
<time>2016-06-19T20:15:07Z</time>
</trkpt>
<trkpt lat="53.34896169291224" lon="18.43865004225914">
<ele>118</ele>
<time>2016-06-19T20:15:09Z</time>
</trkpt>
<trkpt lat="53.348947421629376" lon="18.43865583077652">
<ele>117</ele>
<time>2016-06-19T20:15:11Z</time>
</trkpt>
<trkpt lat="53.34893185240088" lon="18.43864595858006">
<ele>117</ele>
<time>2016-06-19T20:15:13Z</time>
</trkpt>
<trkpt lat="53.34892643664477" lon="18.438611767302234">
<ele>118</ele>
<time>2016-06-19T20:15:15Z</time>
</trkpt>
<trkpt lat="53.34892911672087" lon="18.438595923786863">
<ele>118</ele>
<time>2016-06-19T20:15:17Z</time>
</trkpt>
<trkpt lat="53.348942991738326" lon="18.43857741848141">
<ele>118</ele>
<time>2016-06-19T20:15:19Z</time>
</trkpt>
<trkpt lat="53.348944198238584" lon="18.438530764273498">
<ele>118</ele>
<time>2016-06-19T20:15:21Z</time>
</trkpt>
<trkpt lat="53.34894126977261" lon="18.43852114317164">
<ele>117</ele>
<time>2016-06-19T20:15:23Z</time>
</trkpt>
<trkpt lat="53.34894144292902" lon="18.438518749895014">
<ele>117</ele>
<time>2016-06-19T20:15:25Z</time>
</trkpt>
<trkpt lat="53.34894144292902" lon="18.438518749895014">
<ele>117</ele>
<time>2016-06-19T20:15:27Z</time>
</trkpt>
<trkpt lat="53.34894144292902" lon="18.438518749895014">
<ele>117</ele>
<time>2016-06-19T20:15:29Z</time>
</trkpt>
<trkpt lat="53.34894144292902" lon="18.438518749895014">
<ele>117</ele>
<time>2016-06-19T20:15:31Z</time>
</trkpt>
<trkpt lat="53.34894144292902" lon="18.438518749895014">
<ele>117</ele>
<time>2016-06-19T20:15:33Z</time>
</trkpt>
<trkpt lat="53.34894144292902" lon="18.438518749895014">
<ele>117</ele>
<time>2016-06-19T20:15:35Z</time>
</trkpt>
<trkpt lat="53.34894144292902" lon="18.438518749895014">
<ele>117</ele>
<time>2016-06-19T20:15:37Z</time>
</trkpt>
<trkpt lat="53.34894144292902" lon="18.438518749895014">
<ele>117</ele>
<time>2016-06-19T20:15:39Z</time>
</trkpt>
<trkpt lat="53.34894144292902" lon="18.438518749895014">
<ele>117</ele>
<time>2016-06-19T20:15:41Z</time>
</trkpt>
<trkpt lat="53.34894144292902" lon="18.438518749895014">
<ele>117</ele>
<time>2016-06-19T20:15:43Z</time>
</trkpt>
<trkpt lat="53.34894144292902" lon="18.438518749895014">
<ele>117</ele>
<time>2016-06-19T20:15:45Z</time>
</trkpt>
<trkpt lat="53.34894144292902" lon="18.438518749895014">
<ele>117</ele>
<time>2016-06-19T20:15:47Z</time>
</trkpt>
<trkpt lat="53.34894144292902" lon="18.438518749895014">
<ele>117</ele>
<time>2016-06-19T20:15:49Z</time>
</trkpt>
<trkpt lat="53.34894144292902" lon="18.438518749895014">
<ele>117</ele>
<time>2016-06-19T20:15:51Z</time>
</trkpt>
<trkpt lat="53.34894144292902" lon="18.438518749895014">
<ele>117</ele>
<time>2016-06-19T20:15:53Z</time>
</trkpt>
<trkpt lat="53.34894144292902" lon="18.438518749895014">
<ele>117</ele>
<time>2016-06-19T20:15:55Z</time>
</trkpt>
<trkpt lat="53.34894144292902" lon="18.438518749895014">
<ele>117</ele>
<time>2016-06-19T20:15:57Z</time>
</trkpt>
<trkpt lat="53.34894144292902" lon="18.438518749895014">
<ele>117</ele>
<time>2016-06-19T20:15:59Z</time>
</trkpt>
<trkpt lat="53.34894144292902" lon="18.438518749895014">
<ele>117</ele>
<time>2016-06-19T20:16:01Z</time>
</trkpt>
<trkpt lat="53.34894144292902" lon="18.438518749895014">
<ele>117</ele>
<time>2016-06-19T20:16:03Z</time>
</trkpt>
<trkpt lat="53.34894396375702" lon="18.438520084138222">
<ele>117</ele>
<time>2016-06-19T20:16:05Z</time>
</trkpt>
<trkpt lat="53.348975231817334" lon="18.438431585133824">
<ele>117</ele>
<time>2016-06-19T20:16:07Z</time>
</trkpt>
<trkpt lat="53.34903174978668" lon="18.438369424699918">
<ele>116</ele>
<time>2016-06-19T20:16:09Z</time>
</trkpt>
<trkpt lat="53.349063928918575" lon="18.438309004501352">
<ele>116</ele>
<time>2016-06-19T20:16:11Z</time>
</trkpt>
<trkpt lat="53.34909209606664" lon="18.43817619461157">
<ele>116</ele>
<time>2016-06-19T20:16:13Z</time>
</trkpt>
<trkpt lat="53.349092241239994" lon="18.43803869294226">
<ele>116</ele>
<time>2016-06-19T20:16:15Z</time>
</trkpt>
<trkpt lat="53.3490934471418" lon="18.4378952417159">
<ele>116</ele>
<time>2016-06-19T20:16:17Z</time>
</trkpt>
<trkpt lat="53.349099847153326" lon="18.437842403344263">
<ele>116</ele>
<time>2016-06-19T20:16:19Z</time>
</trkpt>
<trkpt lat="53.34909826814358" lon="18.437857919042532">
<ele>116</ele>
<time>2016-06-19T20:16:21Z</time>
</trkpt>
<trkpt lat="53.34912857385807" lon="18.43786911456545">
<ele>116</ele>
<time>2016-06-19T20:16:23Z</time>
</trkpt>
<trkpt lat="53.34910637076705" lon="18.437942471438046">
<ele>116</ele>
<time>2016-06-19T20:16:25Z</time>
</trkpt>
<trkpt lat="53.34902107409598" lon="18.438235652917925">
<ele>115</ele>
<time>2016-06-19T20:16:31Z</time>
</trkpt>
<trkpt lat="53.3490224595158" lon="18.438253983824083">
<ele>115</ele>
<time>2016-06-19T20:16:33Z</time>
</trkpt>
<trkpt lat="53.3489918694443" lon="18.43835612749736">
<ele>115</ele>
<time>2016-06-19T20:16:35Z</time>
</trkpt>
<trkpt lat="53.3489806438978" lon="18.43839079081379">
<ele>115</ele>
<time>2016-06-19T20:16:37Z</time>
</trkpt>
<trkpt lat="53.348973256719624" lon="18.438472242688803">
<ele>115</ele>
<time>2016-06-19T20:16:39Z</time>
</trkpt>
<trkpt lat="53.34896547937825" lon="18.43850837012001">
<ele>115</ele>
<time>2016-06-19T20:16:41Z</time>
</trkpt>
<trkpt lat="53.34896949525671" lon="18.438492255752823">
<ele>114</ele>
<time>2016-06-19T20:16:43Z</time>
</trkpt>
<trkpt lat="53.34897474739804" lon="18.438472862285924">
<ele>114</ele>
<time>2016-06-19T20:16:45Z</time>
</trkpt>
<trkpt lat="53.34900957810441" lon="18.438366559629873">
<ele>115</ele>
<time>2016-06-19T20:16:51Z</time>
</trkpt>
<trkpt lat="53.34901495185859" lon="18.43834895279192">
<ele>114</ele>
<time>2016-06-19T20:16:53Z</time>
</trkpt>
<trkpt lat="53.34901362934871" lon="18.43834094792338">
<ele>114</ele>
<time>2016-06-19T20:16:55Z</time>
</trkpt>
<trkpt lat="53.34900820852196" lon="18.438338776786335">
<ele>114</ele>
<time>2016-06-19T20:16:57Z</time>
</trkpt>
<trkpt lat="53.34897307897282" lon="18.43835598770832">
<ele>114</ele>
<time>2016-06-19T20:17:01Z</time>
</trkpt>
<trkpt lat="53.34895515042242" lon="18.438351251172307">
<ele>113</ele>
<time>2016-06-19T20:17:03Z</time>
</trkpt>
<trkpt lat="53.3489403856495" lon="18.438365888389495">
<ele>113</ele>
<time>2016-06-19T20:17:05Z</time>
</trkpt>
<trkpt lat="53.348932479224864" lon="18.43837955668796">
<ele>112</ele>
<time>2016-06-19T20:17:07Z</time>
</trkpt>
<trkpt lat="53.34892405271295" lon="18.43843052949355">
<ele>113</ele>
<time>2016-06-19T20:17:09Z</time>
</trkpt>
<trkpt lat="53.34893783270944" lon="18.438356116761284">
<ele>113</ele>
<time>2016-06-19T20:17:11Z</time>
</trkpt>
<trkpt lat="53.34893721575895" lon="18.438365981061253">
<ele>113</ele>
<time>2016-06-19T20:17:13Z</time>
</trkpt>
<trkpt lat="53.34892605001844" lon="18.43838324912113">
<ele>113</ele>
<time>2016-06-19T20:17:15Z</time>
</trkpt>
<trkpt lat="53.34890972700751" lon="18.438389915523782">
<ele>113</ele>
<time>2016-06-19T20:17:17Z</time>
</trkpt>
<trkpt lat="53.34890263604885" lon="18.43842522695502">
<ele>113</ele>
<time>2016-06-19T20:17:19Z</time>
</trkpt>
<trkpt lat="53.34889033972052" lon="18.43847459369146">
<ele>112</ele>
<time>2016-06-19T20:17:21Z</time>
</trkpt>
<trkpt lat="53.34888168876167" lon="18.43849828850053">
<ele>112</ele>
<time>2016-06-19T20:17:23Z</time>
</trkpt>
<trkpt lat="53.34887628482778" lon="18.438509217307118">
<ele>112</ele>
<time>2016-06-19T20:17:25Z</time>
</trkpt>
<trkpt lat="53.34887324350347" lon="18.43852153841919">
<ele>112</ele>
<time>2016-06-19T20:17:27Z</time>
</trkpt>
<trkpt lat="53.348873640622045" lon="18.438531139314176">
<ele>111</ele>
<time>2016-06-19T20:17:29Z</time>
</trkpt>
<trkpt lat="53.348879195772405" lon="18.43854676365225">
<ele>111</ele>
<time>2016-06-19T20:17:31Z</time>
</trkpt>
<trkpt lat="53.34888753046479" lon="18.43855701710583">
<ele>111</ele>
<time>2016-06-19T20:17:33Z</time>
</trkpt>
<trkpt lat="53.34894182601005" lon="18.438618309259187">
<ele>111</ele>
<time>2016-06-19T20:17:35Z</time>
</trkpt>
<trkpt lat="" lon="">
<ele></ele>
<time>2016-06-19TZ</time>
</trkpt>
</trkseg>
</trk>
<wpt lat="" lon="">
	<name></name>
	<desc></desc>
	<cmt></cmt>
	<photoid></photoid>
	<type></type>
</wpt>
</gpx>
